<?xml version="1.0" encoding="UTF-8" standalone="no" ?>
<gpx xmlns="http://www.topografix.com/GPX/1/1" xmlns:xsi="http://www.w3.org/2001/XMLSchema-instance" xsi:schemaLocation="http://www.topografix.com/GPX/1/1 http://www.topografix.com/GPX/1/1/gpx.xsd" version="1.1" creator="VisuGPX - https://www.visugpx.com">
  <metadata>
    <name>Tour du Saint Sépulcre de nuit (Mirabeau, 84)</name>
    <desc><![CDATA[Tour du massif du Saint Sépulcre à Mirabeau, Vaucluse. 
Départ de la place de l'église. Tour dans le sens inverse des aiguilles d'une montre. ]]></desc>
  </metadata>
  <trk>
    <name><![CDATA[Tour du Saint Sépulcre de nuit (Mirabeau, 84)_1]]></name>
    <trkseg>
      <trkpt lat="43.70488" lon="5.65532">
        <ele>342.84729003906</ele>
        <time>2009-12-10T17:58:27Z</time>
      </trkpt>
      <trkpt lat="43.70488" lon="5.65531">
        <ele>342.84729003906</ele>
        <time>2009-12-10T17:58:28Z</time>
      </trkpt>
      <trkpt lat="43.70488" lon="5.6553">
        <ele>342.84729003906</ele>
        <time>2009-12-10T17:58:32Z</time>
      </trkpt>
      <trkpt lat="43.70488" lon="5.65521">
        <ele>339.00207519531</ele>
        <time>2009-12-10T17:58:38Z</time>
      </trkpt>
      <trkpt lat="43.70487" lon="5.65512">
        <ele>337.07946777344</ele>
        <time>2009-12-10T17:58:42Z</time>
      </trkpt>
      <trkpt lat="43.70479" lon="5.65516">
        <ele>333.71472167969</ele>
        <time>2009-12-10T17:58:47Z</time>
      </trkpt>
      <trkpt lat="43.70462" lon="5.65539">
        <ele>330.83093261719</ele>
        <time>2009-12-10T17:58:54Z</time>
      </trkpt>
      <trkpt lat="43.70455" lon="5.65536">
        <ele>328.90832519531</ele>
        <time>2009-12-10T17:58:58Z</time>
      </trkpt>
      <trkpt lat="43.70444" lon="5.65509">
        <ele>326.5048828125</ele>
        <time>2009-12-10T17:59:05Z</time>
      </trkpt>
      <trkpt lat="43.7043" lon="5.65492">
        <ele>323.62097167969</ele>
        <time>2009-12-10T17:59:09Z</time>
      </trkpt>
      <trkpt lat="43.70397" lon="5.65473">
        <ele>317.85302734375</ele>
        <time>2009-12-10T17:59:14Z</time>
      </trkpt>
      <trkpt lat="43.70363" lon="5.65457">
        <ele>311.6044921875</ele>
        <time>2009-12-10T17:59:18Z</time>
      </trkpt>
      <trkpt lat="43.70339" lon="5.65434">
        <ele>309.201171875</ele>
        <time>2009-12-10T17:59:22Z</time>
      </trkpt>
      <trkpt lat="43.70341" lon="5.65413">
        <ele>308.23986816406</ele>
        <time>2009-12-10T17:59:25Z</time>
      </trkpt>
      <trkpt lat="43.70364" lon="5.65351">
        <ele>309.201171875</ele>
        <time>2009-12-10T17:59:35Z</time>
      </trkpt>
      <trkpt lat="43.70375" lon="5.65315">
        <ele>311.12377929688</ele>
        <time>2009-12-10T17:59:42Z</time>
      </trkpt>
      <trkpt lat="43.70383" lon="5.65281">
        <ele>313.52722167969</ele>
        <time>2009-12-10T17:59:50Z</time>
      </trkpt>
      <trkpt lat="43.70377" lon="5.65254">
        <ele>315.93041992188</ele>
        <time>2009-12-10T17:59:56Z</time>
      </trkpt>
      <trkpt lat="43.70367" lon="5.65218">
        <ele>318.33361816406</ele>
        <time>2009-12-10T18:00:04Z</time>
      </trkpt>
      <trkpt lat="43.70362" lon="5.65192">
        <ele>321.2177734375</ele>
        <time>2009-12-10T18:00:11Z</time>
      </trkpt>
      <trkpt lat="43.70353" lon="5.65169">
        <ele>325.06298828125</ele>
        <time>2009-12-10T18:00:20Z</time>
      </trkpt>
      <trkpt lat="43.70342" lon="5.65156">
        <ele>326.02416992188</ele>
        <time>2009-12-10T18:00:26Z</time>
      </trkpt>
      <trkpt lat="43.7032" lon="5.65135">
        <ele>328.42761230469</ele>
        <time>2009-12-10T18:00:36Z</time>
      </trkpt>
      <trkpt lat="43.70307" lon="5.65121">
        <ele>330.83093261719</ele>
        <time>2009-12-10T18:00:43Z</time>
      </trkpt>
      <trkpt lat="43.7029" lon="5.65104">
        <ele>331.79211425781</ele>
        <time>2009-12-10T18:00:51Z</time>
      </trkpt>
      <trkpt lat="43.7027" lon="5.65082">
        <ele>331.3115234375</ele>
        <time>2009-12-10T18:00:58Z</time>
      </trkpt>
      <trkpt lat="43.70244" lon="5.65056">
        <ele>329.86950683594</ele>
        <time>2009-12-10T18:01:05Z</time>
      </trkpt>
      <trkpt lat="43.7024" lon="5.65052">
        <ele>329.86950683594</ele>
        <time>2009-12-10T18:01:06Z</time>
      </trkpt>
      <trkpt lat="43.70227" lon="5.65027">
        <ele>328.90832519531</ele>
        <time>2009-12-10T18:01:10Z</time>
      </trkpt>
      <trkpt lat="43.70212" lon="5.64976">
        <ele>329.38891601562</ele>
        <time>2009-12-10T18:01:18Z</time>
      </trkpt>
      <trkpt lat="43.70204" lon="5.64934">
        <ele>328.90832519531</ele>
        <time>2009-12-10T18:01:25Z</time>
      </trkpt>
      <trkpt lat="43.70192" lon="5.64892">
        <ele>327.94677734375</ele>
        <time>2009-12-10T18:01:32Z</time>
      </trkpt>
      <trkpt lat="43.70176" lon="5.64836">
        <ele>327.94677734375</ele>
        <time>2009-12-10T18:01:41Z</time>
      </trkpt>
      <trkpt lat="43.70169" lon="5.64807">
        <ele>328.42761230469</ele>
        <time>2009-12-10T18:01:46Z</time>
      </trkpt>
      <trkpt lat="43.7017" lon="5.64763">
        <ele>327.94677734375</ele>
        <time>2009-12-10T18:01:53Z</time>
      </trkpt>
      <trkpt lat="43.7017" lon="5.64726">
        <ele>328.42761230469</ele>
        <time>2009-12-10T18:01:59Z</time>
      </trkpt>
      <trkpt lat="43.70168" lon="5.64694">
        <ele>330.83093261719</ele>
        <time>2009-12-10T18:02:05Z</time>
      </trkpt>
      <trkpt lat="43.70163" lon="5.64653">
        <ele>336.59887695312</ele>
        <time>2009-12-10T18:02:15Z</time>
      </trkpt>
      <trkpt lat="43.70153" lon="5.64616">
        <ele>339.48266601562</ele>
        <time>2009-12-10T18:02:24Z</time>
      </trkpt>
      <trkpt lat="43.7014" lon="5.6458">
        <ele>341.88598632812</ele>
        <time>2009-12-10T18:02:32Z</time>
      </trkpt>
      <trkpt lat="43.70127" lon="5.64557">
        <ele>344.77001953125</ele>
        <time>2009-12-10T18:02:38Z</time>
      </trkpt>
      <trkpt lat="43.70109" lon="5.6453">
        <ele>347.17321777344</ele>
        <time>2009-12-10T18:02:45Z</time>
      </trkpt>
      <trkpt lat="43.70095" lon="5.64493">
        <ele>349.09582519531</ele>
        <time>2009-12-10T18:02:53Z</time>
      </trkpt>
      <trkpt lat="43.70091" lon="5.64455">
        <ele>349.09582519531</ele>
        <time>2009-12-10T18:03:00Z</time>
      </trkpt>
      <trkpt lat="43.70084" lon="5.6441">
        <ele>350.53784179688</ele>
        <time>2009-12-10T18:03:09Z</time>
      </trkpt>
      <trkpt lat="43.70073" lon="5.64389">
        <ele>351.97985839844</ele>
        <time>2009-12-10T18:03:15Z</time>
      </trkpt>
      <trkpt lat="43.70055" lon="5.64369">
        <ele>352.94116210938</ele>
        <time>2009-12-10T18:03:23Z</time>
      </trkpt>
      <trkpt lat="43.70044" lon="5.64351">
        <ele>353.421875</ele>
        <time>2009-12-10T18:03:29Z</time>
      </trkpt>
      <trkpt lat="43.70029" lon="5.64331">
        <ele>354.86376953125</ele>
        <time>2009-12-10T18:03:36Z</time>
      </trkpt>
      <trkpt lat="43.7001" lon="5.64307">
        <ele>355.8251953125</ele>
        <time>2009-12-10T18:03:45Z</time>
      </trkpt>
      <trkpt lat="43.69995" lon="5.64283">
        <ele>357.74780273438</ele>
        <time>2009-12-10T18:03:53Z</time>
      </trkpt>
      <trkpt lat="43.69987" lon="5.64266">
        <ele>359.18969726562</ele>
        <time>2009-12-10T18:03:59Z</time>
      </trkpt>
      <trkpt lat="43.69977" lon="5.64246">
        <ele>360.15112304688</ele>
        <time>2009-12-10T18:04:05Z</time>
      </trkpt>
      <trkpt lat="43.69973" lon="5.64229">
        <ele>362.55432128906</ele>
        <time>2009-12-10T18:04:10Z</time>
      </trkpt>
      <trkpt lat="43.69968" lon="5.64222">
        <ele>364.95764160156</ele>
        <time>2009-12-10T18:04:14Z</time>
      </trkpt>
      <trkpt lat="43.69956" lon="5.64201">
        <ele>366.39953613281</ele>
        <time>2009-12-10T18:04:23Z</time>
      </trkpt>
      <trkpt lat="43.6995" lon="5.64186">
        <ele>367.36096191406</ele>
        <time>2009-12-10T18:04:29Z</time>
      </trkpt>
      <trkpt lat="43.69951" lon="5.64173">
        <ele>367.84155273438</ele>
        <time>2009-12-10T18:04:36Z</time>
      </trkpt>
      <trkpt lat="43.69954" lon="5.64156">
        <ele>368.322265625</ele>
        <time>2009-12-10T18:04:44Z</time>
      </trkpt>
      <trkpt lat="43.69958" lon="5.64142">
        <ele>369.28369140625</ele>
        <time>2009-12-10T18:04:51Z</time>
      </trkpt>
      <trkpt lat="43.69961" lon="5.64124">
        <ele>370.24487304688</ele>
        <time>2009-12-10T18:05:00Z</time>
      </trkpt>
      <trkpt lat="43.69966" lon="5.64113">
        <ele>371.68688964844</ele>
        <time>2009-12-10T18:05:07Z</time>
      </trkpt>
      <trkpt lat="43.69968" lon="5.64108">
        <ele>372.64819335938</ele>
        <time>2009-12-10T18:05:13Z</time>
      </trkpt>
      <trkpt lat="43.69967" lon="5.64101">
        <ele>374.57080078125</ele>
        <time>2009-12-10T18:06:50Z</time>
      </trkpt>
      <trkpt lat="43.69973" lon="5.64082">
        <ele>375.05151367188</ele>
        <time>2009-12-10T18:06:58Z</time>
      </trkpt>
      <trkpt lat="43.69979" lon="5.6407">
        <ele>377.45483398438</ele>
        <time>2009-12-10T18:07:03Z</time>
      </trkpt>
      <trkpt lat="43.69976" lon="5.64057">
        <ele>377.93542480469</ele>
        <time>2009-12-10T18:07:08Z</time>
      </trkpt>
      <trkpt lat="43.69967" lon="5.64045">
        <ele>378.89685058594</ele>
        <time>2009-12-10T18:07:14Z</time>
      </trkpt>
      <trkpt lat="43.69965" lon="5.64027">
        <ele>378.89685058594</ele>
        <time>2009-12-10T18:07:19Z</time>
      </trkpt>
      <trkpt lat="43.6996" lon="5.64007">
        <ele>380.81945800781</ele>
        <time>2009-12-10T18:07:26Z</time>
      </trkpt>
      <trkpt lat="43.69966" lon="5.63993">
        <ele>381.30004882812</ele>
        <time>2009-12-10T18:07:32Z</time>
      </trkpt>
      <trkpt lat="43.6997" lon="5.63983">
        <ele>382.74206542969</ele>
        <time>2009-12-10T18:07:38Z</time>
      </trkpt>
      <trkpt lat="43.69975" lon="5.63971">
        <ele>385.14538574219</ele>
        <time>2009-12-10T18:07:45Z</time>
      </trkpt>
      <trkpt lat="43.6998" lon="5.63962">
        <ele>386.58740234375</ele>
        <time>2009-12-10T18:07:51Z</time>
      </trkpt>
      <trkpt lat="43.69982" lon="5.63948">
        <ele>388.029296875</ele>
        <time>2009-12-10T18:07:58Z</time>
      </trkpt>
      <trkpt lat="43.69986" lon="5.63934">
        <ele>389.95190429688</ele>
        <time>2009-12-10T18:08:05Z</time>
      </trkpt>
      <trkpt lat="43.69992" lon="5.63918">
        <ele>391.39379882812</ele>
        <time>2009-12-10T18:08:13Z</time>
      </trkpt>
      <trkpt lat="43.69995" lon="5.63904">
        <ele>391.39379882812</ele>
        <time>2009-12-10T18:08:20Z</time>
      </trkpt>
      <trkpt lat="43.69994" lon="5.63891">
        <ele>390.91320800781</ele>
        <time>2009-12-10T18:08:27Z</time>
      </trkpt>
      <trkpt lat="43.6999" lon="5.63875">
        <ele>392.35534667969</ele>
        <time>2009-12-10T18:08:35Z</time>
      </trkpt>
      <trkpt lat="43.69986" lon="5.63866">
        <ele>392.35534667969</ele>
        <time>2009-12-10T18:08:39Z</time>
      </trkpt>
      <trkpt lat="43.6998" lon="5.6385">
        <ele>395.71984863281</ele>
        <time>2009-12-10T18:08:46Z</time>
      </trkpt>
      <trkpt lat="43.6998" lon="5.63833">
        <ele>397.64245605469</ele>
        <time>2009-12-10T18:08:53Z</time>
      </trkpt>
      <trkpt lat="43.6998" lon="5.63816">
        <ele>400.0458984375</ele>
        <time>2009-12-10T18:09:00Z</time>
      </trkpt>
      <trkpt lat="43.6998" lon="5.63801">
        <ele>401.96850585938</ele>
        <time>2009-12-10T18:09:06Z</time>
      </trkpt>
      <trkpt lat="43.69976" lon="5.63783">
        <ele>403.89111328125</ele>
        <time>2009-12-10T18:09:13Z</time>
      </trkpt>
      <trkpt lat="43.69971" lon="5.63769">
        <ele>404.37170410156</ele>
        <time>2009-12-10T18:09:19Z</time>
      </trkpt>
      <trkpt lat="43.69971" lon="5.63754">
        <ele>403.41040039062</ele>
        <time>2009-12-10T18:09:24Z</time>
      </trkpt>
      <trkpt lat="43.69974" lon="5.63742">
        <ele>402.44909667969</ele>
        <time>2009-12-10T18:09:27Z</time>
      </trkpt>
      <trkpt lat="43.69994" lon="5.63733">
        <ele>400.0458984375</ele>
        <time>2009-12-10T18:09:32Z</time>
      </trkpt>
      <trkpt lat="43.69998" lon="5.63732">
        <ele>399.56506347656</ele>
        <time>2009-12-10T18:09:33Z</time>
      </trkpt>
      <trkpt lat="43.70014" lon="5.63713">
        <ele>397.16174316406</ele>
        <time>2009-12-10T18:09:38Z</time>
      </trkpt>
      <trkpt lat="43.70017" lon="5.63708">
        <ele>396.20056152344</ele>
        <time>2009-12-10T18:09:39Z</time>
      </trkpt>
      <trkpt lat="43.70046" lon="5.63673">
        <ele>391.39379882812</ele>
        <time>2009-12-10T18:09:46Z</time>
      </trkpt>
      <trkpt lat="43.70055" lon="5.63657">
        <ele>389.95190429688</ele>
        <time>2009-12-10T18:09:49Z</time>
      </trkpt>
      <trkpt lat="43.70076" lon="5.63631">
        <ele>388.51000976562</ele>
        <time>2009-12-10T18:09:55Z</time>
      </trkpt>
      <trkpt lat="43.70089" lon="5.63624">
        <ele>386.58740234375</ele>
        <time>2009-12-10T18:09:59Z</time>
      </trkpt>
      <trkpt lat="43.70103" lon="5.63615">
        <ele>385.14538574219</ele>
        <time>2009-12-10T18:10:03Z</time>
      </trkpt>
      <trkpt lat="43.70105" lon="5.6361">
        <ele>385.14538574219</ele>
        <time>2009-12-10T18:10:04Z</time>
      </trkpt>
      <trkpt lat="43.70116" lon="5.63571">
        <ele>382.26135253906</ele>
        <time>2009-12-10T18:10:12Z</time>
      </trkpt>
      <trkpt lat="43.70127" lon="5.63539">
        <ele>379.37744140625</ele>
        <time>2009-12-10T18:10:18Z</time>
      </trkpt>
      <trkpt lat="43.70137" lon="5.63507">
        <ele>377.45483398438</ele>
        <time>2009-12-10T18:10:24Z</time>
      </trkpt>
      <trkpt lat="43.70148" lon="5.63477">
        <ele>375.05151367188</ele>
        <time>2009-12-10T18:10:30Z</time>
      </trkpt>
      <trkpt lat="43.70149" lon="5.63472">
        <ele>374.57080078125</ele>
        <time>2009-12-10T18:10:31Z</time>
      </trkpt>
      <trkpt lat="43.70154" lon="5.63462">
        <ele>374.09008789062</ele>
        <time>2009-12-10T18:10:33Z</time>
      </trkpt>
      <trkpt lat="43.70159" lon="5.63441">
        <ele>372.64819335938</ele>
        <time>2009-12-10T18:10:37Z</time>
      </trkpt>
      <trkpt lat="43.70168" lon="5.63387">
        <ele>370.7255859375</ele>
        <time>2009-12-10T18:10:47Z</time>
      </trkpt>
      <trkpt lat="43.70166" lon="5.6337">
        <ele>370.7255859375</ele>
        <time>2009-12-10T18:10:52Z</time>
      </trkpt>
      <trkpt lat="43.70166" lon="5.63371">
        <ele>370.7255859375</ele>
        <time>2009-12-10T18:10:57Z</time>
      </trkpt>
      <trkpt lat="43.70166" lon="5.63365">
        <ele>370.7255859375</ele>
        <time>2009-12-10T18:11:04Z</time>
      </trkpt>
      <trkpt lat="43.70168" lon="5.63346">
        <ele>370.24487304688</ele>
        <time>2009-12-10T18:11:10Z</time>
      </trkpt>
      <trkpt lat="43.70174" lon="5.63324">
        <ele>370.7255859375</ele>
        <time>2009-12-10T18:11:16Z</time>
      </trkpt>
      <trkpt lat="43.70183" lon="5.63308">
        <ele>370.24487304688</ele>
        <time>2009-12-10T18:11:20Z</time>
      </trkpt>
      <trkpt lat="43.70194" lon="5.63278">
        <ele>366.88024902344</ele>
        <time>2009-12-10T18:11:26Z</time>
      </trkpt>
      <trkpt lat="43.70201" lon="5.63251">
        <ele>363.99633789062</ele>
        <time>2009-12-10T18:11:31Z</time>
      </trkpt>
      <trkpt lat="43.70214" lon="5.63242">
        <ele>361.59313964844</ele>
        <time>2009-12-10T18:11:35Z</time>
      </trkpt>
      <trkpt lat="43.70218" lon="5.63243">
        <ele>361.59313964844</ele>
        <time>2009-12-10T18:11:36Z</time>
      </trkpt>
      <trkpt lat="43.70239" lon="5.6325">
        <ele>362.55432128906</ele>
        <time>2009-12-10T18:11:42Z</time>
      </trkpt>
      <trkpt lat="43.70244" lon="5.6325">
        <ele>363.51574707031</ele>
        <time>2009-12-10T18:11:44Z</time>
      </trkpt>
      <trkpt lat="43.70251" lon="5.63254">
        <ele>365.9189453125</ele>
        <time>2009-12-10T18:11:50Z</time>
      </trkpt>
      <trkpt lat="43.70252" lon="5.63256">
        <ele>363.03503417969</ele>
        <time>2009-12-10T18:12:01Z</time>
      </trkpt>
      <trkpt lat="43.70255" lon="5.63259">
        <ele>364.47692871094</ele>
        <time>2009-12-10T18:12:08Z</time>
      </trkpt>
      <trkpt lat="43.70261" lon="5.63262">
        <ele>367.36096191406</ele>
        <time>2009-12-10T18:12:14Z</time>
      </trkpt>
      <trkpt lat="43.70263" lon="5.63265">
        <ele>370.7255859375</ele>
        <time>2009-12-10T18:12:20Z</time>
      </trkpt>
      <trkpt lat="43.70271" lon="5.63274">
        <ele>374.09008789062</ele>
        <time>2009-12-10T18:12:27Z</time>
      </trkpt>
      <trkpt lat="43.70272" lon="5.63277">
        <ele>373.60949707031</ele>
        <time>2009-12-10T18:12:33Z</time>
      </trkpt>
      <trkpt lat="43.70273" lon="5.63279">
        <ele>373.12890625</ele>
        <time>2009-12-10T18:12:45Z</time>
      </trkpt>
      <trkpt lat="43.70276" lon="5.63286">
        <ele>372.16748046875</ele>
        <time>2009-12-10T18:12:49Z</time>
      </trkpt>
      <trkpt lat="43.70291" lon="5.633">
        <ele>371.68688964844</ele>
        <time>2009-12-10T18:12:56Z</time>
      </trkpt>
      <trkpt lat="43.70302" lon="5.63282">
        <ele>372.64819335938</ele>
        <time>2009-12-10T18:13:02Z</time>
      </trkpt>
      <trkpt lat="43.70303" lon="5.63278">
        <ele>372.64819335938</ele>
        <time>2009-12-10T18:13:03Z</time>
      </trkpt>
      <trkpt lat="43.70308" lon="5.63244">
        <ele>373.12890625</ele>
        <time>2009-12-10T18:13:11Z</time>
      </trkpt>
      <trkpt lat="43.7031" lon="5.63218">
        <ele>374.09008789062</ele>
        <time>2009-12-10T18:13:18Z</time>
      </trkpt>
      <trkpt lat="43.70309" lon="5.63193">
        <ele>375.05151367188</ele>
        <time>2009-12-10T18:13:25Z</time>
      </trkpt>
      <trkpt lat="43.70315" lon="5.63169">
        <ele>375.05151367188</ele>
        <time>2009-12-10T18:13:31Z</time>
      </trkpt>
      <trkpt lat="43.7032" lon="5.63146">
        <ele>374.57080078125</ele>
        <time>2009-12-10T18:13:38Z</time>
      </trkpt>
      <trkpt lat="43.70331" lon="5.63122">
        <ele>374.57080078125</ele>
        <time>2009-12-10T18:13:45Z</time>
      </trkpt>
      <trkpt lat="43.7034" lon="5.63095">
        <ele>374.57080078125</ele>
        <time>2009-12-10T18:13:52Z</time>
      </trkpt>
      <trkpt lat="43.70349" lon="5.63066">
        <ele>375.05151367188</ele>
        <time>2009-12-10T18:14:00Z</time>
      </trkpt>
      <trkpt lat="43.70361" lon="5.6304">
        <ele>373.60949707031</ele>
        <time>2009-12-10T18:14:06Z</time>
      </trkpt>
      <trkpt lat="43.70371" lon="5.6302">
        <ele>372.64819335938</ele>
        <time>2009-12-10T18:14:11Z</time>
      </trkpt>
      <trkpt lat="43.70387" lon="5.63009">
        <ele>372.16748046875</ele>
        <time>2009-12-10T18:14:16Z</time>
      </trkpt>
      <trkpt lat="43.70398" lon="5.62998">
        <ele>372.16748046875</ele>
        <time>2009-12-10T18:14:21Z</time>
      </trkpt>
      <trkpt lat="43.7041" lon="5.62984">
        <ele>372.16748046875</ele>
        <time>2009-12-10T18:14:27Z</time>
      </trkpt>
      <trkpt lat="43.70417" lon="5.6297">
        <ele>371.20629882812</ele>
        <time>2009-12-10T18:14:32Z</time>
      </trkpt>
      <trkpt lat="43.7043" lon="5.62952">
        <ele>370.7255859375</ele>
        <time>2009-12-10T18:14:37Z</time>
      </trkpt>
      <trkpt lat="43.7044" lon="5.62933">
        <ele>370.7255859375</ele>
        <time>2009-12-10T18:14:42Z</time>
      </trkpt>
      <trkpt lat="43.70439" lon="5.62929">
        <ele>371.20629882812</ele>
        <time>2009-12-10T18:14:44Z</time>
      </trkpt>
      <trkpt lat="43.70432" lon="5.62931">
        <ele>372.64819335938</ele>
        <time>2009-12-10T18:14:49Z</time>
      </trkpt>
      <trkpt lat="43.7042" lon="5.62944">
        <ele>375.05151367188</ele>
        <time>2009-12-10T18:14:56Z</time>
      </trkpt>
      <trkpt lat="43.70409" lon="5.62948">
        <ele>376.01281738281</ele>
        <time>2009-12-10T18:15:02Z</time>
      </trkpt>
      <trkpt lat="43.70408" lon="5.6295">
        <ele>376.49353027344</ele>
        <time>2009-12-10T18:15:10Z</time>
      </trkpt>
      <trkpt lat="43.70406" lon="5.62951">
        <ele>363.99633789062</ele>
        <time>2009-12-10T18:16:38Z</time>
      </trkpt>
      <trkpt lat="43.70407" lon="5.6295">
        <ele>367.36096191406</ele>
        <time>2009-12-10T18:16:56Z</time>
      </trkpt>
      <trkpt lat="43.70406" lon="5.6295">
        <ele>367.36096191406</ele>
        <time>2009-12-10T18:16:57Z</time>
      </trkpt>
      <trkpt lat="43.70397" lon="5.62946">
        <ele>368.80297851562</ele>
        <time>2009-12-10T18:17:04Z</time>
      </trkpt>
      <trkpt lat="43.70394" lon="5.62942">
        <ele>369.28369140625</ele>
        <time>2009-12-10T18:17:07Z</time>
      </trkpt>
      <trkpt lat="43.7039" lon="5.6294">
        <ele>370.7255859375</ele>
        <time>2009-12-10T18:17:14Z</time>
      </trkpt>
      <trkpt lat="43.7039" lon="5.62939">
        <ele>373.60949707031</ele>
        <time>2009-12-10T18:17:29Z</time>
      </trkpt>
      <trkpt lat="43.70388" lon="5.62936">
        <ele>375.05151367188</ele>
        <time>2009-12-10T18:17:36Z</time>
      </trkpt>
      <trkpt lat="43.70386" lon="5.62914">
        <ele>377.45483398438</ele>
        <time>2009-12-10T18:17:45Z</time>
      </trkpt>
      <trkpt lat="43.70386" lon="5.62895">
        <ele>378.89685058594</ele>
        <time>2009-12-10T18:17:52Z</time>
      </trkpt>
      <trkpt lat="43.70386" lon="5.62876">
        <ele>380.81945800781</ele>
        <time>2009-12-10T18:17:59Z</time>
      </trkpt>
      <trkpt lat="43.70376" lon="5.62868">
        <ele>383.70324707031</ele>
        <time>2009-12-10T18:18:05Z</time>
      </trkpt>
      <trkpt lat="43.70374" lon="5.62869">
        <ele>383.70324707031</ele>
        <time>2009-12-10T18:18:06Z</time>
      </trkpt>
      <trkpt lat="43.70364" lon="5.6288">
        <ele>386.58740234375</ele>
        <time>2009-12-10T18:18:13Z</time>
      </trkpt>
      <trkpt lat="43.70353" lon="5.62894">
        <ele>388.99060058594</ele>
        <time>2009-12-10T18:18:21Z</time>
      </trkpt>
      <trkpt lat="43.70342" lon="5.62908">
        <ele>392.35534667969</ele>
        <time>2009-12-10T18:18:29Z</time>
      </trkpt>
      <trkpt lat="43.70332" lon="5.62919">
        <ele>394.75854492188</ele>
        <time>2009-12-10T18:18:36Z</time>
      </trkpt>
      <trkpt lat="43.70319" lon="5.62932">
        <ele>397.64245605469</ele>
        <time>2009-12-10T18:18:44Z</time>
      </trkpt>
      <trkpt lat="43.70308" lon="5.62943">
        <ele>398.60375976562</ele>
        <time>2009-12-10T18:18:50Z</time>
      </trkpt>
      <trkpt lat="43.70288" lon="5.62958">
        <ele>397.64245605469</ele>
        <time>2009-12-10T18:18:58Z</time>
      </trkpt>
      <trkpt lat="43.70267" lon="5.62969">
        <ele>397.64245605469</ele>
        <time>2009-12-10T18:19:07Z</time>
      </trkpt>
      <trkpt lat="43.70253" lon="5.62981">
        <ele>399.08435058594</ele>
        <time>2009-12-10T18:19:14Z</time>
      </trkpt>
      <trkpt lat="43.7024" lon="5.62996">
        <ele>401.48779296875</ele>
        <time>2009-12-10T18:19:22Z</time>
      </trkpt>
      <trkpt lat="43.70225" lon="5.63013">
        <ele>404.37170410156</ele>
        <time>2009-12-10T18:19:31Z</time>
      </trkpt>
      <trkpt lat="43.70208" lon="5.63033">
        <ele>406.29431152344</ele>
        <time>2009-12-10T18:19:41Z</time>
      </trkpt>
      <trkpt lat="43.70192" lon="5.63045">
        <ele>406.29431152344</ele>
        <time>2009-12-10T18:19:48Z</time>
      </trkpt>
      <trkpt lat="43.70174" lon="5.63043">
        <ele>405.3330078125</ele>
        <time>2009-12-10T18:19:55Z</time>
      </trkpt>
      <trkpt lat="43.70158" lon="5.63027">
        <ele>405.81372070312</ele>
        <time>2009-12-10T18:20:02Z</time>
      </trkpt>
      <trkpt lat="43.70147" lon="5.62998">
        <ele>406.29431152344</ele>
        <time>2009-12-10T18:20:11Z</time>
      </trkpt>
      <trkpt lat="43.70145" lon="5.62971">
        <ele>406.77490234375</ele>
        <time>2009-12-10T18:20:19Z</time>
      </trkpt>
      <trkpt lat="43.7014" lon="5.62943">
        <ele>407.736328125</ele>
        <time>2009-12-10T18:20:27Z</time>
      </trkpt>
      <trkpt lat="43.7013" lon="5.62916">
        <ele>410.62023925781</ele>
        <time>2009-12-10T18:20:35Z</time>
      </trkpt>
      <trkpt lat="43.70118" lon="5.62896">
        <ele>414.94616699219</ele>
        <time>2009-12-10T18:20:42Z</time>
      </trkpt>
      <trkpt lat="43.70099" lon="5.62861">
        <ele>420.2333984375</ele>
        <time>2009-12-10T18:20:52Z</time>
      </trkpt>
      <trkpt lat="43.70083" lon="5.62832">
        <ele>421.67541503906</ele>
        <time>2009-12-10T18:21:00Z</time>
      </trkpt>
      <trkpt lat="43.70067" lon="5.62806">
        <ele>422.15600585938</ele>
        <time>2009-12-10T18:21:07Z</time>
      </trkpt>
      <trkpt lat="43.70049" lon="5.62776">
        <ele>422.63671875</ele>
        <time>2009-12-10T18:21:15Z</time>
      </trkpt>
      <trkpt lat="43.70029" lon="5.62734">
        <ele>422.15600585938</ele>
        <time>2009-12-10T18:21:25Z</time>
      </trkpt>
      <trkpt lat="43.70015" lon="5.62703">
        <ele>423.11743164062</ele>
        <time>2009-12-10T18:21:33Z</time>
      </trkpt>
      <trkpt lat="43.7" lon="5.62673">
        <ele>424.55944824219</ele>
        <time>2009-12-10T18:21:42Z</time>
      </trkpt>
      <trkpt lat="43.69987" lon="5.62648">
        <ele>425.04016113281</ele>
        <time>2009-12-10T18:21:50Z</time>
      </trkpt>
      <trkpt lat="43.6997" lon="5.62629">
        <ele>424.55944824219</ele>
        <time>2009-12-10T18:21:58Z</time>
      </trkpt>
      <trkpt lat="43.69957" lon="5.62629">
        <ele>424.07873535156</ele>
        <time>2009-12-10T18:22:03Z</time>
      </trkpt>
      <trkpt lat="43.69944" lon="5.62643">
        <ele>424.07873535156</ele>
        <time>2009-12-10T18:22:09Z</time>
      </trkpt>
      <trkpt lat="43.69941" lon="5.62665">
        <ele>423.59802246094</ele>
        <time>2009-12-10T18:22:15Z</time>
      </trkpt>
      <trkpt lat="43.69938" lon="5.62696">
        <ele>424.07873535156</ele>
        <time>2009-12-10T18:22:24Z</time>
      </trkpt>
      <trkpt lat="43.69927" lon="5.62722">
        <ele>425.04016113281</ele>
        <time>2009-12-10T18:22:33Z</time>
      </trkpt>
      <trkpt lat="43.69912" lon="5.62731">
        <ele>424.55944824219</ele>
        <time>2009-12-10T18:22:39Z</time>
      </trkpt>
      <trkpt lat="43.69887" lon="5.62726">
        <ele>423.59802246094</ele>
        <time>2009-12-10T18:22:47Z</time>
      </trkpt>
      <trkpt lat="43.69859" lon="5.62713">
        <ele>424.07873535156</ele>
        <time>2009-12-10T18:22:56Z</time>
      </trkpt>
      <trkpt lat="43.6984" lon="5.62702">
        <ele>425.04016113281</ele>
        <time>2009-12-10T18:23:03Z</time>
      </trkpt>
      <trkpt lat="43.69822" lon="5.62693">
        <ele>426.48205566406</ele>
        <time>2009-12-10T18:23:10Z</time>
      </trkpt>
      <trkpt lat="43.69803" lon="5.62685">
        <ele>428.40466308594</ele>
        <time>2009-12-10T18:23:17Z</time>
      </trkpt>
      <trkpt lat="43.69783" lon="5.62673">
        <ele>431.28857421875</ele>
        <time>2009-12-10T18:23:25Z</time>
      </trkpt>
      <trkpt lat="43.69761" lon="5.62658">
        <ele>434.17260742188</ele>
        <time>2009-12-10T18:23:34Z</time>
      </trkpt>
      <trkpt lat="43.69741" lon="5.62638">
        <ele>436.57592773438</ele>
        <time>2009-12-10T18:23:43Z</time>
      </trkpt>
      <trkpt lat="43.69725" lon="5.62628">
        <ele>438.01782226562</ele>
        <time>2009-12-10T18:23:49Z</time>
      </trkpt>
      <trkpt lat="43.69701" lon="5.62617">
        <ele>439.9404296875</ele>
        <time>2009-12-10T18:23:58Z</time>
      </trkpt>
      <trkpt lat="43.69673" lon="5.62609">
        <ele>440.90185546875</ele>
        <time>2009-12-10T18:24:08Z</time>
      </trkpt>
      <trkpt lat="43.69651" lon="5.626">
        <ele>442.82446289062</ele>
        <time>2009-12-10T18:24:17Z</time>
      </trkpt>
      <trkpt lat="43.69629" lon="5.62591">
        <ele>446.18908691406</ele>
        <time>2009-12-10T18:24:26Z</time>
      </trkpt>
      <trkpt lat="43.69611" lon="5.62587">
        <ele>447.15026855469</ele>
        <time>2009-12-10T18:24:33Z</time>
      </trkpt>
      <trkpt lat="43.69587" lon="5.62582">
        <ele>447.15026855469</ele>
        <time>2009-12-10T18:24:42Z</time>
      </trkpt>
      <trkpt lat="43.69567" lon="5.62578">
        <ele>447.63098144531</ele>
        <time>2009-12-10T18:24:49Z</time>
      </trkpt>
      <trkpt lat="43.69554" lon="5.62572">
        <ele>448.11181640625</ele>
        <time>2009-12-10T18:24:55Z</time>
      </trkpt>
      <trkpt lat="43.69544" lon="5.62559">
        <ele>449.5537109375</ele>
        <time>2009-12-10T18:25:01Z</time>
      </trkpt>
      <trkpt lat="43.69536" lon="5.62538">
        <ele>450.51501464844</ele>
        <time>2009-12-10T18:25:08Z</time>
      </trkpt>
      <trkpt lat="43.69527" lon="5.62512">
        <ele>452.43762207031</ele>
        <time>2009-12-10T18:25:17Z</time>
      </trkpt>
      <trkpt lat="43.69524" lon="5.62494">
        <ele>453.39892578125</ele>
        <time>2009-12-10T18:25:23Z</time>
      </trkpt>
      <trkpt lat="43.69525" lon="5.62469">
        <ele>453.87963867188</ele>
        <time>2009-12-10T18:25:31Z</time>
      </trkpt>
      <trkpt lat="43.69522" lon="5.62447">
        <ele>455.32153320312</ele>
        <time>2009-12-10T18:25:39Z</time>
      </trkpt>
      <trkpt lat="43.69518" lon="5.62418">
        <ele>456.76354980469</ele>
        <time>2009-12-10T18:25:48Z</time>
      </trkpt>
      <trkpt lat="43.69517" lon="5.62398">
        <ele>457.72497558594</ele>
        <time>2009-12-10T18:25:55Z</time>
      </trkpt>
      <trkpt lat="43.6951" lon="5.62381">
        <ele>459.64758300781</ele>
        <time>2009-12-10T18:26:02Z</time>
      </trkpt>
      <trkpt lat="43.695" lon="5.62363">
        <ele>463.49279785156</ele>
        <time>2009-12-10T18:26:11Z</time>
      </trkpt>
      <trkpt lat="43.69491" lon="5.6235">
        <ele>467.33813476562</ele>
        <time>2009-12-10T18:26:19Z</time>
      </trkpt>
      <trkpt lat="43.69482" lon="5.62336">
        <ele>470.22192382812</ele>
        <time>2009-12-10T18:26:28Z</time>
      </trkpt>
      <trkpt lat="43.69474" lon="5.62325">
        <ele>472.62536621094</ele>
        <time>2009-12-10T18:26:35Z</time>
      </trkpt>
      <trkpt lat="43.69458" lon="5.62308">
        <ele>473.58666992188</ele>
        <time>2009-12-10T18:26:44Z</time>
      </trkpt>
      <trkpt lat="43.69444" lon="5.6229">
        <ele>473.10607910156</ele>
        <time>2009-12-10T18:26:51Z</time>
      </trkpt>
      <trkpt lat="43.69429" lon="5.62271">
        <ele>472.62536621094</ele>
        <time>2009-12-10T18:26:58Z</time>
      </trkpt>
      <trkpt lat="43.69409" lon="5.62248">
        <ele>471.66394042969</ele>
        <time>2009-12-10T18:27:05Z</time>
      </trkpt>
      <trkpt lat="43.69393" lon="5.62229">
        <ele>470.70263671875</ele>
        <time>2009-12-10T18:27:10Z</time>
      </trkpt>
      <trkpt lat="43.69386" lon="5.62222">
        <ele>470.70263671875</ele>
        <time>2009-12-10T18:27:12Z</time>
      </trkpt>
      <trkpt lat="43.69361" lon="5.62192">
        <ele>470.70263671875</ele>
        <time>2009-12-10T18:27:20Z</time>
      </trkpt>
      <trkpt lat="43.69333" lon="5.62166">
        <ele>471.18334960938</ele>
        <time>2009-12-10T18:27:28Z</time>
      </trkpt>
      <trkpt lat="43.69305" lon="5.62149">
        <ele>470.70263671875</ele>
        <time>2009-12-10T18:27:35Z</time>
      </trkpt>
      <trkpt lat="43.69287" lon="5.62137">
        <ele>471.18334960938</ele>
        <time>2009-12-10T18:27:39Z</time>
      </trkpt>
      <trkpt lat="43.69256" lon="5.62101">
        <ele>466.857421875</ele>
        <time>2009-12-10T18:27:46Z</time>
      </trkpt>
      <trkpt lat="43.69227" lon="5.62067">
        <ele>462.53137207031</ele>
        <time>2009-12-10T18:27:52Z</time>
      </trkpt>
      <trkpt lat="43.69215" lon="5.62053">
        <ele>461.08947753906</ele>
        <time>2009-12-10T18:27:55Z</time>
      </trkpt>
      <trkpt lat="43.69206" lon="5.62027">
        <ele>457.72497558594</ele>
        <time>2009-12-10T18:28:00Z</time>
      </trkpt>
      <trkpt lat="43.69204" lon="5.62017">
        <ele>455.80224609375</ele>
        <time>2009-12-10T18:28:02Z</time>
      </trkpt>
      <trkpt lat="43.69197" lon="5.61994">
        <ele>451.95703125</ele>
        <time>2009-12-10T18:28:06Z</time>
      </trkpt>
      <trkpt lat="43.69192" lon="5.61984">
        <ele>450.03442382812</ele>
        <time>2009-12-10T18:28:08Z</time>
      </trkpt>
      <trkpt lat="43.69189" lon="5.61961">
        <ele>447.63098144531</ele>
        <time>2009-12-10T18:28:12Z</time>
      </trkpt>
      <trkpt lat="43.69191" lon="5.61955">
        <ele>447.15026855469</ele>
        <time>2009-12-10T18:28:13Z</time>
      </trkpt>
      <trkpt lat="43.69202" lon="5.61925">
        <ele>446.66967773438</ele>
        <time>2009-12-10T18:28:19Z</time>
      </trkpt>
      <trkpt lat="43.6921" lon="5.61906">
        <ele>447.63098144531</ele>
        <time>2009-12-10T18:28:24Z</time>
      </trkpt>
      <trkpt lat="43.69222" lon="5.61891">
        <ele>448.11181640625</ele>
        <time>2009-12-10T18:28:31Z</time>
      </trkpt>
      <trkpt lat="43.69235" lon="5.6188">
        <ele>448.11181640625</ele>
        <time>2009-12-10T18:28:37Z</time>
      </trkpt>
      <trkpt lat="43.69245" lon="5.61876">
        <ele>449.07299804688</ele>
        <time>2009-12-10T18:28:43Z</time>
      </trkpt>
      <trkpt lat="43.69242" lon="5.61876">
        <ele>451.95703125</ele>
        <time>2009-12-10T18:28:59Z</time>
      </trkpt>
      <trkpt lat="43.69239" lon="5.61875">
        <ele>452.91821289062</ele>
        <time>2009-12-10T18:29:06Z</time>
      </trkpt>
      <trkpt lat="43.69242" lon="5.61873">
        <ele>452.43762207031</ele>
        <time>2009-12-10T18:29:18Z</time>
      </trkpt>
      <trkpt lat="43.69242" lon="5.61871">
        <ele>452.43762207031</ele>
        <time>2009-12-10T18:29:29Z</time>
      </trkpt>
      <trkpt lat="43.69241" lon="5.61868">
        <ele>451.95703125</ele>
        <time>2009-12-10T18:30:35Z</time>
      </trkpt>
      <trkpt lat="43.69246" lon="5.61869">
        <ele>454.36022949219</ele>
        <time>2009-12-10T18:30:41Z</time>
      </trkpt>
      <trkpt lat="43.69256" lon="5.61864">
        <ele>453.87963867188</ele>
        <time>2009-12-10T18:30:47Z</time>
      </trkpt>
      <trkpt lat="43.69269" lon="5.61844">
        <ele>453.87963867188</ele>
        <time>2009-12-10T18:30:54Z</time>
      </trkpt>
      <trkpt lat="43.6928" lon="5.61808">
        <ele>454.36022949219</ele>
        <time>2009-12-10T18:31:03Z</time>
      </trkpt>
      <trkpt lat="43.69291" lon="5.6179">
        <ele>453.87963867188</ele>
        <time>2009-12-10T18:31:08Z</time>
      </trkpt>
      <trkpt lat="43.69304" lon="5.61784">
        <ele>453.39892578125</ele>
        <time>2009-12-10T18:31:11Z</time>
      </trkpt>
      <trkpt lat="43.69344" lon="5.61772">
        <ele>450.51501464844</ele>
        <time>2009-12-10T18:31:18Z</time>
      </trkpt>
      <trkpt lat="43.69358" lon="5.61764">
        <ele>449.5537109375</ele>
        <time>2009-12-10T18:31:21Z</time>
      </trkpt>
      <trkpt lat="43.69386" lon="5.61757">
        <ele>450.03442382812</ele>
        <time>2009-12-10T18:31:28Z</time>
      </trkpt>
      <trkpt lat="43.69411" lon="5.61765">
        <ele>449.07299804688</ele>
        <time>2009-12-10T18:31:34Z</time>
      </trkpt>
      <trkpt lat="43.69442" lon="5.61783">
        <ele>446.66967773438</ele>
        <time>2009-12-10T18:31:40Z</time>
      </trkpt>
      <trkpt lat="43.69471" lon="5.61799">
        <ele>448.59240722656</ele>
        <time>2009-12-10T18:31:47Z</time>
      </trkpt>
      <trkpt lat="43.69487" lon="5.61808">
        <ele>450.51501464844</ele>
        <time>2009-12-10T18:31:53Z</time>
      </trkpt>
      <trkpt lat="43.69501" lon="5.61815">
        <ele>451.95703125</ele>
        <time>2009-12-10T18:32:00Z</time>
      </trkpt>
      <trkpt lat="43.69516" lon="5.61823">
        <ele>452.91821289062</ele>
        <time>2009-12-10T18:32:07Z</time>
      </trkpt>
      <trkpt lat="43.69527" lon="5.61835">
        <ele>455.32153320312</ele>
        <time>2009-12-10T18:32:14Z</time>
      </trkpt>
      <trkpt lat="43.69537" lon="5.61844">
        <ele>456.76354980469</ele>
        <time>2009-12-10T18:32:20Z</time>
      </trkpt>
      <trkpt lat="43.69547" lon="5.61841">
        <ele>457.24426269531</ele>
        <time>2009-12-10T18:32:26Z</time>
      </trkpt>
      <trkpt lat="43.6955" lon="5.61828">
        <ele>458.20556640625</ele>
        <time>2009-12-10T18:32:32Z</time>
      </trkpt>
      <trkpt lat="43.69551" lon="5.61811">
        <ele>458.68615722656</ele>
        <time>2009-12-10T18:32:38Z</time>
      </trkpt>
      <trkpt lat="43.6955" lon="5.61791">
        <ele>459.64758300781</ele>
        <time>2009-12-10T18:32:45Z</time>
      </trkpt>
      <trkpt lat="43.69557" lon="5.61778">
        <ele>459.64758300781</ele>
        <time>2009-12-10T18:32:50Z</time>
      </trkpt>
      <trkpt lat="43.69572" lon="5.61768">
        <ele>459.64758300781</ele>
        <time>2009-12-10T18:32:56Z</time>
      </trkpt>
      <trkpt lat="43.69587" lon="5.61754">
        <ele>460.12817382812</ele>
        <time>2009-12-10T18:33:03Z</time>
      </trkpt>
      <trkpt lat="43.69596" lon="5.61735">
        <ele>461.08947753906</ele>
        <time>2009-12-10T18:33:09Z</time>
      </trkpt>
      <trkpt lat="43.69596" lon="5.61713">
        <ele>462.05078125</ele>
        <time>2009-12-10T18:33:15Z</time>
      </trkpt>
      <trkpt lat="43.69602" lon="5.61684">
        <ele>462.05078125</ele>
        <time>2009-12-10T18:33:22Z</time>
      </trkpt>
      <trkpt lat="43.69619" lon="5.6166">
        <ele>462.53137207031</ele>
        <time>2009-12-10T18:33:30Z</time>
      </trkpt>
      <trkpt lat="43.69635" lon="5.61636">
        <ele>463.49279785156</ele>
        <time>2009-12-10T18:33:38Z</time>
      </trkpt>
      <trkpt lat="43.69648" lon="5.61602">
        <ele>464.4541015625</ele>
        <time>2009-12-10T18:33:47Z</time>
      </trkpt>
      <trkpt lat="43.69647" lon="5.6157">
        <ele>464.93481445312</ele>
        <time>2009-12-10T18:33:54Z</time>
      </trkpt>
      <trkpt lat="43.69651" lon="5.61548">
        <ele>465.41552734375</ele>
        <time>2009-12-10T18:33:59Z</time>
      </trkpt>
      <trkpt lat="43.69663" lon="5.61509">
        <ele>465.89611816406</ele>
        <time>2009-12-10T18:34:08Z</time>
      </trkpt>
      <trkpt lat="43.69668" lon="5.61476">
        <ele>466.37670898438</ele>
        <time>2009-12-10T18:34:15Z</time>
      </trkpt>
      <trkpt lat="43.69663" lon="5.6146">
        <ele>467.81872558594</ele>
        <time>2009-12-10T18:34:19Z</time>
      </trkpt>
      <trkpt lat="43.69649" lon="5.61442">
        <ele>470.22192382812</ele>
        <time>2009-12-10T18:34:25Z</time>
      </trkpt>
      <trkpt lat="43.69634" lon="5.61433">
        <ele>472.14465332031</ele>
        <time>2009-12-10T18:34:30Z</time>
      </trkpt>
      <trkpt lat="43.69608" lon="5.61415">
        <ele>474.06726074219</ele>
        <time>2009-12-10T18:34:39Z</time>
      </trkpt>
      <trkpt lat="43.69593" lon="5.61393">
        <ele>475.02868652344</ele>
        <time>2009-12-10T18:34:46Z</time>
      </trkpt>
      <trkpt lat="43.69588" lon="5.61363">
        <ele>475.98986816406</ele>
        <time>2009-12-10T18:34:53Z</time>
      </trkpt>
      <trkpt lat="43.69588" lon="5.61341">
        <ele>476.95129394531</ele>
        <time>2009-12-10T18:34:59Z</time>
      </trkpt>
      <trkpt lat="43.69595" lon="5.61319">
        <ele>477.43188476562</ele>
        <time>2009-12-10T18:35:05Z</time>
      </trkpt>
      <trkpt lat="43.69605" lon="5.61289">
        <ele>478.39318847656</ele>
        <time>2009-12-10T18:35:14Z</time>
      </trkpt>
      <trkpt lat="43.69606" lon="5.61272">
        <ele>480.31591796875</ele>
        <time>2009-12-10T18:35:20Z</time>
      </trkpt>
      <trkpt lat="43.69606" lon="5.61246">
        <ele>480.31591796875</ele>
        <time>2009-12-10T18:35:28Z</time>
      </trkpt>
      <trkpt lat="43.69604" lon="5.61217">
        <ele>481.7578125</ele>
        <time>2009-12-10T18:35:37Z</time>
      </trkpt>
      <trkpt lat="43.69606" lon="5.61189">
        <ele>483.68041992188</ele>
        <time>2009-12-10T18:35:46Z</time>
      </trkpt>
      <trkpt lat="43.69609" lon="5.61171">
        <ele>484.1611328125</ele>
        <time>2009-12-10T18:35:52Z</time>
      </trkpt>
      <trkpt lat="43.69617" lon="5.6114">
        <ele>485.12243652344</ele>
        <time>2009-12-10T18:36:02Z</time>
      </trkpt>
      <trkpt lat="43.69625" lon="5.61113">
        <ele>485.60302734375</ele>
        <time>2009-12-10T18:36:10Z</time>
      </trkpt>
      <trkpt lat="43.69637" lon="5.61076">
        <ele>485.12243652344</ele>
        <time>2009-12-10T18:36:19Z</time>
      </trkpt>
      <trkpt lat="43.69641" lon="5.61044">
        <ele>483.68041992188</ele>
        <time>2009-12-10T18:36:25Z</time>
      </trkpt>
      <trkpt lat="43.69641" lon="5.61">
        <ele>481.7578125</ele>
        <time>2009-12-10T18:36:32Z</time>
      </trkpt>
      <trkpt lat="43.69636" lon="5.60948">
        <ele>478.87390136719</ele>
        <time>2009-12-10T18:36:39Z</time>
      </trkpt>
      <trkpt lat="43.6963" lon="5.60905">
        <ele>478.39318847656</ele>
        <time>2009-12-10T18:36:45Z</time>
      </trkpt>
      <trkpt lat="43.69622" lon="5.60887">
        <ele>479.3544921875</ele>
        <time>2009-12-10T18:36:49Z</time>
      </trkpt>
      <trkpt lat="43.69613" lon="5.60875">
        <ele>478.87390136719</ele>
        <time>2009-12-10T18:36:52Z</time>
      </trkpt>
      <trkpt lat="43.69592" lon="5.60863">
        <ele>479.3544921875</ele>
        <time>2009-12-10T18:36:57Z</time>
      </trkpt>
      <trkpt lat="43.69561" lon="5.60863">
        <ele>483.19982910156</ele>
        <time>2009-12-10T18:37:05Z</time>
      </trkpt>
      <trkpt lat="43.69542" lon="5.60858">
        <ele>484.1611328125</ele>
        <time>2009-12-10T18:37:11Z</time>
      </trkpt>
      <trkpt lat="43.69539" lon="5.60859">
        <ele>484.1611328125</ele>
        <time>2009-12-10T18:37:16Z</time>
      </trkpt>
      <trkpt lat="43.69543" lon="5.60858">
        <ele>476.47058105469</ele>
        <time>2009-12-10T18:38:37Z</time>
      </trkpt>
      <trkpt lat="43.69543" lon="5.60858">
        <ele>476.47058105469</ele>
        <time>2009-12-10T18:38:50Z</time>
      </trkpt>
      <trkpt lat="43.69544" lon="5.60858">
        <ele>475.50927734375</ele>
        <time>2009-12-10T18:39:13Z</time>
      </trkpt>
      <trkpt lat="43.69543" lon="5.60859">
        <ele>478.39318847656</ele>
        <time>2009-12-10T18:39:49Z</time>
      </trkpt>
      <trkpt lat="43.69543" lon="5.60855">
        <ele>477.91247558594</ele>
        <time>2009-12-10T18:40:35Z</time>
      </trkpt>
      <trkpt lat="43.6954" lon="5.60854">
        <ele>476.95129394531</ele>
        <time>2009-12-10T18:40:42Z</time>
      </trkpt>
      <trkpt lat="43.69538" lon="5.60852">
        <ele>476.95129394531</ele>
        <time>2009-12-10T18:40:47Z</time>
      </trkpt>
      <trkpt lat="43.69529" lon="5.60842">
        <ele>476.47058105469</ele>
        <time>2009-12-10T18:40:53Z</time>
      </trkpt>
      <trkpt lat="43.6951" lon="5.60824">
        <ele>475.98986816406</ele>
        <time>2009-12-10T18:40:59Z</time>
      </trkpt>
      <trkpt lat="43.69489" lon="5.60803">
        <ele>475.50927734375</ele>
        <time>2009-12-10T18:41:05Z</time>
      </trkpt>
      <trkpt lat="43.69473" lon="5.6079">
        <ele>473.58666992188</ele>
        <time>2009-12-10T18:41:10Z</time>
      </trkpt>
      <trkpt lat="43.69455" lon="5.60771">
        <ele>472.62536621094</ele>
        <time>2009-12-10T18:41:14Z</time>
      </trkpt>
      <trkpt lat="43.69441" lon="5.60757">
        <ele>472.14465332031</ele>
        <time>2009-12-10T18:41:17Z</time>
      </trkpt>
      <trkpt lat="43.69432" lon="5.60738">
        <ele>472.14465332031</ele>
        <time>2009-12-10T18:41:21Z</time>
      </trkpt>
      <trkpt lat="43.69421" lon="5.60723">
        <ele>471.18334960938</ele>
        <time>2009-12-10T18:41:25Z</time>
      </trkpt>
      <trkpt lat="43.69412" lon="5.60712">
        <ele>471.66394042969</ele>
        <time>2009-12-10T18:41:27Z</time>
      </trkpt>
      <trkpt lat="43.694" lon="5.60692">
        <ele>473.58666992188</ele>
        <time>2009-12-10T18:41:32Z</time>
      </trkpt>
      <trkpt lat="43.69392" lon="5.60682">
        <ele>475.50927734375</ele>
        <time>2009-12-10T18:41:37Z</time>
      </trkpt>
      <trkpt lat="43.69384" lon="5.60668">
        <ele>476.47058105469</ele>
        <time>2009-12-10T18:41:44Z</time>
      </trkpt>
      <trkpt lat="43.69374" lon="5.60657">
        <ele>476.47058105469</ele>
        <time>2009-12-10T18:41:52Z</time>
      </trkpt>
      <trkpt lat="43.69365" lon="5.60656">
        <ele>473.58666992188</ele>
        <time>2009-12-10T18:41:57Z</time>
      </trkpt>
      <trkpt lat="43.69352" lon="5.60654">
        <ele>467.81872558594</ele>
        <time>2009-12-10T18:42:02Z</time>
      </trkpt>
      <trkpt lat="43.69328" lon="5.60647">
        <ele>460.12817382812</ele>
        <time>2009-12-10T18:42:09Z</time>
      </trkpt>
      <trkpt lat="43.69315" lon="5.60652">
        <ele>459.16687011719</ele>
        <time>2009-12-10T18:42:13Z</time>
      </trkpt>
      <trkpt lat="43.69305" lon="5.60642">
        <ele>457.72497558594</ele>
        <time>2009-12-10T18:42:19Z</time>
      </trkpt>
      <trkpt lat="43.69299" lon="5.60632">
        <ele>457.24426269531</ele>
        <time>2009-12-10T18:42:24Z</time>
      </trkpt>
      <trkpt lat="43.69296" lon="5.60629">
        <ele>457.72497558594</ele>
        <time>2009-12-10T18:42:30Z</time>
      </trkpt>
      <trkpt lat="43.69287" lon="5.60614">
        <ele>456.76354980469</ele>
        <time>2009-12-10T18:42:35Z</time>
      </trkpt>
      <trkpt lat="43.69285" lon="5.6061">
        <ele>456.76354980469</ele>
        <time>2009-12-10T18:42:36Z</time>
      </trkpt>
      <trkpt lat="43.69271" lon="5.60587">
        <ele>457.24426269531</ele>
        <time>2009-12-10T18:42:42Z</time>
      </trkpt>
      <trkpt lat="43.69265" lon="5.60584">
        <ele>456.76354980469</ele>
        <time>2009-12-10T18:42:44Z</time>
      </trkpt>
      <trkpt lat="43.69244" lon="5.60561">
        <ele>456.76354980469</ele>
        <time>2009-12-10T18:42:51Z</time>
      </trkpt>
      <trkpt lat="43.69227" lon="5.60542">
        <ele>456.76354980469</ele>
        <time>2009-12-10T18:42:58Z</time>
      </trkpt>
      <trkpt lat="43.69213" lon="5.60529">
        <ele>459.64758300781</ele>
        <time>2009-12-10T18:43:05Z</time>
      </trkpt>
      <trkpt lat="43.69205" lon="5.60521">
        <ele>462.53137207031</ele>
        <time>2009-12-10T18:43:11Z</time>
      </trkpt>
      <trkpt lat="43.69204" lon="5.60518">
        <ele>463.01208496094</ele>
        <time>2009-12-10T18:43:14Z</time>
      </trkpt>
      <trkpt lat="43.69198" lon="5.60509">
        <ele>462.05078125</ele>
        <time>2009-12-10T18:43:19Z</time>
      </trkpt>
      <trkpt lat="43.6918" lon="5.60499">
        <ele>463.01208496094</ele>
        <time>2009-12-10T18:43:27Z</time>
      </trkpt>
      <trkpt lat="43.69163" lon="5.60493">
        <ele>462.53137207031</ele>
        <time>2009-12-10T18:43:33Z</time>
      </trkpt>
      <trkpt lat="43.69154" lon="5.60489">
        <ele>463.01208496094</ele>
        <time>2009-12-10T18:43:37Z</time>
      </trkpt>
      <trkpt lat="43.69141" lon="5.60483">
        <ele>463.49279785156</ele>
        <time>2009-12-10T18:43:43Z</time>
      </trkpt>
      <trkpt lat="43.69129" lon="5.60477">
        <ele>461.57019042969</ele>
        <time>2009-12-10T18:43:50Z</time>
      </trkpt>
      <trkpt lat="43.69119" lon="5.60466">
        <ele>460.60876464844</ele>
        <time>2009-12-10T18:43:55Z</time>
      </trkpt>
      <trkpt lat="43.69107" lon="5.60456">
        <ele>460.12817382812</ele>
        <time>2009-12-10T18:43:59Z</time>
      </trkpt>
      <trkpt lat="43.69095" lon="5.60434">
        <ele>456.76354980469</ele>
        <time>2009-12-10T18:44:04Z</time>
      </trkpt>
      <trkpt lat="43.69075" lon="5.60408">
        <ele>454.8408203125</ele>
        <time>2009-12-10T18:44:10Z</time>
      </trkpt>
      <trkpt lat="43.69068" lon="5.60385">
        <ele>452.91821289062</ele>
        <time>2009-12-10T18:44:14Z</time>
      </trkpt>
      <trkpt lat="43.69068" lon="5.60378">
        <ele>452.43762207031</ele>
        <time>2009-12-10T18:44:15Z</time>
      </trkpt>
      <trkpt lat="43.69064" lon="5.60338">
        <ele>450.99560546875</ele>
        <time>2009-12-10T18:44:22Z</time>
      </trkpt>
      <trkpt lat="43.69058" lon="5.60319">
        <ele>450.03442382812</ele>
        <time>2009-12-10T18:44:27Z</time>
      </trkpt>
      <trkpt lat="43.69046" lon="5.60303">
        <ele>450.99560546875</ele>
        <time>2009-12-10T18:44:33Z</time>
      </trkpt>
      <trkpt lat="43.69028" lon="5.60282">
        <ele>450.51501464844</ele>
        <time>2009-12-10T18:44:39Z</time>
      </trkpt>
      <trkpt lat="43.69003" lon="5.60241">
        <ele>449.5537109375</ele>
        <time>2009-12-10T18:44:47Z</time>
      </trkpt>
      <trkpt lat="43.68982" lon="5.60194">
        <ele>448.59240722656</ele>
        <time>2009-12-10T18:44:54Z</time>
      </trkpt>
      <trkpt lat="43.68957" lon="5.60156">
        <ele>447.15026855469</ele>
        <time>2009-12-10T18:45:00Z</time>
      </trkpt>
      <trkpt lat="43.68948" lon="5.60143">
        <ele>446.66967773438</ele>
        <time>2009-12-10T18:45:02Z</time>
      </trkpt>
      <trkpt lat="43.68933" lon="5.60113">
        <ele>444.7470703125</ele>
        <time>2009-12-10T18:45:06Z</time>
      </trkpt>
      <trkpt lat="43.68924" lon="5.60083">
        <ele>441.86315917969</ele>
        <time>2009-12-10T18:45:11Z</time>
      </trkpt>
      <trkpt lat="43.68923" lon="5.60076">
        <ele>440.90185546875</ele>
        <time>2009-12-10T18:45:12Z</time>
      </trkpt>
      <trkpt lat="43.68924" lon="5.60039">
        <ele>438.01782226562</ele>
        <time>2009-12-10T18:45:19Z</time>
      </trkpt>
      <trkpt lat="43.68925" lon="5.60018">
        <ele>436.57592773438</ele>
        <time>2009-12-10T18:45:24Z</time>
      </trkpt>
      <trkpt lat="43.6892" lon="5.60002">
        <ele>436.57592773438</ele>
        <time>2009-12-10T18:45:28Z</time>
      </trkpt>
      <trkpt lat="43.68906" lon="5.59997">
        <ele>437.05651855469</ele>
        <time>2009-12-10T18:45:32Z</time>
      </trkpt>
      <trkpt lat="43.68895" lon="5.59991">
        <ele>437.05651855469</ele>
        <time>2009-12-10T18:45:35Z</time>
      </trkpt>
      <trkpt lat="43.68885" lon="5.59974">
        <ele>436.57592773438</ele>
        <time>2009-12-10T18:45:39Z</time>
      </trkpt>
      <trkpt lat="43.68877" lon="5.59939">
        <ele>435.61450195312</ele>
        <time>2009-12-10T18:45:46Z</time>
      </trkpt>
      <trkpt lat="43.68865" lon="5.5989">
        <ele>434.6533203125</ele>
        <time>2009-12-10T18:45:55Z</time>
      </trkpt>
      <trkpt lat="43.6886" lon="5.59873">
        <ele>434.17260742188</ele>
        <time>2009-12-10T18:45:58Z</time>
      </trkpt>
      <trkpt lat="43.68841" lon="5.59831">
        <ele>436.57592773438</ele>
        <time>2009-12-10T18:46:06Z</time>
      </trkpt>
      <trkpt lat="43.68827" lon="5.59797">
        <ele>436.09521484375</ele>
        <time>2009-12-10T18:46:13Z</time>
      </trkpt>
      <trkpt lat="43.68823" lon="5.5978">
        <ele>436.09521484375</ele>
        <time>2009-12-10T18:46:16Z</time>
      </trkpt>
      <trkpt lat="43.68809" lon="5.59759">
        <ele>433.69189453125</ele>
        <time>2009-12-10T18:46:21Z</time>
      </trkpt>
      <trkpt lat="43.68797" lon="5.59763">
        <ele>433.69189453125</ele>
        <time>2009-12-10T18:46:24Z</time>
      </trkpt>
      <trkpt lat="43.68779" lon="5.5977">
        <ele>434.17260742188</ele>
        <time>2009-12-10T18:46:28Z</time>
      </trkpt>
      <trkpt lat="43.68763" lon="5.59763">
        <ele>434.6533203125</ele>
        <time>2009-12-10T18:46:31Z</time>
      </trkpt>
      <trkpt lat="43.68758" lon="5.59758">
        <ele>434.6533203125</ele>
        <time>2009-12-10T18:46:32Z</time>
      </trkpt>
      <trkpt lat="43.68727" lon="5.59723">
        <ele>434.6533203125</ele>
        <time>2009-12-10T18:46:38Z</time>
      </trkpt>
      <trkpt lat="43.68714" lon="5.59698">
        <ele>431.76916503906</ele>
        <time>2009-12-10T18:46:41Z</time>
      </trkpt>
      <trkpt lat="43.68695" lon="5.59655">
        <ele>428.40466308594</ele>
        <time>2009-12-10T18:46:46Z</time>
      </trkpt>
      <trkpt lat="43.68673" lon="5.59634">
        <ele>426.48205566406</ele>
        <time>2009-12-10T18:46:51Z</time>
      </trkpt>
      <trkpt lat="43.68668" lon="5.59633">
        <ele>425.52075195312</ele>
        <time>2009-12-10T18:46:52Z</time>
      </trkpt>
      <trkpt lat="43.68644" lon="5.59632">
        <ele>424.55944824219</ele>
        <time>2009-12-10T18:46:56Z</time>
      </trkpt>
      <trkpt lat="43.68617" lon="5.59618">
        <ele>424.07873535156</ele>
        <time>2009-12-10T18:47:01Z</time>
      </trkpt>
      <trkpt lat="43.68608" lon="5.59597">
        <ele>423.11743164062</ele>
        <time>2009-12-10T18:47:04Z</time>
      </trkpt>
      <trkpt lat="43.68607" lon="5.59589">
        <ele>422.63671875</ele>
        <time>2009-12-10T18:47:05Z</time>
      </trkpt>
      <trkpt lat="43.68602" lon="5.59554">
        <ele>419.27221679688</ele>
        <time>2009-12-10T18:47:09Z</time>
      </trkpt>
      <trkpt lat="43.68588" lon="5.59527">
        <ele>417.349609375</ele>
        <time>2009-12-10T18:47:13Z</time>
      </trkpt>
      <trkpt lat="43.68568" lon="5.59504">
        <ele>415.90747070312</ele>
        <time>2009-12-10T18:47:17Z</time>
      </trkpt>
      <trkpt lat="43.68552" lon="5.59477">
        <ele>414.94616699219</ele>
        <time>2009-12-10T18:47:21Z</time>
      </trkpt>
      <trkpt lat="43.68544" lon="5.59454">
        <ele>413.98486328125</ele>
        <time>2009-12-10T18:47:24Z</time>
      </trkpt>
      <trkpt lat="43.68528" lon="5.59431">
        <ele>412.06225585938</ele>
        <time>2009-12-10T18:47:28Z</time>
      </trkpt>
      <trkpt lat="43.6849" lon="5.59414">
        <ele>411.58166503906</ele>
        <time>2009-12-10T18:47:35Z</time>
      </trkpt>
      <trkpt lat="43.6848" lon="5.59412">
        <ele>411.58166503906</ele>
        <time>2009-12-10T18:47:37Z</time>
      </trkpt>
      <trkpt lat="43.68446" lon="5.5942">
        <ele>411.58166503906</ele>
        <time>2009-12-10T18:47:43Z</time>
      </trkpt>
      <trkpt lat="43.68415" lon="5.59424">
        <ele>409.65905761719</ele>
        <time>2009-12-10T18:47:48Z</time>
      </trkpt>
      <trkpt lat="43.68392" lon="5.59415">
        <ele>408.21704101562</ele>
        <time>2009-12-10T18:47:52Z</time>
      </trkpt>
      <trkpt lat="43.68381" lon="5.59397">
        <ele>408.21704101562</ele>
        <time>2009-12-10T18:47:55Z</time>
      </trkpt>
      <trkpt lat="43.6838" lon="5.59375">
        <ele>408.21704101562</ele>
        <time>2009-12-10T18:47:58Z</time>
      </trkpt>
      <trkpt lat="43.68385" lon="5.59361">
        <ele>407.25561523438</ele>
        <time>2009-12-10T18:48:00Z</time>
      </trkpt>
      <trkpt lat="43.68406" lon="5.5931">
        <ele>403.89111328125</ele>
        <time>2009-12-10T18:48:07Z</time>
      </trkpt>
      <trkpt lat="43.68411" lon="5.59294">
        <ele>402.9296875</ele>
        <time>2009-12-10T18:48:09Z</time>
      </trkpt>
      <trkpt lat="43.68414" lon="5.59276">
        <ele>401.96850585938</ele>
        <time>2009-12-10T18:48:11Z</time>
      </trkpt>
      <trkpt lat="43.68418" lon="5.5926">
        <ele>401.96850585938</ele>
        <time>2009-12-10T18:48:13Z</time>
      </trkpt>
      <trkpt lat="43.68417" lon="5.59228">
        <ele>401.00708007812</ele>
        <time>2009-12-10T18:48:18Z</time>
      </trkpt>
      <trkpt lat="43.68407" lon="5.59205">
        <ele>402.44909667969</ele>
        <time>2009-12-10T18:48:23Z</time>
      </trkpt>
      <trkpt lat="43.68409" lon="5.59196">
        <ele>402.44909667969</ele>
        <time>2009-12-10T18:48:25Z</time>
      </trkpt>
      <trkpt lat="43.68427" lon="5.59161">
        <ele>401.48779296875</ele>
        <time>2009-12-10T18:48:32Z</time>
      </trkpt>
      <trkpt lat="43.68433" lon="5.59146">
        <ele>401.00708007812</ele>
        <time>2009-12-10T18:48:35Z</time>
      </trkpt>
      <trkpt lat="43.68458" lon="5.59108">
        <ele>400.52648925781</ele>
        <time>2009-12-10T18:48:43Z</time>
      </trkpt>
      <trkpt lat="43.68463" lon="5.59093">
        <ele>400.0458984375</ele>
        <time>2009-12-10T18:48:46Z</time>
      </trkpt>
      <trkpt lat="43.68461" lon="5.59065">
        <ele>400.52648925781</ele>
        <time>2009-12-10T18:48:51Z</time>
      </trkpt>
      <trkpt lat="43.68457" lon="5.59055">
        <ele>400.52648925781</ele>
        <time>2009-12-10T18:48:53Z</time>
      </trkpt>
      <trkpt lat="43.68452" lon="5.59046">
        <ele>401.00708007812</ele>
        <time>2009-12-10T18:48:55Z</time>
      </trkpt>
      <trkpt lat="43.68439" lon="5.5903">
        <ele>401.48779296875</ele>
        <time>2009-12-10T18:48:59Z</time>
      </trkpt>
      <trkpt lat="43.68427" lon="5.59005">
        <ele>401.48779296875</ele>
        <time>2009-12-10T18:49:04Z</time>
      </trkpt>
      <trkpt lat="43.6842" lon="5.58974">
        <ele>401.48779296875</ele>
        <time>2009-12-10T18:49:09Z</time>
      </trkpt>
      <trkpt lat="43.68407" lon="5.58948">
        <ele>402.44909667969</ele>
        <time>2009-12-10T18:49:14Z</time>
      </trkpt>
      <trkpt lat="43.6839" lon="5.58933">
        <ele>403.89111328125</ele>
        <time>2009-12-10T18:49:19Z</time>
      </trkpt>
      <trkpt lat="43.68373" lon="5.58928">
        <ele>403.89111328125</ele>
        <time>2009-12-10T18:49:23Z</time>
      </trkpt>
      <trkpt lat="43.68345" lon="5.58931">
        <ele>403.89111328125</ele>
        <time>2009-12-10T18:49:29Z</time>
      </trkpt>
      <trkpt lat="43.68318" lon="5.58946">
        <ele>405.3330078125</ele>
        <time>2009-12-10T18:49:36Z</time>
      </trkpt>
      <trkpt lat="43.68305" lon="5.58958">
        <ele>406.29431152344</ele>
        <time>2009-12-10T18:49:41Z</time>
      </trkpt>
      <trkpt lat="43.68297" lon="5.58946">
        <ele>408.69763183594</ele>
        <time>2009-12-10T18:49:45Z</time>
      </trkpt>
      <trkpt lat="43.68298" lon="5.5894">
        <ele>408.69763183594</ele>
        <time>2009-12-10T18:49:46Z</time>
      </trkpt>
      <trkpt lat="43.68307" lon="5.58904">
        <ele>407.25561523438</ele>
        <time>2009-12-10T18:49:52Z</time>
      </trkpt>
      <trkpt lat="43.68317" lon="5.58878">
        <ele>405.81372070312</ele>
        <time>2009-12-10T18:49:56Z</time>
      </trkpt>
      <trkpt lat="43.68324" lon="5.58865">
        <ele>405.3330078125</ele>
        <time>2009-12-10T18:49:58Z</time>
      </trkpt>
      <trkpt lat="43.68332" lon="5.58841">
        <ele>403.89111328125</ele>
        <time>2009-12-10T18:50:02Z</time>
      </trkpt>
      <trkpt lat="43.68329" lon="5.5881">
        <ele>403.41040039062</ele>
        <time>2009-12-10T18:50:07Z</time>
      </trkpt>
      <trkpt lat="43.68315" lon="5.58794">
        <ele>402.9296875</ele>
        <time>2009-12-10T18:50:11Z</time>
      </trkpt>
      <trkpt lat="43.68307" lon="5.58795">
        <ele>402.9296875</ele>
        <time>2009-12-10T18:50:13Z</time>
      </trkpt>
      <trkpt lat="43.68276" lon="5.58811">
        <ele>403.89111328125</ele>
        <time>2009-12-10T18:50:21Z</time>
      </trkpt>
      <trkpt lat="43.68244" lon="5.58823">
        <ele>404.85229492188</ele>
        <time>2009-12-10T18:50:29Z</time>
      </trkpt>
      <trkpt lat="43.68209" lon="5.5884">
        <ele>406.29431152344</ele>
        <time>2009-12-10T18:50:38Z</time>
      </trkpt>
      <trkpt lat="43.68193" lon="5.5886">
        <ele>405.81372070312</ele>
        <time>2009-12-10T18:50:44Z</time>
      </trkpt>
      <trkpt lat="43.6819" lon="5.58863">
        <ele>405.81372070312</ele>
        <time>2009-12-10T18:50:45Z</time>
      </trkpt>
      <trkpt lat="43.6818" lon="5.58856">
        <ele>405.3330078125</ele>
        <time>2009-12-10T18:50:49Z</time>
      </trkpt>
      <trkpt lat="43.6818" lon="5.58851">
        <ele>405.3330078125</ele>
        <time>2009-12-10T18:50:50Z</time>
      </trkpt>
      <trkpt lat="43.68185" lon="5.58819">
        <ele>405.81372070312</ele>
        <time>2009-12-10T18:50:56Z</time>
      </trkpt>
      <trkpt lat="43.68198" lon="5.58781">
        <ele>404.85229492188</ele>
        <time>2009-12-10T18:51:03Z</time>
      </trkpt>
      <trkpt lat="43.68216" lon="5.5874">
        <ele>402.9296875</ele>
        <time>2009-12-10T18:51:11Z</time>
      </trkpt>
      <trkpt lat="43.68227" lon="5.58698">
        <ele>401.00708007812</ele>
        <time>2009-12-10T18:51:18Z</time>
      </trkpt>
      <trkpt lat="43.68227" lon="5.58693">
        <ele>401.00708007812</ele>
        <time>2009-12-10T18:51:19Z</time>
      </trkpt>
      <trkpt lat="43.68221" lon="5.58657">
        <ele>401.48779296875</ele>
        <time>2009-12-10T18:51:25Z</time>
      </trkpt>
      <trkpt lat="43.68203" lon="5.58617">
        <ele>401.00708007812</ele>
        <time>2009-12-10T18:51:33Z</time>
      </trkpt>
      <trkpt lat="43.68184" lon="5.58597">
        <ele>402.44909667969</ele>
        <time>2009-12-10T18:51:39Z</time>
      </trkpt>
      <trkpt lat="43.68165" lon="5.58591">
        <ele>403.89111328125</ele>
        <time>2009-12-10T18:51:44Z</time>
      </trkpt>
      <trkpt lat="43.6814" lon="5.58602">
        <ele>404.37170410156</ele>
        <time>2009-12-10T18:51:51Z</time>
      </trkpt>
      <trkpt lat="43.68121" lon="5.58617">
        <ele>404.37170410156</ele>
        <time>2009-12-10T18:51:57Z</time>
      </trkpt>
      <trkpt lat="43.68103" lon="5.58634">
        <ele>404.85229492188</ele>
        <time>2009-12-10T18:52:03Z</time>
      </trkpt>
      <trkpt lat="43.68089" lon="5.58649">
        <ele>404.85229492188</ele>
        <time>2009-12-10T18:52:08Z</time>
      </trkpt>
      <trkpt lat="43.68073" lon="5.58663">
        <ele>406.29431152344</ele>
        <time>2009-12-10T18:52:13Z</time>
      </trkpt>
      <trkpt lat="43.68054" lon="5.58687">
        <ele>407.736328125</ele>
        <time>2009-12-10T18:52:20Z</time>
      </trkpt>
      <trkpt lat="43.68038" lon="5.58724">
        <ele>406.77490234375</ele>
        <time>2009-12-10T18:52:28Z</time>
      </trkpt>
      <trkpt lat="43.68026" lon="5.5874">
        <ele>406.77490234375</ele>
        <time>2009-12-10T18:52:33Z</time>
      </trkpt>
      <trkpt lat="43.6801" lon="5.5874">
        <ele>406.29431152344</ele>
        <time>2009-12-10T18:52:37Z</time>
      </trkpt>
      <trkpt lat="43.67988" lon="5.58743">
        <ele>406.29431152344</ele>
        <time>2009-12-10T18:52:43Z</time>
      </trkpt>
      <trkpt lat="43.67966" lon="5.58765">
        <ele>407.25561523438</ele>
        <time>2009-12-10T18:52:50Z</time>
      </trkpt>
      <trkpt lat="43.67956" lon="5.58773">
        <ele>407.25561523438</ele>
        <time>2009-12-10T18:52:54Z</time>
      </trkpt>
      <trkpt lat="43.67944" lon="5.58774">
        <ele>406.77490234375</ele>
        <time>2009-12-10T18:52:59Z</time>
      </trkpt>
      <trkpt lat="43.67936" lon="5.58767">
        <ele>408.21704101562</ele>
        <time>2009-12-10T18:53:03Z</time>
      </trkpt>
      <trkpt lat="43.67928" lon="5.58747">
        <ele>410.62023925781</ele>
        <time>2009-12-10T18:53:11Z</time>
      </trkpt>
      <trkpt lat="43.67929" lon="5.58735">
        <ele>410.62023925781</ele>
        <time>2009-12-10T18:53:17Z</time>
      </trkpt>
      <trkpt lat="43.67929" lon="5.58734">
        <ele>408.21704101562</ele>
        <time>2009-12-10T18:53:26Z</time>
      </trkpt>
      <trkpt lat="43.67927" lon="5.58735">
        <ele>405.3330078125</ele>
        <time>2009-12-10T18:53:38Z</time>
      </trkpt>
      <trkpt lat="43.6793" lon="5.58735">
        <ele>404.85229492188</ele>
        <time>2009-12-10T18:53:48Z</time>
      </trkpt>
      <trkpt lat="43.67932" lon="5.58737">
        <ele>401.96850585938</ele>
        <time>2009-12-10T18:54:03Z</time>
      </trkpt>
      <trkpt lat="43.67933" lon="5.58737">
        <ele>399.56506347656</ele>
        <time>2009-12-10T18:54:15Z</time>
      </trkpt>
      <trkpt lat="43.67932" lon="5.58739">
        <ele>399.08435058594</ele>
        <time>2009-12-10T18:54:32Z</time>
      </trkpt>
      <trkpt lat="43.67934" lon="5.58737">
        <ele>397.64245605469</ele>
        <time>2009-12-10T18:54:45Z</time>
      </trkpt>
      <trkpt lat="43.67934" lon="5.58738">
        <ele>396.20056152344</ele>
        <time>2009-12-10T18:55:10Z</time>
      </trkpt>
      <trkpt lat="43.67934" lon="5.58737">
        <ele>396.20056152344</ele>
        <time>2009-12-10T18:55:21Z</time>
      </trkpt>
      <trkpt lat="43.67931" lon="5.58735">
        <ele>387.06799316406</ele>
        <time>2009-12-10T18:56:10Z</time>
      </trkpt>
      <trkpt lat="43.67928" lon="5.58734">
        <ele>384.66479492188</ele>
        <time>2009-12-10T18:56:19Z</time>
      </trkpt>
      <trkpt lat="43.67927" lon="5.58734">
        <ele>384.18408203125</ele>
        <time>2009-12-10T18:56:25Z</time>
      </trkpt>
      <trkpt lat="43.67935" lon="5.58737">
        <ele>392.35534667969</ele>
        <time>2009-12-10T18:56:37Z</time>
      </trkpt>
      <trkpt lat="43.67926" lon="5.58745">
        <ele>412.06225585938</ele>
        <time>2009-12-10T18:57:18Z</time>
      </trkpt>
      <trkpt lat="43.67925" lon="5.58745">
        <ele>407.736328125</ele>
        <time>2009-12-10T18:57:32Z</time>
      </trkpt>
      <trkpt lat="43.67929" lon="5.58738">
        <ele>414.46545410156</ele>
        <time>2009-12-10T18:58:09Z</time>
      </trkpt>
      <trkpt lat="43.67935" lon="5.58734">
        <ele>395.23913574219</ele>
        <time>2009-12-10T18:58:43Z</time>
      </trkpt>
      <trkpt lat="43.67936" lon="5.58734">
        <ele>399.08435058594</ele>
        <time>2009-12-10T18:58:53Z</time>
      </trkpt>
      <trkpt lat="43.67935" lon="5.58734">
        <ele>400.52648925781</ele>
        <time>2009-12-10T18:59:00Z</time>
      </trkpt>
      <trkpt lat="43.67933" lon="5.58744">
        <ele>422.15600585938</ele>
        <time>2009-12-10T18:59:34Z</time>
      </trkpt>
      <trkpt lat="43.67938" lon="5.58744">
        <ele>420.71411132812</ele>
        <time>2009-12-10T18:59:53Z</time>
      </trkpt>
      <trkpt lat="43.6794" lon="5.58741">
        <ele>416.38818359375</ele>
        <time>2009-12-10T19:00:00Z</time>
      </trkpt>
      <trkpt lat="43.67945" lon="5.58741">
        <ele>410.62023925781</ele>
        <time>2009-12-10T19:00:12Z</time>
      </trkpt>
      <trkpt lat="43.6794" lon="5.5874">
        <ele>405.81372070312</ele>
        <time>2009-12-10T19:00:18Z</time>
      </trkpt>
      <trkpt lat="43.67936" lon="5.58737">
        <ele>425.04016113281</ele>
        <time>2009-12-10T19:01:09Z</time>
      </trkpt>
      <trkpt lat="43.67936" lon="5.58736">
        <ele>400.0458984375</ele>
        <time>2009-12-10T19:02:10Z</time>
      </trkpt>
      <trkpt lat="43.67936" lon="5.58738">
        <ele>397.64245605469</ele>
        <time>2009-12-10T19:03:10Z</time>
      </trkpt>
      <trkpt lat="43.67936" lon="5.58739">
        <ele>394.75854492188</ele>
        <time>2009-12-10T19:03:46Z</time>
      </trkpt>
      <trkpt lat="43.67934" lon="5.58739">
        <ele>398.12316894531</ele>
        <time>2009-12-10T19:03:59Z</time>
      </trkpt>
      <trkpt lat="43.67929" lon="5.58745">
        <ele>404.37170410156</ele>
        <time>2009-12-10T19:04:12Z</time>
      </trkpt>
      <trkpt lat="43.67925" lon="5.58751">
        <ele>414.46545410156</ele>
        <time>2009-12-10T19:04:24Z</time>
      </trkpt>
      <trkpt lat="43.67929" lon="5.58746">
        <ele>413.98486328125</ele>
        <time>2009-12-10T19:04:38Z</time>
      </trkpt>
      <trkpt lat="43.67932" lon="5.58743">
        <ele>408.21704101562</ele>
        <time>2009-12-10T19:04:49Z</time>
      </trkpt>
      <trkpt lat="43.67932" lon="5.58738">
        <ele>400.0458984375</ele>
        <time>2009-12-10T19:05:00Z</time>
      </trkpt>
      <trkpt lat="43.67934" lon="5.58734">
        <ele>400.52648925781</ele>
        <time>2009-12-10T19:05:10Z</time>
      </trkpt>
      <trkpt lat="43.67932" lon="5.58732">
        <ele>399.56506347656</ele>
        <time>2009-12-10T19:05:23Z</time>
      </trkpt>
      <trkpt lat="43.67933" lon="5.58732">
        <ele>403.41040039062</ele>
        <time>2009-12-10T19:05:37Z</time>
      </trkpt>
      <trkpt lat="43.67929" lon="5.58737">
        <ele>393.79724121094</ele>
        <time>2009-12-10T19:06:34Z</time>
      </trkpt>
      <trkpt lat="43.67929" lon="5.58738">
        <ele>390.4326171875</ele>
        <time>2009-12-10T19:07:00Z</time>
      </trkpt>
      <trkpt lat="43.67931" lon="5.58737">
        <ele>392.35534667969</ele>
        <time>2009-12-10T19:07:13Z</time>
      </trkpt>
      <trkpt lat="43.67934" lon="5.58734">
        <ele>400.52648925781</ele>
        <time>2009-12-10T19:07:23Z</time>
      </trkpt>
      <trkpt lat="43.67936" lon="5.58735">
        <ele>407.25561523438</ele>
        <time>2009-12-10T19:07:50Z</time>
      </trkpt>
      <trkpt lat="43.67934" lon="5.58735">
        <ele>401.48779296875</ele>
        <time>2009-12-10T19:08:04Z</time>
      </trkpt>
      <trkpt lat="43.67938" lon="5.58732">
        <ele>402.44909667969</ele>
        <time>2009-12-10T19:08:28Z</time>
      </trkpt>
      <trkpt lat="43.67938" lon="5.58722">
        <ele>401.48779296875</ele>
        <time>2009-12-10T19:08:36Z</time>
      </trkpt>
      <trkpt lat="43.67943" lon="5.58698">
        <ele>402.9296875</ele>
        <time>2009-12-10T19:08:42Z</time>
      </trkpt>
      <trkpt lat="43.67958" lon="5.58664">
        <ele>404.37170410156</ele>
        <time>2009-12-10T19:08:49Z</time>
      </trkpt>
      <trkpt lat="43.67961" lon="5.58659">
        <ele>404.85229492188</ele>
        <time>2009-12-10T19:08:50Z</time>
      </trkpt>
      <trkpt lat="43.67975" lon="5.58615">
        <ele>407.25561523438</ele>
        <time>2009-12-10T19:08:58Z</time>
      </trkpt>
      <trkpt lat="43.67979" lon="5.58603">
        <ele>408.69763183594</ele>
        <time>2009-12-10T19:09:00Z</time>
      </trkpt>
      <trkpt lat="43.6799" lon="5.58568">
        <ele>408.69763183594</ele>
        <time>2009-12-10T19:09:06Z</time>
      </trkpt>
      <trkpt lat="43.67999" lon="5.58521">
        <ele>406.77490234375</ele>
        <time>2009-12-10T19:09:13Z</time>
      </trkpt>
      <trkpt lat="43.67996" lon="5.58497">
        <ele>405.3330078125</ele>
        <time>2009-12-10T19:09:17Z</time>
      </trkpt>
      <trkpt lat="43.67986" lon="5.58493">
        <ele>404.85229492188</ele>
        <time>2009-12-10T19:09:20Z</time>
      </trkpt>
      <trkpt lat="43.67982" lon="5.58493">
        <ele>405.3330078125</ele>
        <time>2009-12-10T19:09:21Z</time>
      </trkpt>
      <trkpt lat="43.67945" lon="5.58496">
        <ele>403.89111328125</ele>
        <time>2009-12-10T19:09:31Z</time>
      </trkpt>
      <trkpt lat="43.67915" lon="5.58497">
        <ele>402.9296875</ele>
        <time>2009-12-10T19:09:38Z</time>
      </trkpt>
      <trkpt lat="43.67906" lon="5.58498">
        <ele>403.41040039062</ele>
        <time>2009-12-10T19:09:40Z</time>
      </trkpt>
      <trkpt lat="43.67886" lon="5.5851">
        <ele>403.89111328125</ele>
        <time>2009-12-10T19:09:45Z</time>
      </trkpt>
      <trkpt lat="43.67875" lon="5.58523">
        <ele>403.89111328125</ele>
        <time>2009-12-10T19:09:48Z</time>
      </trkpt>
      <trkpt lat="43.67856" lon="5.5853">
        <ele>403.41040039062</ele>
        <time>2009-12-10T19:09:52Z</time>
      </trkpt>
      <trkpt lat="43.67842" lon="5.58517">
        <ele>403.89111328125</ele>
        <time>2009-12-10T19:09:56Z</time>
      </trkpt>
      <trkpt lat="43.67838" lon="5.58515">
        <ele>403.89111328125</ele>
        <time>2009-12-10T19:09:57Z</time>
      </trkpt>
      <trkpt lat="43.67814" lon="5.58506">
        <ele>402.44909667969</ele>
        <time>2009-12-10T19:10:03Z</time>
      </trkpt>
      <trkpt lat="43.67798" lon="5.58502">
        <ele>402.9296875</ele>
        <time>2009-12-10T19:10:08Z</time>
      </trkpt>
      <trkpt lat="43.67792" lon="5.58501">
        <ele>402.44909667969</ele>
        <time>2009-12-10T19:10:13Z</time>
      </trkpt>
      <trkpt lat="43.6779" lon="5.58501">
        <ele>401.48779296875</ele>
        <time>2009-12-10T19:10:19Z</time>
      </trkpt>
      <trkpt lat="43.67789" lon="5.58498">
        <ele>401.00708007812</ele>
        <time>2009-12-10T19:10:26Z</time>
      </trkpt>
      <trkpt lat="43.67789" lon="5.58497">
        <ele>400.52648925781</ele>
        <time>2009-12-10T19:10:27Z</time>
      </trkpt>
      <trkpt lat="43.67798" lon="5.58486">
        <ele>400.0458984375</ele>
        <time>2009-12-10T19:10:32Z</time>
      </trkpt>
      <trkpt lat="43.67815" lon="5.58472">
        <ele>398.12316894531</ele>
        <time>2009-12-10T19:10:37Z</time>
      </trkpt>
      <trkpt lat="43.67836" lon="5.5845">
        <ele>394.27795410156</ele>
        <time>2009-12-10T19:10:43Z</time>
      </trkpt>
      <trkpt lat="43.6785" lon="5.58429">
        <ele>390.4326171875</ele>
        <time>2009-12-10T19:10:48Z</time>
      </trkpt>
      <trkpt lat="43.67857" lon="5.58407">
        <ele>386.10668945312</ele>
        <time>2009-12-10T19:10:53Z</time>
      </trkpt>
      <trkpt lat="43.67869" lon="5.58395">
        <ele>382.74206542969</ele>
        <time>2009-12-10T19:10:57Z</time>
      </trkpt>
      <trkpt lat="43.67877" lon="5.58388">
        <ele>381.30004882812</ele>
        <time>2009-12-10T19:10:59Z</time>
      </trkpt>
      <trkpt lat="43.67892" lon="5.58371">
        <ele>380.33874511719</ele>
        <time>2009-12-10T19:11:03Z</time>
      </trkpt>
      <trkpt lat="43.67907" lon="5.58356">
        <ele>378.89685058594</ele>
        <time>2009-12-10T19:11:07Z</time>
      </trkpt>
      <trkpt lat="43.67926" lon="5.58314">
        <ele>375.53210449219</ele>
        <time>2009-12-10T19:11:14Z</time>
      </trkpt>
      <trkpt lat="43.6793" lon="5.58309">
        <ele>374.09008789062</ele>
        <time>2009-12-10T19:11:15Z</time>
      </trkpt>
      <trkpt lat="43.67955" lon="5.58276">
        <ele>370.24487304688</ele>
        <time>2009-12-10T19:11:21Z</time>
      </trkpt>
      <trkpt lat="43.67964" lon="5.58266">
        <ele>369.28369140625</ele>
        <time>2009-12-10T19:11:23Z</time>
      </trkpt>
      <trkpt lat="43.67985" lon="5.5823">
        <ele>366.39953613281</ele>
        <time>2009-12-10T19:11:29Z</time>
      </trkpt>
      <trkpt lat="43.67992" lon="5.58217">
        <ele>364.95764160156</ele>
        <time>2009-12-10T19:11:31Z</time>
      </trkpt>
      <trkpt lat="43.67997" lon="5.58187">
        <ele>362.07373046875</ele>
        <time>2009-12-10T19:11:35Z</time>
      </trkpt>
      <trkpt lat="43.67995" lon="5.58165">
        <ele>360.15112304688</ele>
        <time>2009-12-10T19:11:38Z</time>
      </trkpt>
      <trkpt lat="43.68002" lon="5.58139">
        <ele>355.8251953125</ele>
        <time>2009-12-10T19:11:42Z</time>
      </trkpt>
      <trkpt lat="43.68006" lon="5.58134">
        <ele>355.34448242188</ele>
        <time>2009-12-10T19:11:43Z</time>
      </trkpt>
      <trkpt lat="43.6804" lon="5.58078">
        <ele>351.97985839844</ele>
        <time>2009-12-10T19:11:52Z</time>
      </trkpt>
      <trkpt lat="43.68059" lon="5.58047">
        <ele>351.01843261719</ele>
        <time>2009-12-10T19:11:58Z</time>
      </trkpt>
      <trkpt lat="43.68076" lon="5.58019">
        <ele>351.49914550781</ele>
        <time>2009-12-10T19:12:05Z</time>
      </trkpt>
      <trkpt lat="43.68083" lon="5.58011">
        <ele>351.97985839844</ele>
        <time>2009-12-10T19:12:09Z</time>
      </trkpt>
      <trkpt lat="43.68084" lon="5.58008">
        <ele>351.97985839844</ele>
        <time>2009-12-10T19:12:11Z</time>
      </trkpt>
      <trkpt lat="43.68082" lon="5.58001">
        <ele>352.46057128906</ele>
        <time>2009-12-10T19:12:15Z</time>
      </trkpt>
      <trkpt lat="43.68067" lon="5.57986">
        <ele>357.74780273438</ele>
        <time>2009-12-10T19:12:22Z</time>
      </trkpt>
      <trkpt lat="43.68055" lon="5.57966">
        <ele>358.708984375</ele>
        <time>2009-12-10T19:12:27Z</time>
      </trkpt>
      <trkpt lat="43.68051" lon="5.57956">
        <ele>359.18969726562</ele>
        <time>2009-12-10T19:12:29Z</time>
      </trkpt>
      <trkpt lat="43.68051" lon="5.57921">
        <ele>359.18969726562</ele>
        <time>2009-12-10T19:12:34Z</time>
      </trkpt>
      <trkpt lat="43.68041" lon="5.57888">
        <ele>359.18969726562</ele>
        <time>2009-12-10T19:12:39Z</time>
      </trkpt>
      <trkpt lat="43.68027" lon="5.57865">
        <ele>360.15112304688</ele>
        <time>2009-12-10T19:12:43Z</time>
      </trkpt>
      <trkpt lat="43.68019" lon="5.57848">
        <ele>361.59313964844</ele>
        <time>2009-12-10T19:12:46Z</time>
      </trkpt>
      <trkpt lat="43.68024" lon="5.57821">
        <ele>363.99633789062</ele>
        <time>2009-12-10T19:12:50Z</time>
      </trkpt>
      <trkpt lat="43.68027" lon="5.57802">
        <ele>363.03503417969</ele>
        <time>2009-12-10T19:12:53Z</time>
      </trkpt>
      <trkpt lat="43.68024" lon="5.57772">
        <ele>364.47692871094</ele>
        <time>2009-12-10T19:12:58Z</time>
      </trkpt>
      <trkpt lat="43.68028" lon="5.57744">
        <ele>362.07373046875</ele>
        <time>2009-12-10T19:13:03Z</time>
      </trkpt>
      <trkpt lat="43.68038" lon="5.57742">
        <ele>359.67041015625</ele>
        <time>2009-12-10T19:13:07Z</time>
      </trkpt>
      <trkpt lat="43.6806" lon="5.57735">
        <ele>355.34448242188</ele>
        <time>2009-12-10T19:13:13Z</time>
      </trkpt>
      <trkpt lat="43.68071" lon="5.57716">
        <ele>351.97985839844</ele>
        <time>2009-12-10T19:13:18Z</time>
      </trkpt>
      <trkpt lat="43.68076" lon="5.57694">
        <ele>348.13464355469</ele>
        <time>2009-12-10T19:13:22Z</time>
      </trkpt>
      <trkpt lat="43.68087" lon="5.57672">
        <ele>341.88598632812</ele>
        <time>2009-12-10T19:13:27Z</time>
      </trkpt>
      <trkpt lat="43.68088" lon="5.57667">
        <ele>340.92468261719</ele>
        <time>2009-12-10T19:13:28Z</time>
      </trkpt>
      <trkpt lat="43.68092" lon="5.57655">
        <ele>337.07946777344</ele>
        <time>2009-12-10T19:13:32Z</time>
      </trkpt>
      <trkpt lat="43.68108" lon="5.57636">
        <ele>333.23413085938</ele>
        <time>2009-12-10T19:13:37Z</time>
      </trkpt>
      <trkpt lat="43.68114" lon="5.57625">
        <ele>331.3115234375</ele>
        <time>2009-12-10T19:13:40Z</time>
      </trkpt>
      <trkpt lat="43.68119" lon="5.57614">
        <ele>327.94677734375</ele>
        <time>2009-12-10T19:13:43Z</time>
      </trkpt>
      <trkpt lat="43.68131" lon="5.57583">
        <ele>321.69836425781</ele>
        <time>2009-12-10T19:13:49Z</time>
      </trkpt>
      <trkpt lat="43.68133" lon="5.57571">
        <ele>317.85302734375</ele>
        <time>2009-12-10T19:13:53Z</time>
      </trkpt>
      <trkpt lat="43.68133" lon="5.57554">
        <ele>316.41101074219</ele>
        <time>2009-12-10T19:13:57Z</time>
      </trkpt>
      <trkpt lat="43.68147" lon="5.57536">
        <ele>313.52722167969</ele>
        <time>2009-12-10T19:14:03Z</time>
      </trkpt>
      <trkpt lat="43.68153" lon="5.57521">
        <ele>314.96911621094</ele>
        <time>2009-12-10T19:14:07Z</time>
      </trkpt>
      <trkpt lat="43.68151" lon="5.57507">
        <ele>315.93041992188</ele>
        <time>2009-12-10T19:14:12Z</time>
      </trkpt>
      <trkpt lat="43.68151" lon="5.57503">
        <ele>317.85302734375</ele>
        <time>2009-12-10T19:14:16Z</time>
      </trkpt>
      <trkpt lat="43.68153" lon="5.57491">
        <ele>318.33361816406</ele>
        <time>2009-12-10T19:14:22Z</time>
      </trkpt>
      <trkpt lat="43.68153" lon="5.57477">
        <ele>321.2177734375</ele>
        <time>2009-12-10T19:14:26Z</time>
      </trkpt>
      <trkpt lat="43.68154" lon="5.57452">
        <ele>322.17895507812</ele>
        <time>2009-12-10T19:14:31Z</time>
      </trkpt>
      <trkpt lat="43.68147" lon="5.57435">
        <ele>319.29504394531</ele>
        <time>2009-12-10T19:14:35Z</time>
      </trkpt>
      <trkpt lat="43.68132" lon="5.57419">
        <ele>316.89172363281</ele>
        <time>2009-12-10T19:14:39Z</time>
      </trkpt>
      <trkpt lat="43.68118" lon="5.57404">
        <ele>316.89172363281</ele>
        <time>2009-12-10T19:14:44Z</time>
      </trkpt>
      <trkpt lat="43.68108" lon="5.57393">
        <ele>316.41101074219</ele>
        <time>2009-12-10T19:14:49Z</time>
      </trkpt>
      <trkpt lat="43.68095" lon="5.57385">
        <ele>316.41101074219</ele>
        <time>2009-12-10T19:14:54Z</time>
      </trkpt>
      <trkpt lat="43.68083" lon="5.57372">
        <ele>316.89172363281</ele>
        <time>2009-12-10T19:14:59Z</time>
      </trkpt>
      <trkpt lat="43.68068" lon="5.57357">
        <ele>317.37243652344</ele>
        <time>2009-12-10T19:15:04Z</time>
      </trkpt>
      <trkpt lat="43.68063" lon="5.57347">
        <ele>317.85302734375</ele>
        <time>2009-12-10T19:15:06Z</time>
      </trkpt>
      <trkpt lat="43.68071" lon="5.57326">
        <ele>316.89172363281</ele>
        <time>2009-12-10T19:15:11Z</time>
      </trkpt>
      <trkpt lat="43.68081" lon="5.57316">
        <ele>316.89172363281</ele>
        <time>2009-12-10T19:15:14Z</time>
      </trkpt>
      <trkpt lat="43.68089" lon="5.57307">
        <ele>316.41101074219</ele>
        <time>2009-12-10T19:15:16Z</time>
      </trkpt>
      <trkpt lat="43.68101" lon="5.57297">
        <ele>315.44982910156</ele>
        <time>2009-12-10T19:15:19Z</time>
      </trkpt>
      <trkpt lat="43.6813" lon="5.57284">
        <ele>313.52722167969</ele>
        <time>2009-12-10T19:15:25Z</time>
      </trkpt>
      <trkpt lat="43.68142" lon="5.57273">
        <ele>311.6044921875</ele>
        <time>2009-12-10T19:15:29Z</time>
      </trkpt>
      <trkpt lat="43.68145" lon="5.57271">
        <ele>311.12377929688</ele>
        <time>2009-12-10T19:15:30Z</time>
      </trkpt>
      <trkpt lat="43.6816" lon="5.5725">
        <ele>308.23986816406</ele>
        <time>2009-12-10T19:15:35Z</time>
      </trkpt>
      <trkpt lat="43.68165" lon="5.57224">
        <ele>304.39465332031</ele>
        <time>2009-12-10T19:15:39Z</time>
      </trkpt>
      <trkpt lat="43.68164" lon="5.57215">
        <ele>303.43322753906</ele>
        <time>2009-12-10T19:15:40Z</time>
      </trkpt>
      <trkpt lat="43.68163" lon="5.5718">
        <ele>300.54931640625</ele>
        <time>2009-12-10T19:15:45Z</time>
      </trkpt>
      <trkpt lat="43.68169" lon="5.57163">
        <ele>297.66540527344</ele>
        <time>2009-12-10T19:15:50Z</time>
      </trkpt>
      <trkpt lat="43.68179" lon="5.57146">
        <ele>294.78137207031</ele>
        <time>2009-12-10T19:15:57Z</time>
      </trkpt>
      <trkpt lat="43.68185" lon="5.57136">
        <ele>292.85876464844</ele>
        <time>2009-12-10T19:16:03Z</time>
      </trkpt>
      <trkpt lat="43.68188" lon="5.57129">
        <ele>291.8974609375</ele>
        <time>2009-12-10T19:16:11Z</time>
      </trkpt>
      <trkpt lat="43.68192" lon="5.57123">
        <ele>290.45556640625</ele>
        <time>2009-12-10T19:16:21Z</time>
      </trkpt>
      <trkpt lat="43.68199" lon="5.57111">
        <ele>289.494140625</ele>
        <time>2009-12-10T19:16:26Z</time>
      </trkpt>
      <trkpt lat="43.68198" lon="5.57114">
        <ele>289.97485351562</ele>
        <time>2009-12-10T19:16:31Z</time>
      </trkpt>
      <trkpt lat="43.68198" lon="5.57114">
        <ele>291.41674804688</ele>
        <time>2009-12-10T19:16:38Z</time>
      </trkpt>
      <trkpt lat="43.68201" lon="5.57109">
        <ele>291.41674804688</ele>
        <time>2009-12-10T19:16:44Z</time>
      </trkpt>
      <trkpt lat="43.68201" lon="5.571">
        <ele>292.85876464844</ele>
        <time>2009-12-10T19:16:49Z</time>
      </trkpt>
      <trkpt lat="43.682" lon="5.571">
        <ele>293.82006835938</ele>
        <time>2009-12-10T19:16:58Z</time>
      </trkpt>
      <trkpt lat="43.68201" lon="5.57101">
        <ele>293.82006835938</ele>
        <time>2009-12-10T19:17:00Z</time>
      </trkpt>
      <trkpt lat="43.68201" lon="5.57108">
        <ele>294.30078125</ele>
        <time>2009-12-10T19:17:04Z</time>
      </trkpt>
      <trkpt lat="43.68199" lon="5.57118">
        <ele>294.30078125</ele>
        <time>2009-12-10T19:17:11Z</time>
      </trkpt>
      <trkpt lat="43.68197" lon="5.57117">
        <ele>294.30078125</ele>
        <time>2009-12-10T19:17:16Z</time>
      </trkpt>
      <trkpt lat="43.68196" lon="5.57116">
        <ele>294.30078125</ele>
        <time>2009-12-10T19:17:18Z</time>
      </trkpt>
      <trkpt lat="43.68193" lon="5.57114">
        <ele>293.33935546875</ele>
        <time>2009-12-10T19:17:25Z</time>
      </trkpt>
      <trkpt lat="43.68192" lon="5.57114">
        <ele>292.37817382812</ele>
        <time>2009-12-10T19:17:30Z</time>
      </trkpt>
      <trkpt lat="43.68183" lon="5.57099">
        <ele>292.37817382812</ele>
        <time>2009-12-10T19:17:36Z</time>
      </trkpt>
      <trkpt lat="43.68167" lon="5.57074">
        <ele>294.78137207031</ele>
        <time>2009-12-10T19:17:43Z</time>
      </trkpt>
      <trkpt lat="43.68149" lon="5.57051">
        <ele>296.22351074219</ele>
        <time>2009-12-10T19:17:50Z</time>
      </trkpt>
      <trkpt lat="43.68147" lon="5.57048">
        <ele>296.22351074219</ele>
        <time>2009-12-10T19:17:51Z</time>
      </trkpt>
      <trkpt lat="43.68124" lon="5.5704">
        <ele>295.26196289062</ele>
        <time>2009-12-10T19:17:57Z</time>
      </trkpt>
      <trkpt lat="43.68118" lon="5.57042">
        <ele>294.30078125</ele>
        <time>2009-12-10T19:17:59Z</time>
      </trkpt>
      <trkpt lat="43.68105" lon="5.57045">
        <ele>291.8974609375</ele>
        <time>2009-12-10T19:18:03Z</time>
      </trkpt>
      <trkpt lat="43.681" lon="5.57032">
        <ele>290.45556640625</ele>
        <time>2009-12-10T19:18:07Z</time>
      </trkpt>
      <trkpt lat="43.68103" lon="5.57008">
        <ele>288.05224609375</ele>
        <time>2009-12-10T19:18:11Z</time>
      </trkpt>
      <trkpt lat="43.68105" lon="5.56987">
        <ele>287.0908203125</ele>
        <time>2009-12-10T19:18:14Z</time>
      </trkpt>
      <trkpt lat="43.68118" lon="5.56945">
        <ele>282.76501464844</ele>
        <time>2009-12-10T19:18:20Z</time>
      </trkpt>
      <trkpt lat="43.68122" lon="5.56933">
        <ele>281.32299804688</ele>
        <time>2009-12-10T19:18:22Z</time>
      </trkpt>
      <trkpt lat="43.68135" lon="5.56886">
        <ele>276.51635742188</ele>
        <time>2009-12-10T19:18:29Z</time>
      </trkpt>
      <trkpt lat="43.6814" lon="5.5684">
        <ele>274.59375</ele>
        <time>2009-12-10T19:18:35Z</time>
      </trkpt>
      <trkpt lat="43.6815" lon="5.56796">
        <ele>272.67114257812</ele>
        <time>2009-12-10T19:18:41Z</time>
      </trkpt>
      <trkpt lat="43.68156" lon="5.56774">
        <ele>271.70971679688</ele>
        <time>2009-12-10T19:18:44Z</time>
      </trkpt>
      <trkpt lat="43.68154" lon="5.56744">
        <ele>270.74841308594</ele>
        <time>2009-12-10T19:18:48Z</time>
      </trkpt>
      <trkpt lat="43.68143" lon="5.56724">
        <ele>269.30651855469</ele>
        <time>2009-12-10T19:18:51Z</time>
      </trkpt>
      <trkpt lat="43.68112" lon="5.56685">
        <ele>266.90319824219</ele>
        <time>2009-12-10T19:18:58Z</time>
      </trkpt>
      <trkpt lat="43.68084" lon="5.56647">
        <ele>264.49987792969</ele>
        <time>2009-12-10T19:19:05Z</time>
      </trkpt>
      <trkpt lat="43.68055" lon="5.56606">
        <ele>262.09655761719</ele>
        <time>2009-12-10T19:19:12Z</time>
      </trkpt>
      <trkpt lat="43.68026" lon="5.56568">
        <ele>259.693359375</ele>
        <time>2009-12-10T19:19:18Z</time>
      </trkpt>
      <trkpt lat="43.68019" lon="5.5656">
        <ele>259.21264648438</ele>
        <time>2009-12-10T19:19:20Z</time>
      </trkpt>
      <trkpt lat="43.6801" lon="5.56546">
        <ele>257.77075195312</ele>
        <time>2009-12-10T19:19:23Z</time>
      </trkpt>
      <trkpt lat="43.67987" lon="5.56518">
        <ele>254.40600585938</ele>
        <time>2009-12-10T19:19:30Z</time>
      </trkpt>
      <trkpt lat="43.6797" lon="5.56496">
        <ele>251.52209472656</ele>
        <time>2009-12-10T19:19:35Z</time>
      </trkpt>
      <trkpt lat="43.67959" lon="5.56486">
        <ele>250.08020019531</ele>
        <time>2009-12-10T19:19:39Z</time>
      </trkpt>
      <trkpt lat="43.67947" lon="5.56474">
        <ele>249.11877441406</ele>
        <time>2009-12-10T19:19:45Z</time>
      </trkpt>
      <trkpt lat="43.67939" lon="5.56455">
        <ele>248.15759277344</ele>
        <time>2009-12-10T19:19:50Z</time>
      </trkpt>
      <trkpt lat="43.67935" lon="5.56421">
        <ele>247.6767578125</ele>
        <time>2009-12-10T19:19:56Z</time>
      </trkpt>
      <trkpt lat="43.67935" lon="5.56396">
        <ele>247.6767578125</ele>
        <time>2009-12-10T19:20:00Z</time>
      </trkpt>
      <trkpt lat="43.67937" lon="5.56369">
        <ele>245.75415039062</ele>
        <time>2009-12-10T19:20:05Z</time>
      </trkpt>
      <trkpt lat="43.67936" lon="5.56344">
        <ele>243.83154296875</ele>
        <time>2009-12-10T19:20:09Z</time>
      </trkpt>
      <trkpt lat="43.67936" lon="5.56336">
        <ele>243.35083007812</ele>
        <time>2009-12-10T19:20:10Z</time>
      </trkpt>
      <trkpt lat="43.67929" lon="5.56311">
        <ele>241.90893554688</ele>
        <time>2009-12-10T19:20:14Z</time>
      </trkpt>
      <trkpt lat="43.67908" lon="5.56274">
        <ele>240.46704101562</ele>
        <time>2009-12-10T19:20:20Z</time>
      </trkpt>
      <trkpt lat="43.67891" lon="5.56248">
        <ele>239.98620605469</ele>
        <time>2009-12-10T19:20:25Z</time>
      </trkpt>
      <trkpt lat="43.67887" lon="5.56243">
        <ele>239.50549316406</ele>
        <time>2009-12-10T19:20:26Z</time>
      </trkpt>
      <trkpt lat="43.67847" lon="5.56207">
        <ele>237.10229492188</ele>
        <time>2009-12-10T19:20:34Z</time>
      </trkpt>
      <trkpt lat="43.67807" lon="5.56173">
        <ele>236.14099121094</ele>
        <time>2009-12-10T19:20:42Z</time>
      </trkpt>
      <trkpt lat="43.6777" lon="5.56143">
        <ele>236.62170410156</ele>
        <time>2009-12-10T19:20:49Z</time>
      </trkpt>
      <trkpt lat="43.67734" lon="5.56114">
        <ele>234.21838378906</ele>
        <time>2009-12-10T19:20:56Z</time>
      </trkpt>
      <trkpt lat="43.67707" lon="5.56092">
        <ele>232.29577636719</ele>
        <time>2009-12-10T19:21:01Z</time>
      </trkpt>
      <trkpt lat="43.67673" lon="5.56055">
        <ele>232.77648925781</ele>
        <time>2009-12-10T19:21:08Z</time>
      </trkpt>
      <trkpt lat="43.67625" lon="5.56023">
        <ele>231.81494140625</ele>
        <time>2009-12-10T19:21:17Z</time>
      </trkpt>
      <trkpt lat="43.67612" lon="5.56015">
        <ele>230.85375976562</ele>
        <time>2009-12-10T19:21:21Z</time>
      </trkpt>
      <trkpt lat="43.67588" lon="5.56001">
        <ele>228.93115234375</ele>
        <time>2009-12-10T19:21:26Z</time>
      </trkpt>
      <trkpt lat="43.67559" lon="5.55987">
        <ele>228.45043945312</ele>
        <time>2009-12-10T19:21:31Z</time>
      </trkpt>
      <trkpt lat="43.67541" lon="5.55982">
        <ele>227.00854492188</ele>
        <time>2009-12-10T19:21:34Z</time>
      </trkpt>
      <trkpt lat="43.67504" lon="5.55989">
        <ele>227.00854492188</ele>
        <time>2009-12-10T19:21:40Z</time>
      </trkpt>
      <trkpt lat="43.67484" lon="5.55989">
        <ele>227.00854492188</ele>
        <time>2009-12-10T19:21:45Z</time>
      </trkpt>
      <trkpt lat="43.6748" lon="5.55988">
        <ele>227.00854492188</ele>
        <time>2009-12-10T19:21:46Z</time>
      </trkpt>
      <trkpt lat="43.67461" lon="5.55967">
        <ele>227.48913574219</ele>
        <time>2009-12-10T19:21:51Z</time>
      </trkpt>
      <trkpt lat="43.67456" lon="5.55956">
        <ele>228.45043945312</ele>
        <time>2009-12-10T19:21:53Z</time>
      </trkpt>
      <trkpt lat="43.6744" lon="5.55944">
        <ele>228.45043945312</ele>
        <time>2009-12-10T19:21:57Z</time>
      </trkpt>
      <trkpt lat="43.67412" lon="5.55936">
        <ele>225.56652832031</ele>
        <time>2009-12-10T19:22:04Z</time>
      </trkpt>
      <trkpt lat="43.67396" lon="5.5593">
        <ele>225.0859375</ele>
        <time>2009-12-10T19:22:07Z</time>
      </trkpt>
      <trkpt lat="43.67356" lon="5.55916">
        <ele>221.72119140625</ele>
        <time>2009-12-10T19:22:14Z</time>
      </trkpt>
      <trkpt lat="43.67309" lon="5.55902">
        <ele>218.83728027344</ele>
        <time>2009-12-10T19:22:21Z</time>
      </trkpt>
      <trkpt lat="43.67278" lon="5.55888">
        <ele>219.31799316406</ele>
        <time>2009-12-10T19:22:26Z</time>
      </trkpt>
      <trkpt lat="43.67258" lon="5.55883">
        <ele>217.8759765625</ele>
        <time>2009-12-10T19:22:30Z</time>
      </trkpt>
      <trkpt lat="43.67236" lon="5.55883">
        <ele>215.47265625</ele>
        <time>2009-12-10T19:22:35Z</time>
      </trkpt>
      <trkpt lat="43.67221" lon="5.5588">
        <ele>214.03063964844</ele>
        <time>2009-12-10T19:22:40Z</time>
      </trkpt>
      <trkpt lat="43.67221" lon="5.55879">
        <ele>214.03063964844</ele>
        <time>2009-12-10T19:22:45Z</time>
      </trkpt>
      <trkpt lat="43.67223" lon="5.5588">
        <ele>213.0693359375</ele>
        <time>2009-12-10T19:22:52Z</time>
      </trkpt>
      <trkpt lat="43.67228" lon="5.5588">
        <ele>212.58862304688</ele>
        <time>2009-12-10T19:22:57Z</time>
      </trkpt>
      <trkpt lat="43.6723" lon="5.5588">
        <ele>213.55004882812</ele>
        <time>2009-12-10T19:23:01Z</time>
      </trkpt>
      <trkpt lat="43.67228" lon="5.55883">
        <ele>214.51123046875</ele>
        <time>2009-12-10T19:23:07Z</time>
      </trkpt>
      <trkpt lat="43.67226" lon="5.55883">
        <ele>213.55004882812</ele>
        <time>2009-12-10T19:23:10Z</time>
      </trkpt>
      <trkpt lat="43.67216" lon="5.55882">
        <ele>214.51123046875</ele>
        <time>2009-12-10T19:23:15Z</time>
      </trkpt>
      <trkpt lat="43.67207" lon="5.55876">
        <ele>214.51123046875</ele>
        <time>2009-12-10T19:23:20Z</time>
      </trkpt>
      <trkpt lat="43.67183" lon="5.55861">
        <ele>214.51123046875</ele>
        <time>2009-12-10T19:23:28Z</time>
      </trkpt>
      <trkpt lat="43.67165" lon="5.55844">
        <ele>214.99194335938</ele>
        <time>2009-12-10T19:23:35Z</time>
      </trkpt>
      <trkpt lat="43.67159" lon="5.55832">
        <ele>216.43395996094</ele>
        <time>2009-12-10T19:23:39Z</time>
      </trkpt>
      <trkpt lat="43.6715" lon="5.5582">
        <ele>217.8759765625</ele>
        <time>2009-12-10T19:23:44Z</time>
      </trkpt>
      <trkpt lat="43.67147" lon="5.55813">
        <ele>218.83728027344</ele>
        <time>2009-12-10T19:23:46Z</time>
      </trkpt>
      <trkpt lat="43.67136" lon="5.55806">
        <ele>220.75988769531</ele>
        <time>2009-12-10T19:23:51Z</time>
      </trkpt>
      <trkpt lat="43.67122" lon="5.55809">
        <ele>219.31799316406</ele>
        <time>2009-12-10T19:23:57Z</time>
      </trkpt>
      <trkpt lat="43.67111" lon="5.55823">
        <ele>218.35656738281</ele>
        <time>2009-12-10T19:24:03Z</time>
      </trkpt>
      <trkpt lat="43.67091" lon="5.55849">
        <ele>218.35656738281</ele>
        <time>2009-12-10T19:24:11Z</time>
      </trkpt>
      <trkpt lat="43.67071" lon="5.55874">
        <ele>217.8759765625</ele>
        <time>2009-12-10T19:24:17Z</time>
      </trkpt>
      <trkpt lat="43.67042" lon="5.55915">
        <ele>217.8759765625</ele>
        <time>2009-12-10T19:24:25Z</time>
      </trkpt>
      <trkpt lat="43.67015" lon="5.5595">
        <ele>216.91467285156</ele>
        <time>2009-12-10T19:24:32Z</time>
      </trkpt>
      <trkpt lat="43.66979" lon="5.55993">
        <ele>216.43395996094</ele>
        <time>2009-12-10T19:24:41Z</time>
      </trkpt>
      <trkpt lat="43.66944" lon="5.5603">
        <ele>217.8759765625</ele>
        <time>2009-12-10T19:24:49Z</time>
      </trkpt>
      <trkpt lat="43.66901" lon="5.56063">
        <ele>217.8759765625</ele>
        <time>2009-12-10T19:24:58Z</time>
      </trkpt>
      <trkpt lat="43.66869" lon="5.5609">
        <ele>217.39538574219</ele>
        <time>2009-12-10T19:25:05Z</time>
      </trkpt>
      <trkpt lat="43.66838" lon="5.56122">
        <ele>217.8759765625</ele>
        <time>2009-12-10T19:25:12Z</time>
      </trkpt>
      <trkpt lat="43.66802" lon="5.56166">
        <ele>216.43395996094</ele>
        <time>2009-12-10T19:25:21Z</time>
      </trkpt>
      <trkpt lat="43.66779" lon="5.56198">
        <ele>215.47265625</ele>
        <time>2009-12-10T19:25:27Z</time>
      </trkpt>
      <trkpt lat="43.66757" lon="5.56237">
        <ele>214.51123046875</ele>
        <time>2009-12-10T19:25:34Z</time>
      </trkpt>
      <trkpt lat="43.66743" lon="5.5628">
        <ele>214.51123046875</ele>
        <time>2009-12-10T19:25:42Z</time>
      </trkpt>
      <trkpt lat="43.66736" lon="5.56305">
        <ele>215.47265625</ele>
        <time>2009-12-10T19:25:48Z</time>
      </trkpt>
      <trkpt lat="43.66727" lon="5.56326">
        <ele>217.39538574219</ele>
        <time>2009-12-10T19:25:53Z</time>
      </trkpt>
      <trkpt lat="43.66699" lon="5.5637">
        <ele>219.79858398438</ele>
        <time>2009-12-10T19:26:01Z</time>
      </trkpt>
      <trkpt lat="43.66686" lon="5.56396">
        <ele>219.31799316406</ele>
        <time>2009-12-10T19:26:05Z</time>
      </trkpt>
      <trkpt lat="43.66668" lon="5.56445">
        <ele>218.35656738281</ele>
        <time>2009-12-10T19:26:12Z</time>
      </trkpt>
      <trkpt lat="43.66648" lon="5.56486">
        <ele>216.43395996094</ele>
        <time>2009-12-10T19:26:18Z</time>
      </trkpt>
      <trkpt lat="43.66645" lon="5.56494">
        <ele>216.43395996094</ele>
        <time>2009-12-10T19:26:19Z</time>
      </trkpt>
      <trkpt lat="43.66641" lon="5.5651">
        <ele>215.95324707031</ele>
        <time>2009-12-10T19:26:21Z</time>
      </trkpt>
      <trkpt lat="43.66618" lon="5.56561">
        <ele>215.95324707031</ele>
        <time>2009-12-10T19:26:28Z</time>
      </trkpt>
      <trkpt lat="43.66602" lon="5.5659">
        <ele>214.99194335938</ele>
        <time>2009-12-10T19:26:32Z</time>
      </trkpt>
      <trkpt lat="43.66585" lon="5.56645">
        <ele>213.55004882812</ele>
        <time>2009-12-10T19:26:38Z</time>
      </trkpt>
      <trkpt lat="43.66565" lon="5.56708">
        <ele>214.51123046875</ele>
        <time>2009-12-10T19:26:45Z</time>
      </trkpt>
      <trkpt lat="43.66547" lon="5.56757">
        <ele>214.99194335938</ele>
        <time>2009-12-10T19:26:51Z</time>
      </trkpt>
      <trkpt lat="43.66525" lon="5.56808">
        <ele>213.55004882812</ele>
        <time>2009-12-10T19:26:58Z</time>
      </trkpt>
      <trkpt lat="43.66504" lon="5.5685">
        <ele>212.58862304688</ele>
        <time>2009-12-10T19:27:03Z</time>
      </trkpt>
      <trkpt lat="43.66486" lon="5.56883">
        <ele>214.51123046875</ele>
        <time>2009-12-10T19:27:07Z</time>
      </trkpt>
      <trkpt lat="43.6648" lon="5.56898">
        <ele>215.95324707031</ele>
        <time>2009-12-10T19:27:09Z</time>
      </trkpt>
      <trkpt lat="43.66473" lon="5.56937">
        <ele>218.83728027344</ele>
        <time>2009-12-10T19:27:15Z</time>
      </trkpt>
      <trkpt lat="43.66468" lon="5.56967">
        <ele>220.27917480469</ele>
        <time>2009-12-10T19:27:21Z</time>
      </trkpt>
      <trkpt lat="43.66461" lon="5.57004">
        <ele>220.27917480469</ele>
        <time>2009-12-10T19:27:28Z</time>
      </trkpt>
      <trkpt lat="43.66459" lon="5.57023">
        <ele>219.31799316406</ele>
        <time>2009-12-10T19:27:31Z</time>
      </trkpt>
      <trkpt lat="43.66456" lon="5.57035">
        <ele>218.35656738281</ele>
        <time>2009-12-10T19:27:33Z</time>
      </trkpt>
      <trkpt lat="43.66442" lon="5.57046">
        <ele>218.35656738281</ele>
        <time>2009-12-10T19:27:37Z</time>
      </trkpt>
      <trkpt lat="43.6643" lon="5.57052">
        <ele>218.35656738281</ele>
        <time>2009-12-10T19:27:40Z</time>
      </trkpt>
      <trkpt lat="43.66426" lon="5.57066">
        <ele>217.8759765625</ele>
        <time>2009-12-10T19:27:42Z</time>
      </trkpt>
      <trkpt lat="43.66409" lon="5.57133">
        <ele>217.39538574219</ele>
        <time>2009-12-10T19:27:49Z</time>
      </trkpt>
      <trkpt lat="43.66395" lon="5.57188">
        <ele>216.91467285156</ele>
        <time>2009-12-10T19:27:55Z</time>
      </trkpt>
      <trkpt lat="43.66379" lon="5.5725">
        <ele>215.95324707031</ele>
        <time>2009-12-10T19:28:02Z</time>
      </trkpt>
      <trkpt lat="43.66365" lon="5.57301">
        <ele>216.91467285156</ele>
        <time>2009-12-10T19:28:08Z</time>
      </trkpt>
      <trkpt lat="43.66349" lon="5.5736">
        <ele>216.43395996094</ele>
        <time>2009-12-10T19:28:15Z</time>
      </trkpt>
      <trkpt lat="43.66342" lon="5.57412">
        <ele>214.99194335938</ele>
        <time>2009-12-10T19:28:21Z</time>
      </trkpt>
      <trkpt lat="43.66338" lon="5.57461">
        <ele>214.03063964844</ele>
        <time>2009-12-10T19:28:27Z</time>
      </trkpt>
      <trkpt lat="43.66338" lon="5.57469">
        <ele>214.03063964844</ele>
        <time>2009-12-10T19:28:28Z</time>
      </trkpt>
      <trkpt lat="43.66344" lon="5.57521">
        <ele>213.55004882812</ele>
        <time>2009-12-10T19:28:34Z</time>
      </trkpt>
      <trkpt lat="43.66348" lon="5.57538">
        <ele>212.58862304688</ele>
        <time>2009-12-10T19:28:36Z</time>
      </trkpt>
      <trkpt lat="43.66349" lon="5.576">
        <ele>212.10803222656</ele>
        <time>2009-12-10T19:28:43Z</time>
      </trkpt>
      <trkpt lat="43.66344" lon="5.57671">
        <ele>213.55004882812</ele>
        <time>2009-12-10T19:28:51Z</time>
      </trkpt>
      <trkpt lat="43.66336" lon="5.57732">
        <ele>213.0693359375</ele>
        <time>2009-12-10T19:28:57Z</time>
      </trkpt>
      <trkpt lat="43.66326" lon="5.57795">
        <ele>215.95324707031</ele>
        <time>2009-12-10T19:29:03Z</time>
      </trkpt>
      <trkpt lat="43.66314" lon="5.57862">
        <ele>217.39538574219</ele>
        <time>2009-12-10T19:29:10Z</time>
      </trkpt>
      <trkpt lat="43.66307" lon="5.57912">
        <ele>217.39538574219</ele>
        <time>2009-12-10T19:29:15Z</time>
      </trkpt>
      <trkpt lat="43.66307" lon="5.57991">
        <ele>216.91467285156</ele>
        <time>2009-12-10T19:29:23Z</time>
      </trkpt>
      <trkpt lat="43.66305" lon="5.58049">
        <ele>216.91467285156</ele>
        <time>2009-12-10T19:29:30Z</time>
      </trkpt>
      <trkpt lat="43.66298" lon="5.58123">
        <ele>217.8759765625</ele>
        <time>2009-12-10T19:29:39Z</time>
      </trkpt>
      <trkpt lat="43.66284" lon="5.58182">
        <ele>216.91467285156</ele>
        <time>2009-12-10T19:29:46Z</time>
      </trkpt>
      <trkpt lat="43.66271" lon="5.58219">
        <ele>215.95324707031</ele>
        <time>2009-12-10T19:29:50Z</time>
      </trkpt>
      <trkpt lat="43.6627" lon="5.58258">
        <ele>214.03063964844</ele>
        <time>2009-12-10T19:29:54Z</time>
      </trkpt>
      <trkpt lat="43.66283" lon="5.58295">
        <ele>213.55004882812</ele>
        <time>2009-12-10T19:29:59Z</time>
      </trkpt>
      <trkpt lat="43.66309" lon="5.5835">
        <ele>214.03063964844</ele>
        <time>2009-12-10T19:30:08Z</time>
      </trkpt>
      <trkpt lat="43.66319" lon="5.58381">
        <ele>213.55004882812</ele>
        <time>2009-12-10T19:30:13Z</time>
      </trkpt>
      <trkpt lat="43.66328" lon="5.58424">
        <ele>213.0693359375</ele>
        <time>2009-12-10T19:30:19Z</time>
      </trkpt>
      <trkpt lat="43.66348" lon="5.585">
        <ele>212.58862304688</ele>
        <time>2009-12-10T19:30:29Z</time>
      </trkpt>
      <trkpt lat="43.66352" lon="5.58516">
        <ele>212.58862304688</ele>
        <time>2009-12-10T19:30:31Z</time>
      </trkpt>
      <trkpt lat="43.66367" lon="5.58578">
        <ele>212.58862304688</ele>
        <time>2009-12-10T19:30:39Z</time>
      </trkpt>
      <trkpt lat="43.6638" lon="5.5863">
        <ele>213.0693359375</ele>
        <time>2009-12-10T19:30:46Z</time>
      </trkpt>
      <trkpt lat="43.66386" lon="5.5866">
        <ele>213.55004882812</ele>
        <time>2009-12-10T19:30:50Z</time>
      </trkpt>
      <trkpt lat="43.66386" lon="5.58716">
        <ele>212.58862304688</ele>
        <time>2009-12-10T19:30:56Z</time>
      </trkpt>
      <trkpt lat="43.66388" lon="5.58788">
        <ele>213.0693359375</ele>
        <time>2009-12-10T19:31:03Z</time>
      </trkpt>
      <trkpt lat="43.66382" lon="5.58854">
        <ele>213.0693359375</ele>
        <time>2009-12-10T19:31:10Z</time>
      </trkpt>
      <trkpt lat="43.6637" lon="5.58925">
        <ele>211.62744140625</ele>
        <time>2009-12-10T19:31:18Z</time>
      </trkpt>
      <trkpt lat="43.66359" lon="5.58973">
        <ele>211.14672851562</ele>
        <time>2009-12-10T19:31:23Z</time>
      </trkpt>
      <trkpt lat="43.66346" lon="5.59023">
        <ele>212.58862304688</ele>
        <time>2009-12-10T19:31:29Z</time>
      </trkpt>
      <trkpt lat="43.66342" lon="5.59038">
        <ele>211.62744140625</ele>
        <time>2009-12-10T19:31:31Z</time>
      </trkpt>
      <trkpt lat="43.66319" lon="5.59086">
        <ele>209.70483398438</ele>
        <time>2009-12-10T19:31:37Z</time>
      </trkpt>
      <trkpt lat="43.66292" lon="5.59149">
        <ele>208.74340820312</ele>
        <time>2009-12-10T19:31:44Z</time>
      </trkpt>
      <trkpt lat="43.66282" lon="5.59174">
        <ele>208.74340820312</ele>
        <time>2009-12-10T19:31:47Z</time>
      </trkpt>
      <trkpt lat="43.66255" lon="5.5925">
        <ele>211.62744140625</ele>
        <time>2009-12-10T19:31:56Z</time>
      </trkpt>
      <trkpt lat="43.66241" lon="5.59301">
        <ele>211.14672851562</ele>
        <time>2009-12-10T19:32:02Z</time>
      </trkpt>
      <trkpt lat="43.66219" lon="5.59358">
        <ele>212.10803222656</ele>
        <time>2009-12-10T19:32:09Z</time>
      </trkpt>
      <trkpt lat="43.66207" lon="5.59398">
        <ele>214.03063964844</ele>
        <time>2009-12-10T19:32:14Z</time>
      </trkpt>
      <trkpt lat="43.66193" lon="5.59456">
        <ele>212.58862304688</ele>
        <time>2009-12-10T19:32:21Z</time>
      </trkpt>
      <trkpt lat="43.66183" lon="5.59502">
        <ele>213.0693359375</ele>
        <time>2009-12-10T19:32:27Z</time>
      </trkpt>
      <trkpt lat="43.66177" lon="5.59528">
        <ele>214.51123046875</ele>
        <time>2009-12-10T19:32:31Z</time>
      </trkpt>
      <trkpt lat="43.66176" lon="5.59569">
        <ele>217.39538574219</ele>
        <time>2009-12-10T19:32:39Z</time>
      </trkpt>
      <trkpt lat="43.66175" lon="5.59606">
        <ele>220.75988769531</ele>
        <time>2009-12-10T19:32:48Z</time>
      </trkpt>
      <trkpt lat="43.66177" lon="5.59632">
        <ele>223.64379882812</ele>
        <time>2009-12-10T19:32:55Z</time>
      </trkpt>
      <trkpt lat="43.66179" lon="5.5967">
        <ele>227.48913574219</ele>
        <time>2009-12-10T19:33:07Z</time>
      </trkpt>
      <trkpt lat="43.66176" lon="5.59695">
        <ele>231.81494140625</ele>
        <time>2009-12-10T19:33:16Z</time>
      </trkpt>
      <trkpt lat="43.66178" lon="5.59702">
        <ele>233.25708007812</ele>
        <time>2009-12-10T19:33:19Z</time>
      </trkpt>
      <trkpt lat="43.6619" lon="5.59704">
        <ele>233.73767089844</ele>
        <time>2009-12-10T19:33:25Z</time>
      </trkpt>
      <trkpt lat="43.66202" lon="5.59711">
        <ele>234.21838378906</ele>
        <time>2009-12-10T19:33:30Z</time>
      </trkpt>
      <trkpt lat="43.66211" lon="5.5973">
        <ele>235.66027832031</ele>
        <time>2009-12-10T19:33:36Z</time>
      </trkpt>
      <trkpt lat="43.66211" lon="5.59752">
        <ele>237.10229492188</ele>
        <time>2009-12-10T19:33:42Z</time>
      </trkpt>
      <trkpt lat="43.66216" lon="5.59784">
        <ele>239.98620605469</ele>
        <time>2009-12-10T19:33:51Z</time>
      </trkpt>
      <trkpt lat="43.66225" lon="5.59805">
        <ele>239.50549316406</ele>
        <time>2009-12-10T19:33:56Z</time>
      </trkpt>
      <trkpt lat="43.66241" lon="5.59843">
        <ele>238.06359863281</ele>
        <time>2009-12-10T19:34:02Z</time>
      </trkpt>
      <trkpt lat="43.66246" lon="5.59891">
        <ele>236.62170410156</ele>
        <time>2009-12-10T19:34:08Z</time>
      </trkpt>
      <trkpt lat="43.66249" lon="5.59908">
        <ele>235.66027832031</ele>
        <time>2009-12-10T19:34:10Z</time>
      </trkpt>
      <trkpt lat="43.66248" lon="5.59949">
        <ele>235.66027832031</ele>
        <time>2009-12-10T19:34:15Z</time>
      </trkpt>
      <trkpt lat="43.6624" lon="5.59984">
        <ele>236.62170410156</ele>
        <time>2009-12-10T19:34:20Z</time>
      </trkpt>
      <trkpt lat="43.6624" lon="5.60023">
        <ele>237.10229492188</ele>
        <time>2009-12-10T19:34:26Z</time>
      </trkpt>
      <trkpt lat="43.66244" lon="5.60042">
        <ele>237.10229492188</ele>
        <time>2009-12-10T19:34:29Z</time>
      </trkpt>
      <trkpt lat="43.66245" lon="5.60068">
        <ele>237.58288574219</ele>
        <time>2009-12-10T19:34:33Z</time>
      </trkpt>
      <trkpt lat="43.66245" lon="5.6008">
        <ele>238.06359863281</ele>
        <time>2009-12-10T19:34:35Z</time>
      </trkpt>
      <trkpt lat="43.6625" lon="5.60113">
        <ele>238.54431152344</ele>
        <time>2009-12-10T19:34:41Z</time>
      </trkpt>
      <trkpt lat="43.66259" lon="5.60126">
        <ele>238.54431152344</ele>
        <time>2009-12-10T19:34:44Z</time>
      </trkpt>
      <trkpt lat="43.66267" lon="5.60155">
        <ele>238.54431152344</ele>
        <time>2009-12-10T19:34:49Z</time>
      </trkpt>
      <trkpt lat="43.66257" lon="5.60169">
        <ele>238.54431152344</ele>
        <time>2009-12-10T19:34:52Z</time>
      </trkpt>
      <trkpt lat="43.66233" lon="5.60204">
        <ele>239.98620605469</ele>
        <time>2009-12-10T19:35:00Z</time>
      </trkpt>
      <trkpt lat="43.66222" lon="5.6024">
        <ele>242.3896484375</ele>
        <time>2009-12-10T19:35:06Z</time>
      </trkpt>
      <trkpt lat="43.66217" lon="5.60296">
        <ele>243.35083007812</ele>
        <time>2009-12-10T19:35:15Z</time>
      </trkpt>
      <trkpt lat="43.66217" lon="5.60302">
        <ele>243.35083007812</ele>
        <time>2009-12-10T19:35:16Z</time>
      </trkpt>
      <trkpt lat="43.6622" lon="5.60345">
        <ele>243.83154296875</ele>
        <time>2009-12-10T19:35:23Z</time>
      </trkpt>
      <trkpt lat="43.66227" lon="5.60369">
        <ele>243.35083007812</ele>
        <time>2009-12-10T19:35:27Z</time>
      </trkpt>
      <trkpt lat="43.66236" lon="5.6039">
        <ele>243.35083007812</ele>
        <time>2009-12-10T19:35:31Z</time>
      </trkpt>
      <trkpt lat="43.66242" lon="5.60422">
        <ele>243.35083007812</ele>
        <time>2009-12-10T19:35:36Z</time>
      </trkpt>
      <trkpt lat="43.66238" lon="5.60441">
        <ele>243.35083007812</ele>
        <time>2009-12-10T19:35:39Z</time>
      </trkpt>
      <trkpt lat="43.66226" lon="5.60487">
        <ele>241.90893554688</ele>
        <time>2009-12-10T19:35:46Z</time>
      </trkpt>
      <trkpt lat="43.66225" lon="5.60501">
        <ele>241.42822265625</ele>
        <time>2009-12-10T19:35:48Z</time>
      </trkpt>
      <trkpt lat="43.6623" lon="5.60557">
        <ele>241.42822265625</ele>
        <time>2009-12-10T19:35:56Z</time>
      </trkpt>
      <trkpt lat="43.66243" lon="5.60609">
        <ele>241.90893554688</ele>
        <time>2009-12-10T19:36:04Z</time>
      </trkpt>
      <trkpt lat="43.6626" lon="5.6065">
        <ele>241.42822265625</ele>
        <time>2009-12-10T19:36:11Z</time>
      </trkpt>
      <trkpt lat="43.66266" lon="5.60659">
        <ele>241.90893554688</ele>
        <time>2009-12-10T19:36:13Z</time>
      </trkpt>
      <trkpt lat="43.66273" lon="5.60667">
        <ele>241.90893554688</ele>
        <time>2009-12-10T19:36:15Z</time>
      </trkpt>
      <trkpt lat="43.66306" lon="5.60692">
        <ele>242.87023925781</ele>
        <time>2009-12-10T19:36:23Z</time>
      </trkpt>
      <trkpt lat="43.6633" lon="5.60712">
        <ele>243.83154296875</ele>
        <time>2009-12-10T19:36:29Z</time>
      </trkpt>
      <trkpt lat="43.66338" lon="5.60718">
        <ele>243.83154296875</ele>
        <time>2009-12-10T19:36:31Z</time>
      </trkpt>
      <trkpt lat="43.66352" lon="5.60737">
        <ele>243.83154296875</ele>
        <time>2009-12-10T19:36:35Z</time>
      </trkpt>
      <trkpt lat="43.66363" lon="5.60761">
        <ele>243.83154296875</ele>
        <time>2009-12-10T19:36:39Z</time>
      </trkpt>
      <trkpt lat="43.66368" lon="5.60771">
        <ele>244.31225585938</ele>
        <time>2009-12-10T19:36:41Z</time>
      </trkpt>
      <trkpt lat="43.66392" lon="5.60793">
        <ele>244.31225585938</ele>
        <time>2009-12-10T19:36:47Z</time>
      </trkpt>
      <trkpt lat="43.66404" lon="5.60804">
        <ele>244.79284667969</ele>
        <time>2009-12-10T19:36:50Z</time>
      </trkpt>
      <trkpt lat="43.66422" lon="5.60825">
        <ele>245.75415039062</ele>
        <time>2009-12-10T19:36:56Z</time>
      </trkpt>
      <trkpt lat="43.66428" lon="5.60844">
        <ele>243.83154296875</ele>
        <time>2009-12-10T19:37:02Z</time>
      </trkpt>
      <trkpt lat="43.66429" lon="5.60858">
        <ele>243.83154296875</ele>
        <time>2009-12-10T19:37:05Z</time>
      </trkpt>
      <trkpt lat="43.66427" lon="5.60894">
        <ele>243.35083007812</ele>
        <time>2009-12-10T19:37:11Z</time>
      </trkpt>
      <trkpt lat="43.66428" lon="5.60899">
        <ele>242.87023925781</ele>
        <time>2009-12-10T19:37:12Z</time>
      </trkpt>
      <trkpt lat="43.66439" lon="5.60917">
        <ele>240.94763183594</ele>
        <time>2009-12-10T19:37:15Z</time>
      </trkpt>
      <trkpt lat="43.6646" lon="5.60937">
        <ele>238.06359863281</ele>
        <time>2009-12-10T19:37:19Z</time>
      </trkpt>
      <trkpt lat="43.66473" lon="5.60953">
        <ele>236.14099121094</ele>
        <time>2009-12-10T19:37:22Z</time>
      </trkpt>
      <trkpt lat="43.66508" lon="5.60987">
        <ele>232.77648925781</ele>
        <time>2009-12-10T19:37:29Z</time>
      </trkpt>
      <trkpt lat="43.66535" lon="5.61024">
        <ele>233.25708007812</ele>
        <time>2009-12-10T19:37:36Z</time>
      </trkpt>
      <trkpt lat="43.66552" lon="5.61052">
        <ele>235.1796875</ele>
        <time>2009-12-10T19:37:43Z</time>
      </trkpt>
      <trkpt lat="43.66566" lon="5.61074">
        <ele>233.73767089844</ele>
        <time>2009-12-10T19:37:48Z</time>
      </trkpt>
      <trkpt lat="43.66582" lon="5.61098">
        <ele>231.81494140625</ele>
        <time>2009-12-10T19:37:52Z</time>
      </trkpt>
      <trkpt lat="43.66597" lon="5.61111">
        <ele>230.373046875</ele>
        <time>2009-12-10T19:37:55Z</time>
      </trkpt>
      <trkpt lat="43.66602" lon="5.6113">
        <ele>230.373046875</ele>
        <time>2009-12-10T19:37:59Z</time>
      </trkpt>
      <trkpt lat="43.66599" lon="5.61134">
        <ele>230.373046875</ele>
        <time>2009-12-10T19:38:00Z</time>
      </trkpt>
      <trkpt lat="43.66582" lon="5.61148">
        <ele>231.81494140625</ele>
        <time>2009-12-10T19:38:04Z</time>
      </trkpt>
      <trkpt lat="43.66573" lon="5.61172">
        <ele>230.85375976562</ele>
        <time>2009-12-10T19:38:08Z</time>
      </trkpt>
      <trkpt lat="43.66575" lon="5.61177">
        <ele>229.89233398438</ele>
        <time>2009-12-10T19:38:09Z</time>
      </trkpt>
      <trkpt lat="43.66593" lon="5.61217">
        <ele>227.48913574219</ele>
        <time>2009-12-10T19:38:16Z</time>
      </trkpt>
      <trkpt lat="43.66601" lon="5.61243">
        <ele>226.04711914062</ele>
        <time>2009-12-10T19:38:21Z</time>
      </trkpt>
      <trkpt lat="43.66609" lon="5.61275">
        <ele>225.56652832031</ele>
        <time>2009-12-10T19:38:27Z</time>
      </trkpt>
      <trkpt lat="43.66614" lon="5.613">
        <ele>225.0859375</ele>
        <time>2009-12-10T19:38:31Z</time>
      </trkpt>
      <trkpt lat="43.66619" lon="5.61345">
        <ele>223.64379882812</ele>
        <time>2009-12-10T19:38:39Z</time>
      </trkpt>
      <trkpt lat="43.66622" lon="5.6137">
        <ele>222.68249511719</ele>
        <time>2009-12-10T19:38:43Z</time>
      </trkpt>
      <trkpt lat="43.66623" lon="5.61384">
        <ele>222.68249511719</ele>
        <time>2009-12-10T19:38:45Z</time>
      </trkpt>
      <trkpt lat="43.66624" lon="5.61398">
        <ele>222.68249511719</ele>
        <time>2009-12-10T19:38:47Z</time>
      </trkpt>
      <trkpt lat="43.66625" lon="5.61451">
        <ele>223.16320800781</ele>
        <time>2009-12-10T19:38:55Z</time>
      </trkpt>
      <trkpt lat="43.6663" lon="5.61488">
        <ele>223.16320800781</ele>
        <time>2009-12-10T19:39:01Z</time>
      </trkpt>
      <trkpt lat="43.66636" lon="5.6153">
        <ele>223.16320800781</ele>
        <time>2009-12-10T19:39:07Z</time>
      </trkpt>
      <trkpt lat="43.66645" lon="5.61585">
        <ele>224.12451171875</ele>
        <time>2009-12-10T19:39:15Z</time>
      </trkpt>
      <trkpt lat="43.66646" lon="5.61591">
        <ele>224.60522460938</ele>
        <time>2009-12-10T19:39:16Z</time>
      </trkpt>
      <trkpt lat="43.66655" lon="5.61614">
        <ele>224.60522460938</ele>
        <time>2009-12-10T19:39:20Z</time>
      </trkpt>
      <trkpt lat="43.66664" lon="5.61642">
        <ele>224.60522460938</ele>
        <time>2009-12-10T19:39:24Z</time>
      </trkpt>
      <trkpt lat="43.66676" lon="5.6169">
        <ele>224.12451171875</ele>
        <time>2009-12-10T19:39:31Z</time>
      </trkpt>
      <trkpt lat="43.6668" lon="5.61701">
        <ele>224.12451171875</ele>
        <time>2009-12-10T19:39:33Z</time>
      </trkpt>
      <trkpt lat="43.66703" lon="5.61741">
        <ele>222.68249511719</ele>
        <time>2009-12-10T19:39:41Z</time>
      </trkpt>
      <trkpt lat="43.66714" lon="5.61761">
        <ele>222.20178222656</ele>
        <time>2009-12-10T19:39:45Z</time>
      </trkpt>
      <trkpt lat="43.66721" lon="5.61777">
        <ele>222.20178222656</ele>
        <time>2009-12-10T19:39:48Z</time>
      </trkpt>
      <trkpt lat="43.66736" lon="5.61817">
        <ele>222.20178222656</ele>
        <time>2009-12-10T19:39:56Z</time>
      </trkpt>
      <trkpt lat="43.66743" lon="5.61843">
        <ele>223.16320800781</ele>
        <time>2009-12-10T19:40:01Z</time>
      </trkpt>
      <trkpt lat="43.66748" lon="5.61885">
        <ele>222.20178222656</ele>
        <time>2009-12-10T19:40:07Z</time>
      </trkpt>
      <trkpt lat="43.66754" lon="5.61925">
        <ele>221.72119140625</ele>
        <time>2009-12-10T19:40:12Z</time>
      </trkpt>
      <trkpt lat="43.66754" lon="5.61988">
        <ele>222.68249511719</ele>
        <time>2009-12-10T19:40:20Z</time>
      </trkpt>
      <trkpt lat="43.66751" lon="5.62032">
        <ele>223.16320800781</ele>
        <time>2009-12-10T19:40:26Z</time>
      </trkpt>
      <trkpt lat="43.66752" lon="5.62084">
        <ele>222.68249511719</ele>
        <time>2009-12-10T19:40:33Z</time>
      </trkpt>
      <trkpt lat="43.66753" lon="5.62091">
        <ele>222.68249511719</ele>
        <time>2009-12-10T19:40:34Z</time>
      </trkpt>
      <trkpt lat="43.66755" lon="5.62111">
        <ele>222.68249511719</ele>
        <time>2009-12-10T19:40:37Z</time>
      </trkpt>
      <trkpt lat="43.66765" lon="5.6216">
        <ele>224.12451171875</ele>
        <time>2009-12-10T19:40:44Z</time>
      </trkpt>
      <trkpt lat="43.66777" lon="5.622">
        <ele>221.72119140625</ele>
        <time>2009-12-10T19:40:50Z</time>
      </trkpt>
      <trkpt lat="43.66779" lon="5.62206">
        <ele>221.72119140625</ele>
        <time>2009-12-10T19:40:51Z</time>
      </trkpt>
      <trkpt lat="43.6679" lon="5.62246">
        <ele>223.16320800781</ele>
        <time>2009-12-10T19:40:59Z</time>
      </trkpt>
      <trkpt lat="43.66803" lon="5.62282">
        <ele>223.64379882812</ele>
        <time>2009-12-10T19:41:06Z</time>
      </trkpt>
      <trkpt lat="43.66817" lon="5.62323">
        <ele>223.64379882812</ele>
        <time>2009-12-10T19:41:14Z</time>
      </trkpt>
      <trkpt lat="43.66828" lon="5.6236">
        <ele>222.20178222656</ele>
        <time>2009-12-10T19:41:20Z</time>
      </trkpt>
      <trkpt lat="43.66846" lon="5.62401">
        <ele>222.68249511719</ele>
        <time>2009-12-10T19:41:27Z</time>
      </trkpt>
      <trkpt lat="43.66864" lon="5.62436">
        <ele>224.12451171875</ele>
        <time>2009-12-10T19:41:34Z</time>
      </trkpt>
      <trkpt lat="43.66891" lon="5.62497">
        <ele>225.56652832031</ele>
        <time>2009-12-10T19:41:45Z</time>
      </trkpt>
      <trkpt lat="43.66912" lon="5.62527">
        <ele>226.52783203125</ele>
        <time>2009-12-10T19:41:52Z</time>
      </trkpt>
      <trkpt lat="43.66915" lon="5.62531">
        <ele>226.52783203125</ele>
        <time>2009-12-10T19:41:53Z</time>
      </trkpt>
      <trkpt lat="43.66925" lon="5.62554">
        <ele>226.52783203125</ele>
        <time>2009-12-10T19:41:57Z</time>
      </trkpt>
      <trkpt lat="43.66944" lon="5.62584">
        <ele>227.48913574219</ele>
        <time>2009-12-10T19:42:03Z</time>
      </trkpt>
      <trkpt lat="43.66954" lon="5.62598">
        <ele>227.9697265625</ele>
        <time>2009-12-10T19:42:06Z</time>
      </trkpt>
      <trkpt lat="43.66978" lon="5.62637">
        <ele>228.93115234375</ele>
        <time>2009-12-10T19:42:14Z</time>
      </trkpt>
      <trkpt lat="43.66992" lon="5.62661">
        <ele>229.89233398438</ele>
        <time>2009-12-10T19:42:19Z</time>
      </trkpt>
      <trkpt lat="43.67017" lon="5.62707">
        <ele>230.85375976562</ele>
        <time>2009-12-10T19:42:28Z</time>
      </trkpt>
      <trkpt lat="43.67039" lon="5.62745">
        <ele>230.85375976562</ele>
        <time>2009-12-10T19:42:35Z</time>
      </trkpt>
      <trkpt lat="43.67064" lon="5.62788">
        <ele>231.33435058594</ele>
        <time>2009-12-10T19:42:43Z</time>
      </trkpt>
      <trkpt lat="43.67086" lon="5.62826">
        <ele>231.33435058594</ele>
        <time>2009-12-10T19:42:50Z</time>
      </trkpt>
      <trkpt lat="43.67104" lon="5.62859">
        <ele>232.29577636719</ele>
        <time>2009-12-10T19:42:56Z</time>
      </trkpt>
      <trkpt lat="43.6712" lon="5.62892">
        <ele>232.77648925781</ele>
        <time>2009-12-10T19:43:02Z</time>
      </trkpt>
      <trkpt lat="43.67122" lon="5.62897">
        <ele>232.77648925781</ele>
        <time>2009-12-10T19:43:03Z</time>
      </trkpt>
      <trkpt lat="43.67137" lon="5.62946">
        <ele>232.29577636719</ele>
        <time>2009-12-10T19:43:12Z</time>
      </trkpt>
      <trkpt lat="43.67149" lon="5.62988">
        <ele>230.85375976562</ele>
        <time>2009-12-10T19:43:19Z</time>
      </trkpt>
      <trkpt lat="43.67159" lon="5.63028">
        <ele>229.89233398438</ele>
        <time>2009-12-10T19:43:25Z</time>
      </trkpt>
      <trkpt lat="43.6717" lon="5.63076">
        <ele>227.9697265625</ele>
        <time>2009-12-10T19:43:32Z</time>
      </trkpt>
      <trkpt lat="43.67179" lon="5.63122">
        <ele>227.48913574219</ele>
        <time>2009-12-10T19:43:39Z</time>
      </trkpt>
      <trkpt lat="43.67184" lon="5.63141">
        <ele>227.48913574219</ele>
        <time>2009-12-10T19:43:42Z</time>
      </trkpt>
      <trkpt lat="43.67193" lon="5.6318">
        <ele>228.93115234375</ele>
        <time>2009-12-10T19:43:49Z</time>
      </trkpt>
      <trkpt lat="43.67205" lon="5.63225">
        <ele>230.85375976562</ele>
        <time>2009-12-10T19:43:57Z</time>
      </trkpt>
      <trkpt lat="43.67212" lon="5.63252">
        <ele>231.81494140625</ele>
        <time>2009-12-10T19:44:02Z</time>
      </trkpt>
      <trkpt lat="43.67218" lon="5.63301">
        <ele>232.29577636719</ele>
        <time>2009-12-10T19:44:11Z</time>
      </trkpt>
      <trkpt lat="43.6722" lon="5.63346">
        <ele>231.33435058594</ele>
        <time>2009-12-10T19:44:18Z</time>
      </trkpt>
      <trkpt lat="43.6722" lon="5.6336">
        <ele>230.85375976562</ele>
        <time>2009-12-10T19:44:22Z</time>
      </trkpt>
      <trkpt lat="43.67221" lon="5.6338">
        <ele>231.33435058594</ele>
        <time>2009-12-10T19:44:29Z</time>
      </trkpt>
      <trkpt lat="43.67226" lon="5.63407">
        <ele>233.25708007812</ele>
        <time>2009-12-10T19:44:35Z</time>
      </trkpt>
      <trkpt lat="43.67236" lon="5.63429">
        <ele>234.69909667969</ele>
        <time>2009-12-10T19:44:41Z</time>
      </trkpt>
      <trkpt lat="43.67253" lon="5.63441">
        <ele>234.69909667969</ele>
        <time>2009-12-10T19:44:47Z</time>
      </trkpt>
      <trkpt lat="43.67269" lon="5.63446">
        <ele>235.66027832031</ele>
        <time>2009-12-10T19:44:52Z</time>
      </trkpt>
      <trkpt lat="43.67289" lon="5.63445">
        <ele>235.66027832031</ele>
        <time>2009-12-10T19:44:57Z</time>
      </trkpt>
      <trkpt lat="43.67298" lon="5.63454">
        <ele>235.66027832031</ele>
        <time>2009-12-10T19:45:01Z</time>
      </trkpt>
      <trkpt lat="43.67298" lon="5.63454">
        <ele>236.14099121094</ele>
        <time>2009-12-10T19:45:05Z</time>
      </trkpt>
      <trkpt lat="43.67297" lon="5.63451">
        <ele>236.14099121094</ele>
        <time>2009-12-10T19:45:09Z</time>
      </trkpt>
      <trkpt lat="43.67293" lon="5.63447">
        <ele>235.1796875</ele>
        <time>2009-12-10T19:45:16Z</time>
      </trkpt>
      <trkpt lat="43.67293" lon="5.63449">
        <ele>234.69909667969</ele>
        <time>2009-12-10T19:45:23Z</time>
      </trkpt>
      <trkpt lat="43.67299" lon="5.63463">
        <ele>235.66027832031</ele>
        <time>2009-12-10T19:45:30Z</time>
      </trkpt>
      <trkpt lat="43.67315" lon="5.63484">
        <ele>236.14099121094</ele>
        <time>2009-12-10T19:45:37Z</time>
      </trkpt>
      <trkpt lat="43.67328" lon="5.63509">
        <ele>236.14099121094</ele>
        <time>2009-12-10T19:45:43Z</time>
      </trkpt>
      <trkpt lat="43.67339" lon="5.63527">
        <ele>235.1796875</ele>
        <time>2009-12-10T19:45:48Z</time>
      </trkpt>
      <trkpt lat="43.67351" lon="5.63556">
        <ele>235.1796875</ele>
        <time>2009-12-10T19:45:55Z</time>
      </trkpt>
      <trkpt lat="43.67361" lon="5.6359">
        <ele>234.69909667969</ele>
        <time>2009-12-10T19:46:02Z</time>
      </trkpt>
      <trkpt lat="43.6737" lon="5.6364">
        <ele>233.25708007812</ele>
        <time>2009-12-10T19:46:10Z</time>
      </trkpt>
      <trkpt lat="43.67371" lon="5.63646">
        <ele>233.25708007812</ele>
        <time>2009-12-10T19:46:11Z</time>
      </trkpt>
      <trkpt lat="43.67385" lon="5.63663">
        <ele>232.77648925781</ele>
        <time>2009-12-10T19:46:15Z</time>
      </trkpt>
      <trkpt lat="43.67388" lon="5.63674">
        <ele>232.77648925781</ele>
        <time>2009-12-10T19:46:17Z</time>
      </trkpt>
      <trkpt lat="43.67389" lon="5.63686">
        <ele>232.77648925781</ele>
        <time>2009-12-10T19:46:19Z</time>
      </trkpt>
      <trkpt lat="43.67397" lon="5.63718">
        <ele>233.25708007812</ele>
        <time>2009-12-10T19:46:25Z</time>
      </trkpt>
      <trkpt lat="43.67407" lon="5.63746">
        <ele>233.73767089844</ele>
        <time>2009-12-10T19:46:31Z</time>
      </trkpt>
      <trkpt lat="43.67429" lon="5.63782">
        <ele>233.73767089844</ele>
        <time>2009-12-10T19:46:40Z</time>
      </trkpt>
      <trkpt lat="43.67451" lon="5.63824">
        <ele>233.25708007812</ele>
        <time>2009-12-10T19:46:49Z</time>
      </trkpt>
      <trkpt lat="43.67471" lon="5.63871">
        <ele>234.69909667969</ele>
        <time>2009-12-10T19:46:58Z</time>
      </trkpt>
      <trkpt lat="43.67476" lon="5.63888">
        <ele>235.66027832031</ele>
        <time>2009-12-10T19:47:01Z</time>
      </trkpt>
      <trkpt lat="43.67494" lon="5.63939">
        <ele>235.1796875</ele>
        <time>2009-12-10T19:47:09Z</time>
      </trkpt>
      <trkpt lat="43.67509" lon="5.63984">
        <ele>236.14099121094</ele>
        <time>2009-12-10T19:47:16Z</time>
      </trkpt>
      <trkpt lat="43.67514" lon="5.64018">
        <ele>235.1796875</ele>
        <time>2009-12-10T19:47:22Z</time>
      </trkpt>
      <trkpt lat="43.67516" lon="5.64029">
        <ele>235.1796875</ele>
        <time>2009-12-10T19:47:25Z</time>
      </trkpt>
      <trkpt lat="43.67521" lon="5.64039">
        <ele>235.1796875</ele>
        <time>2009-12-10T19:47:28Z</time>
      </trkpt>
      <trkpt lat="43.67535" lon="5.64039">
        <ele>236.62170410156</ele>
        <time>2009-12-10T19:47:33Z</time>
      </trkpt>
      <trkpt lat="43.67551" lon="5.64032">
        <ele>237.10229492188</ele>
        <time>2009-12-10T19:47:38Z</time>
      </trkpt>
      <trkpt lat="43.6756" lon="5.64018">
        <ele>237.58288574219</ele>
        <time>2009-12-10T19:47:43Z</time>
      </trkpt>
      <trkpt lat="43.67553" lon="5.6401">
        <ele>238.54431152344</ele>
        <time>2009-12-10T19:47:48Z</time>
      </trkpt>
      <trkpt lat="43.67551" lon="5.64008">
        <ele>239.02490234375</ele>
        <time>2009-12-10T19:47:49Z</time>
      </trkpt>
      <trkpt lat="43.67539" lon="5.63993">
        <ele>241.42822265625</ele>
        <time>2009-12-10T19:47:57Z</time>
      </trkpt>
      <trkpt lat="43.67537" lon="5.63987">
        <ele>242.87023925781</ele>
        <time>2009-12-10T19:48:00Z</time>
      </trkpt>
      <trkpt lat="43.67533" lon="5.63978">
        <ele>244.31225585938</ele>
        <time>2009-12-10T19:48:04Z</time>
      </trkpt>
      <trkpt lat="43.67532" lon="5.6396">
        <ele>246.23486328125</ele>
        <time>2009-12-10T19:48:12Z</time>
      </trkpt>
      <trkpt lat="43.67543" lon="5.63952">
        <ele>248.15759277344</ele>
        <time>2009-12-10T19:48:20Z</time>
      </trkpt>
      <trkpt lat="43.67553" lon="5.63946">
        <ele>251.52209472656</ele>
        <time>2009-12-10T19:48:28Z</time>
      </trkpt>
      <trkpt lat="43.67562" lon="5.63935">
        <ele>252.96398925781</ele>
        <time>2009-12-10T19:48:36Z</time>
      </trkpt>
      <trkpt lat="43.67565" lon="5.63914">
        <ele>252.96398925781</ele>
        <time>2009-12-10T19:48:46Z</time>
      </trkpt>
      <trkpt lat="43.67567" lon="5.63894">
        <ele>255.84802246094</ele>
        <time>2009-12-10T19:48:55Z</time>
      </trkpt>
      <trkpt lat="43.67567" lon="5.63876">
        <ele>258.25134277344</ele>
        <time>2009-12-10T19:49:03Z</time>
      </trkpt>
      <trkpt lat="43.67571" lon="5.63857">
        <ele>260.65454101562</ele>
        <time>2009-12-10T19:49:12Z</time>
      </trkpt>
      <trkpt lat="43.67579" lon="5.63839">
        <ele>263.53857421875</ele>
        <time>2009-12-10T19:49:21Z</time>
      </trkpt>
      <trkpt lat="43.6759" lon="5.63828">
        <ele>265.94189453125</ele>
        <time>2009-12-10T19:49:29Z</time>
      </trkpt>
      <trkpt lat="43.67601" lon="5.63819">
        <ele>266.42248535156</ele>
        <time>2009-12-10T19:49:36Z</time>
      </trkpt>
      <trkpt lat="43.67614" lon="5.63805">
        <ele>264.98059082031</ele>
        <time>2009-12-10T19:49:43Z</time>
      </trkpt>
      <trkpt lat="43.67632" lon="5.63782">
        <ele>265.46130371094</ele>
        <time>2009-12-10T19:49:53Z</time>
      </trkpt>
      <trkpt lat="43.67646" lon="5.63769">
        <ele>265.94189453125</ele>
        <time>2009-12-10T19:50:00Z</time>
      </trkpt>
      <trkpt lat="43.67655" lon="5.63755">
        <ele>266.42248535156</ele>
        <time>2009-12-10T19:50:06Z</time>
      </trkpt>
      <trkpt lat="43.67656" lon="5.63732">
        <ele>267.38391113281</ele>
        <time>2009-12-10T19:50:14Z</time>
      </trkpt>
      <trkpt lat="43.67657" lon="5.63704">
        <ele>268.34509277344</ele>
        <time>2009-12-10T19:50:22Z</time>
      </trkpt>
      <trkpt lat="43.6766" lon="5.63675">
        <ele>269.787109375</ele>
        <time>2009-12-10T19:50:30Z</time>
      </trkpt>
      <trkpt lat="43.67667" lon="5.63645">
        <ele>270.74841308594</ele>
        <time>2009-12-10T19:50:38Z</time>
      </trkpt>
      <trkpt lat="43.67676" lon="5.63615">
        <ele>272.1904296875</ele>
        <time>2009-12-10T19:50:47Z</time>
      </trkpt>
      <trkpt lat="43.67682" lon="5.63587">
        <ele>273.15185546875</ele>
        <time>2009-12-10T19:50:55Z</time>
      </trkpt>
      <trkpt lat="43.67687" lon="5.63559">
        <ele>274.11303710938</ele>
        <time>2009-12-10T19:51:03Z</time>
      </trkpt>
      <trkpt lat="43.6769" lon="5.63529">
        <ele>276.51635742188</ele>
        <time>2009-12-10T19:51:12Z</time>
      </trkpt>
      <trkpt lat="43.6769" lon="5.63512">
        <ele>277.95825195312</ele>
        <time>2009-12-10T19:51:18Z</time>
      </trkpt>
      <trkpt lat="43.67692" lon="5.63491">
        <ele>279.880859375</ele>
        <time>2009-12-10T19:51:26Z</time>
      </trkpt>
      <trkpt lat="43.67697" lon="5.63471">
        <ele>281.80358886719</ele>
        <time>2009-12-10T19:51:35Z</time>
      </trkpt>
      <trkpt lat="43.67701" lon="5.63454">
        <ele>284.20690917969</ele>
        <time>2009-12-10T19:51:43Z</time>
      </trkpt>
      <trkpt lat="43.67706" lon="5.6344">
        <ele>285.64880371094</ele>
        <time>2009-12-10T19:51:50Z</time>
      </trkpt>
      <trkpt lat="43.67713" lon="5.63423">
        <ele>286.61022949219</ele>
        <time>2009-12-10T19:51:58Z</time>
      </trkpt>
      <trkpt lat="43.67718" lon="5.63408">
        <ele>288.53295898438</ele>
        <time>2009-12-10T19:52:06Z</time>
      </trkpt>
      <trkpt lat="43.6772" lon="5.63403">
        <ele>289.01354980469</ele>
        <time>2009-12-10T19:52:09Z</time>
      </trkpt>
      <trkpt lat="43.67723" lon="5.63392">
        <ele>289.97485351562</ele>
        <time>2009-12-10T19:52:16Z</time>
      </trkpt>
      <trkpt lat="43.67726" lon="5.63381">
        <ele>290.93615722656</ele>
        <time>2009-12-10T19:52:22Z</time>
      </trkpt>
      <trkpt lat="43.6773" lon="5.63366">
        <ele>292.85876464844</ele>
        <time>2009-12-10T19:52:30Z</time>
      </trkpt>
      <trkpt lat="43.67731" lon="5.63356">
        <ele>293.82006835938</ele>
        <time>2009-12-10T19:52:37Z</time>
      </trkpt>
      <trkpt lat="43.67733" lon="5.63346">
        <ele>294.78137207031</ele>
        <time>2009-12-10T19:52:42Z</time>
      </trkpt>
      <trkpt lat="43.6774" lon="5.63342">
        <ele>295.74267578125</ele>
        <time>2009-12-10T19:52:48Z</time>
      </trkpt>
      <trkpt lat="43.67743" lon="5.63346">
        <ele>295.74267578125</ele>
        <time>2009-12-10T19:52:50Z</time>
      </trkpt>
      <trkpt lat="43.67744" lon="5.6335">
        <ele>295.74267578125</ele>
        <time>2009-12-10T19:52:52Z</time>
      </trkpt>
      <trkpt lat="43.67752" lon="5.63361">
        <ele>296.7041015625</ele>
        <time>2009-12-10T19:52:58Z</time>
      </trkpt>
      <trkpt lat="43.67765" lon="5.63373">
        <ele>297.18469238281</ele>
        <time>2009-12-10T19:53:07Z</time>
      </trkpt>
      <trkpt lat="43.67777" lon="5.63379">
        <ele>297.66540527344</ele>
        <time>2009-12-10T19:53:14Z</time>
      </trkpt>
      <trkpt lat="43.67788" lon="5.63389">
        <ele>298.62670898438</ele>
        <time>2009-12-10T19:53:22Z</time>
      </trkpt>
      <trkpt lat="43.67795" lon="5.63403">
        <ele>299.58801269531</ele>
        <time>2009-12-10T19:53:29Z</time>
      </trkpt>
      <trkpt lat="43.67804" lon="5.63413">
        <ele>300.54931640625</ele>
        <time>2009-12-10T19:53:36Z</time>
      </trkpt>
      <trkpt lat="43.67805" lon="5.63413">
        <ele>300.54931640625</ele>
        <time>2009-12-10T19:53:37Z</time>
      </trkpt>
      <trkpt lat="43.67809" lon="5.63401">
        <ele>301.99133300781</ele>
        <time>2009-12-10T19:53:43Z</time>
      </trkpt>
      <trkpt lat="43.67808" lon="5.63396">
        <ele>302.95251464844</ele>
        <time>2009-12-10T19:53:45Z</time>
      </trkpt>
      <trkpt lat="43.67808" lon="5.63376">
        <ele>305.35595703125</ele>
        <time>2009-12-10T19:53:54Z</time>
      </trkpt>
      <trkpt lat="43.67812" lon="5.63355">
        <ele>307.27856445312</ele>
        <time>2009-12-10T19:54:03Z</time>
      </trkpt>
      <trkpt lat="43.67815" lon="5.63334">
        <ele>309.201171875</ele>
        <time>2009-12-10T19:54:12Z</time>
      </trkpt>
      <trkpt lat="43.67824" lon="5.63317">
        <ele>311.6044921875</ele>
        <time>2009-12-10T19:54:21Z</time>
      </trkpt>
      <trkpt lat="43.67835" lon="5.63303">
        <ele>312.08520507812</ele>
        <time>2009-12-10T19:54:30Z</time>
      </trkpt>
      <trkpt lat="43.67845" lon="5.63287">
        <ele>313.04650878906</ele>
        <time>2009-12-10T19:54:39Z</time>
      </trkpt>
      <trkpt lat="43.67855" lon="5.63268">
        <ele>314.0078125</ele>
        <time>2009-12-10T19:54:48Z</time>
      </trkpt>
      <trkpt lat="43.67865" lon="5.63248">
        <ele>314.48840332031</ele>
        <time>2009-12-10T19:54:57Z</time>
      </trkpt>
      <trkpt lat="43.6787" lon="5.63229">
        <ele>316.89172363281</ele>
        <time>2009-12-10T19:55:06Z</time>
      </trkpt>
      <trkpt lat="43.67873" lon="5.63213">
        <ele>319.77563476562</ele>
        <time>2009-12-10T19:55:15Z</time>
      </trkpt>
      <trkpt lat="43.67876" lon="5.63211">
        <ele>319.77563476562</ele>
        <time>2009-12-10T19:55:17Z</time>
      </trkpt>
      <trkpt lat="43.67883" lon="5.63214">
        <ele>320.25634765625</ele>
        <time>2009-12-10T19:55:22Z</time>
      </trkpt>
      <trkpt lat="43.6789" lon="5.63234">
        <ele>320.73706054688</ele>
        <time>2009-12-10T19:55:30Z</time>
      </trkpt>
      <trkpt lat="43.67894" lon="5.63252">
        <ele>321.2177734375</ele>
        <time>2009-12-10T19:55:37Z</time>
      </trkpt>
      <trkpt lat="43.67898" lon="5.63272">
        <ele>322.65966796875</ele>
        <time>2009-12-10T19:55:45Z</time>
      </trkpt>
      <trkpt lat="43.67901" lon="5.63294">
        <ele>324.58227539062</ele>
        <time>2009-12-10T19:55:54Z</time>
      </trkpt>
      <trkpt lat="43.67908" lon="5.63301">
        <ele>325.06298828125</ele>
        <time>2009-12-10T19:55:59Z</time>
      </trkpt>
      <trkpt lat="43.67921" lon="5.63295">
        <ele>326.02416992188</ele>
        <time>2009-12-10T19:56:06Z</time>
      </trkpt>
      <trkpt lat="43.67934" lon="5.63283">
        <ele>326.98559570312</ele>
        <time>2009-12-10T19:56:14Z</time>
      </trkpt>
      <trkpt lat="43.67944" lon="5.63268">
        <ele>329.38891601562</ele>
        <time>2009-12-10T19:56:22Z</time>
      </trkpt>
      <trkpt lat="43.67952" lon="5.63254">
        <ele>330.83093261719</ele>
        <time>2009-12-10T19:56:30Z</time>
      </trkpt>
      <trkpt lat="43.67963" lon="5.63236">
        <ele>332.75354003906</ele>
        <time>2009-12-10T19:56:40Z</time>
      </trkpt>
      <trkpt lat="43.67972" lon="5.63212">
        <ele>334.19543457031</ele>
        <time>2009-12-10T19:56:49Z</time>
      </trkpt>
      <trkpt lat="43.67981" lon="5.63181">
        <ele>333.71472167969</ele>
        <time>2009-12-10T19:56:58Z</time>
      </trkpt>
      <trkpt lat="43.67992" lon="5.63155">
        <ele>335.15673828125</ele>
        <time>2009-12-10T19:57:06Z</time>
      </trkpt>
      <trkpt lat="43.68012" lon="5.63132">
        <ele>335.63732910156</ele>
        <time>2009-12-10T19:57:15Z</time>
      </trkpt>
      <trkpt lat="43.68029" lon="5.63119">
        <ele>334.67614746094</ele>
        <time>2009-12-10T19:57:21Z</time>
      </trkpt>
      <trkpt lat="43.68043" lon="5.63101">
        <ele>336.1181640625</ele>
        <time>2009-12-10T19:57:27Z</time>
      </trkpt>
      <trkpt lat="43.68061" lon="5.63065">
        <ele>339.48266601562</ele>
        <time>2009-12-10T19:57:38Z</time>
      </trkpt>
      <trkpt lat="43.68081" lon="5.63045">
        <ele>340.92468261719</ele>
        <time>2009-12-10T19:57:47Z</time>
      </trkpt>
      <trkpt lat="43.68088" lon="5.63029">
        <ele>341.4052734375</ele>
        <time>2009-12-10T19:57:52Z</time>
      </trkpt>
      <trkpt lat="43.68088" lon="5.63004">
        <ele>342.36669921875</ele>
        <time>2009-12-10T19:57:58Z</time>
      </trkpt>
      <trkpt lat="43.68089" lon="5.62967">
        <ele>344.77001953125</ele>
        <time>2009-12-10T19:58:07Z</time>
      </trkpt>
      <trkpt lat="43.68089" lon="5.62935">
        <ele>345.25061035156</ele>
        <time>2009-12-10T19:58:14Z</time>
      </trkpt>
      <trkpt lat="43.68082" lon="5.62906">
        <ele>346.69262695312</ele>
        <time>2009-12-10T19:58:21Z</time>
      </trkpt>
      <trkpt lat="43.68079" lon="5.62881">
        <ele>347.17321777344</ele>
        <time>2009-12-10T19:58:27Z</time>
      </trkpt>
      <trkpt lat="43.68077" lon="5.62854">
        <ele>346.21203613281</ele>
        <time>2009-12-10T19:58:33Z</time>
      </trkpt>
      <trkpt lat="43.68075" lon="5.62824">
        <ele>346.69262695312</ele>
        <time>2009-12-10T19:58:39Z</time>
      </trkpt>
      <trkpt lat="43.68082" lon="5.6281">
        <ele>347.17321777344</ele>
        <time>2009-12-10T19:58:43Z</time>
      </trkpt>
      <trkpt lat="43.68095" lon="5.62814">
        <ele>350.05725097656</ele>
        <time>2009-12-10T19:58:48Z</time>
      </trkpt>
      <trkpt lat="43.68113" lon="5.62826">
        <ele>349.57653808594</ele>
        <time>2009-12-10T19:58:56Z</time>
      </trkpt>
      <trkpt lat="43.68128" lon="5.6284">
        <ele>351.97985839844</ele>
        <time>2009-12-10T19:59:04Z</time>
      </trkpt>
      <trkpt lat="43.68143" lon="5.62856">
        <ele>354.86376953125</ele>
        <time>2009-12-10T19:59:12Z</time>
      </trkpt>
      <trkpt lat="43.6816" lon="5.62872">
        <ele>360.15112304688</ele>
        <time>2009-12-10T19:59:21Z</time>
      </trkpt>
      <trkpt lat="43.68177" lon="5.62883">
        <ele>366.88024902344</ele>
        <time>2009-12-10T19:59:30Z</time>
      </trkpt>
      <trkpt lat="43.68192" lon="5.62889">
        <ele>371.20629882812</ele>
        <time>2009-12-10T19:59:37Z</time>
      </trkpt>
      <trkpt lat="43.68208" lon="5.6289">
        <ele>376.01281738281</ele>
        <time>2009-12-10T19:59:45Z</time>
      </trkpt>
      <trkpt lat="43.68227" lon="5.62886">
        <ele>374.09008789062</ele>
        <time>2009-12-10T19:59:53Z</time>
      </trkpt>
      <trkpt lat="43.68243" lon="5.62878">
        <ele>373.60949707031</ele>
        <time>2009-12-10T20:00:00Z</time>
      </trkpt>
      <trkpt lat="43.68262" lon="5.6287">
        <ele>373.12890625</ele>
        <time>2009-12-10T20:00:08Z</time>
      </trkpt>
      <trkpt lat="43.68281" lon="5.62862">
        <ele>373.12890625</ele>
        <time>2009-12-10T20:00:17Z</time>
      </trkpt>
      <trkpt lat="43.68295" lon="5.62855">
        <ele>373.60949707031</ele>
        <time>2009-12-10T20:00:24Z</time>
      </trkpt>
      <trkpt lat="43.68307" lon="5.62848">
        <ele>370.7255859375</ele>
        <time>2009-12-10T20:00:30Z</time>
      </trkpt>
      <trkpt lat="43.68321" lon="5.6284">
        <ele>367.36096191406</ele>
        <time>2009-12-10T20:00:37Z</time>
      </trkpt>
      <trkpt lat="43.68332" lon="5.62827">
        <ele>368.80297851562</ele>
        <time>2009-12-10T20:00:44Z</time>
      </trkpt>
      <trkpt lat="43.68344" lon="5.62805">
        <ele>370.7255859375</ele>
        <time>2009-12-10T20:00:53Z</time>
      </trkpt>
      <trkpt lat="43.68354" lon="5.62797">
        <ele>372.16748046875</ele>
        <time>2009-12-10T20:00:59Z</time>
      </trkpt>
      <trkpt lat="43.68367" lon="5.6279">
        <ele>375.53210449219</ele>
        <time>2009-12-10T20:01:05Z</time>
      </trkpt>
      <trkpt lat="43.6838" lon="5.62779">
        <ele>376.97424316406</ele>
        <time>2009-12-10T20:01:12Z</time>
      </trkpt>
      <trkpt lat="43.68398" lon="5.62763">
        <ele>375.53210449219</ele>
        <time>2009-12-10T20:01:20Z</time>
      </trkpt>
      <trkpt lat="43.68412" lon="5.62748">
        <ele>376.97424316406</ele>
        <time>2009-12-10T20:01:28Z</time>
      </trkpt>
      <trkpt lat="43.68419" lon="5.62735">
        <ele>376.97424316406</ele>
        <time>2009-12-10T20:01:34Z</time>
      </trkpt>
      <trkpt lat="43.68426" lon="5.62717">
        <ele>378.41613769531</ele>
        <time>2009-12-10T20:01:41Z</time>
      </trkpt>
      <trkpt lat="43.68434" lon="5.62697">
        <ele>379.85803222656</ele>
        <time>2009-12-10T20:01:48Z</time>
      </trkpt>
      <trkpt lat="43.68448" lon="5.62671">
        <ele>383.70324707031</ele>
        <time>2009-12-10T20:01:57Z</time>
      </trkpt>
      <trkpt lat="43.6846" lon="5.62653">
        <ele>385.14538574219</ele>
        <time>2009-12-10T20:02:03Z</time>
      </trkpt>
      <trkpt lat="43.68476" lon="5.62628">
        <ele>387.06799316406</ele>
        <time>2009-12-10T20:02:11Z</time>
      </trkpt>
      <trkpt lat="43.68483" lon="5.62605">
        <ele>389.47119140625</ele>
        <time>2009-12-10T20:02:18Z</time>
      </trkpt>
      <trkpt lat="43.68488" lon="5.62585">
        <ele>389.95190429688</ele>
        <time>2009-12-10T20:02:25Z</time>
      </trkpt>
      <trkpt lat="43.68495" lon="5.62571">
        <ele>390.4326171875</ele>
        <time>2009-12-10T20:02:32Z</time>
      </trkpt>
      <trkpt lat="43.68507" lon="5.62556">
        <ele>390.91320800781</ele>
        <time>2009-12-10T20:02:41Z</time>
      </trkpt>
      <trkpt lat="43.68516" lon="5.62542">
        <ele>396.68115234375</ele>
        <time>2009-12-10T20:02:49Z</time>
      </trkpt>
      <trkpt lat="43.68526" lon="5.62526">
        <ele>397.64245605469</ele>
        <time>2009-12-10T20:02:57Z</time>
      </trkpt>
      <trkpt lat="43.68532" lon="5.62515">
        <ele>400.52648925781</ele>
        <time>2009-12-10T20:03:03Z</time>
      </trkpt>
      <trkpt lat="43.68541" lon="5.62504">
        <ele>400.52648925781</ele>
        <time>2009-12-10T20:03:09Z</time>
      </trkpt>
      <trkpt lat="43.68554" lon="5.62487">
        <ele>400.52648925781</ele>
        <time>2009-12-10T20:03:18Z</time>
      </trkpt>
      <trkpt lat="43.68565" lon="5.62464">
        <ele>400.52648925781</ele>
        <time>2009-12-10T20:03:27Z</time>
      </trkpt>
      <trkpt lat="43.68575" lon="5.6245">
        <ele>401.96850585938</ele>
        <time>2009-12-10T20:03:34Z</time>
      </trkpt>
      <trkpt lat="43.68587" lon="5.62437">
        <ele>405.3330078125</ele>
        <time>2009-12-10T20:03:42Z</time>
      </trkpt>
      <trkpt lat="43.686" lon="5.62425">
        <ele>405.3330078125</ele>
        <time>2009-12-10T20:03:50Z</time>
      </trkpt>
      <trkpt lat="43.68609" lon="5.62408">
        <ele>402.9296875</ele>
        <time>2009-12-10T20:03:57Z</time>
      </trkpt>
      <trkpt lat="43.68616" lon="5.62391">
        <ele>402.9296875</ele>
        <time>2009-12-10T20:04:03Z</time>
      </trkpt>
      <trkpt lat="43.68627" lon="5.62385">
        <ele>403.41040039062</ele>
        <time>2009-12-10T20:04:09Z</time>
      </trkpt>
      <trkpt lat="43.68644" lon="5.62381">
        <ele>405.3330078125</ele>
        <time>2009-12-10T20:04:18Z</time>
      </trkpt>
      <trkpt lat="43.68658" lon="5.62374">
        <ele>409.17834472656</ele>
        <time>2009-12-10T20:04:26Z</time>
      </trkpt>
      <trkpt lat="43.68672" lon="5.62366">
        <ele>411.10095214844</ele>
        <time>2009-12-10T20:04:33Z</time>
      </trkpt>
      <trkpt lat="43.68688" lon="5.62353">
        <ele>413.98486328125</ele>
        <time>2009-12-10T20:04:42Z</time>
      </trkpt>
      <trkpt lat="43.68702" lon="5.62341">
        <ele>412.06225585938</ele>
        <time>2009-12-10T20:04:50Z</time>
      </trkpt>
      <trkpt lat="43.68717" lon="5.62331">
        <ele>412.06225585938</ele>
        <time>2009-12-10T20:04:58Z</time>
      </trkpt>
      <trkpt lat="43.68736" lon="5.62316">
        <ele>412.06225585938</ele>
        <time>2009-12-10T20:05:08Z</time>
      </trkpt>
      <trkpt lat="43.68756" lon="5.62305">
        <ele>413.98486328125</ele>
        <time>2009-12-10T20:05:17Z</time>
      </trkpt>
      <trkpt lat="43.6877" lon="5.62292">
        <ele>414.46545410156</ele>
        <time>2009-12-10T20:05:25Z</time>
      </trkpt>
      <trkpt lat="43.68784" lon="5.62276">
        <ele>416.38818359375</ele>
        <time>2009-12-10T20:05:33Z</time>
      </trkpt>
      <trkpt lat="43.68802" lon="5.62255">
        <ele>418.31079101562</ele>
        <time>2009-12-10T20:05:43Z</time>
      </trkpt>
      <trkpt lat="43.6882" lon="5.62236">
        <ele>420.2333984375</ele>
        <time>2009-12-10T20:05:52Z</time>
      </trkpt>
      <trkpt lat="43.68837" lon="5.62217">
        <ele>422.63671875</ele>
        <time>2009-12-10T20:06:01Z</time>
      </trkpt>
      <trkpt lat="43.68853" lon="5.622">
        <ele>425.52075195312</ele>
        <time>2009-12-10T20:06:10Z</time>
      </trkpt>
      <trkpt lat="43.68862" lon="5.62187">
        <ele>426.96276855469</ele>
        <time>2009-12-10T20:06:16Z</time>
      </trkpt>
      <trkpt lat="43.68871" lon="5.62176">
        <ele>428.88537597656</ele>
        <time>2009-12-10T20:06:22Z</time>
      </trkpt>
      <trkpt lat="43.68886" lon="5.62161">
        <ele>430.32727050781</ele>
        <time>2009-12-10T20:06:31Z</time>
      </trkpt>
      <trkpt lat="43.68895" lon="5.62151">
        <ele>431.76916503906</ele>
        <time>2009-12-10T20:06:37Z</time>
      </trkpt>
      <trkpt lat="43.68908" lon="5.62129">
        <ele>433.21130371094</ele>
        <time>2009-12-10T20:06:47Z</time>
      </trkpt>
      <trkpt lat="43.68914" lon="5.62117">
        <ele>432.73071289062</ele>
        <time>2009-12-10T20:06:52Z</time>
      </trkpt>
      <trkpt lat="43.68919" lon="5.62097">
        <ele>435.13391113281</ele>
        <time>2009-12-10T20:07:00Z</time>
      </trkpt>
      <trkpt lat="43.68922" lon="5.62077">
        <ele>436.09521484375</ele>
        <time>2009-12-10T20:07:07Z</time>
      </trkpt>
      <trkpt lat="43.68929" lon="5.62047">
        <ele>438.49853515625</ele>
        <time>2009-12-10T20:07:17Z</time>
      </trkpt>
      <trkpt lat="43.68938" lon="5.62021">
        <ele>439.45971679688</ele>
        <time>2009-12-10T20:07:27Z</time>
      </trkpt>
      <trkpt lat="43.68945" lon="5.62004">
        <ele>440.42126464844</ele>
        <time>2009-12-10T20:07:34Z</time>
      </trkpt>
      <trkpt lat="43.68954" lon="5.61988">
        <ele>441.38244628906</ele>
        <time>2009-12-10T20:07:41Z</time>
      </trkpt>
      <trkpt lat="43.68969" lon="5.61979">
        <ele>442.34387207031</ele>
        <time>2009-12-10T20:07:48Z</time>
      </trkpt>
      <trkpt lat="43.6898" lon="5.61977">
        <ele>442.34387207031</ele>
        <time>2009-12-10T20:07:53Z</time>
      </trkpt>
      <trkpt lat="43.68997" lon="5.61974">
        <ele>443.78576660156</ele>
        <time>2009-12-10T20:07:59Z</time>
      </trkpt>
      <trkpt lat="43.69015" lon="5.6197">
        <ele>443.78576660156</ele>
        <time>2009-12-10T20:08:06Z</time>
      </trkpt>
      <trkpt lat="43.69032" lon="5.61966">
        <ele>446.18908691406</ele>
        <time>2009-12-10T20:08:13Z</time>
      </trkpt>
      <trkpt lat="43.69052" lon="5.61965">
        <ele>447.15026855469</ele>
        <time>2009-12-10T20:08:21Z</time>
      </trkpt>
      <trkpt lat="43.69076" lon="5.61963">
        <ele>447.63098144531</ele>
        <time>2009-12-10T20:08:30Z</time>
      </trkpt>
      <trkpt lat="43.69095" lon="5.6196">
        <ele>449.07299804688</ele>
        <time>2009-12-10T20:08:38Z</time>
      </trkpt>
      <trkpt lat="43.69098" lon="5.61959">
        <ele>449.07299804688</ele>
        <time>2009-12-10T20:08:41Z</time>
      </trkpt>
      <trkpt lat="43.69098" lon="5.6196">
        <ele>449.07299804688</ele>
        <time>2009-12-10T20:08:45Z</time>
      </trkpt>
      <trkpt lat="43.69098" lon="5.61969">
        <ele>450.03442382812</ele>
        <time>2009-12-10T20:08:49Z</time>
      </trkpt>
      <trkpt lat="43.69104" lon="5.61982">
        <ele>451.47631835938</ele>
        <time>2009-12-10T20:08:55Z</time>
      </trkpt>
      <trkpt lat="43.6912" lon="5.61993">
        <ele>451.95703125</ele>
        <time>2009-12-10T20:09:02Z</time>
      </trkpt>
      <trkpt lat="43.69143" lon="5.62011">
        <ele>452.43762207031</ele>
        <time>2009-12-10T20:09:12Z</time>
      </trkpt>
      <trkpt lat="43.69162" lon="5.62027">
        <ele>451.95703125</ele>
        <time>2009-12-10T20:09:20Z</time>
      </trkpt>
      <trkpt lat="43.69183" lon="5.62041">
        <ele>452.91821289062</ele>
        <time>2009-12-10T20:09:29Z</time>
      </trkpt>
      <trkpt lat="43.69204" lon="5.6205">
        <ele>454.36022949219</ele>
        <time>2009-12-10T20:09:38Z</time>
      </trkpt>
      <trkpt lat="43.69222" lon="5.62059">
        <ele>456.28295898438</ele>
        <time>2009-12-10T20:09:46Z</time>
      </trkpt>
      <trkpt lat="43.69232" lon="5.62072">
        <ele>458.20556640625</ele>
        <time>2009-12-10T20:09:52Z</time>
      </trkpt>
      <trkpt lat="43.69248" lon="5.62091">
        <ele>461.08947753906</ele>
        <time>2009-12-10T20:10:01Z</time>
      </trkpt>
      <trkpt lat="43.69261" lon="5.62104">
        <ele>463.97338867188</ele>
        <time>2009-12-10T20:10:08Z</time>
      </trkpt>
      <trkpt lat="43.69271" lon="5.62116">
        <ele>466.37670898438</ele>
        <time>2009-12-10T20:10:15Z</time>
      </trkpt>
      <trkpt lat="43.69284" lon="5.62133">
        <ele>466.857421875</ele>
        <time>2009-12-10T20:10:24Z</time>
      </trkpt>
      <trkpt lat="43.69302" lon="5.62148">
        <ele>467.33813476562</ele>
        <time>2009-12-10T20:10:33Z</time>
      </trkpt>
      <trkpt lat="43.69325" lon="5.62163">
        <ele>465.89611816406</ele>
        <time>2009-12-10T20:10:41Z</time>
      </trkpt>
      <trkpt lat="43.69347" lon="5.62176">
        <ele>464.4541015625</ele>
        <time>2009-12-10T20:10:47Z</time>
      </trkpt>
      <trkpt lat="43.69372" lon="5.62204">
        <ele>464.4541015625</ele>
        <time>2009-12-10T20:10:54Z</time>
      </trkpt>
      <trkpt lat="43.694" lon="5.62236">
        <ele>465.41552734375</ele>
        <time>2009-12-10T20:11:02Z</time>
      </trkpt>
      <trkpt lat="43.69426" lon="5.62266">
        <ele>465.41552734375</ele>
        <time>2009-12-10T20:11:11Z</time>
      </trkpt>
      <trkpt lat="43.6944" lon="5.62283">
        <ele>466.37670898438</ele>
        <time>2009-12-10T20:11:17Z</time>
      </trkpt>
      <trkpt lat="43.69448" lon="5.62294">
        <ele>465.89611816406</ele>
        <time>2009-12-10T20:11:20Z</time>
      </trkpt>
      <trkpt lat="43.69477" lon="5.62326">
        <ele>465.41552734375</ele>
        <time>2009-12-10T20:11:29Z</time>
      </trkpt>
      <trkpt lat="43.69501" lon="5.62366">
        <ele>461.57019042969</ele>
        <time>2009-12-10T20:11:36Z</time>
      </trkpt>
      <trkpt lat="43.69516" lon="5.62396">
        <ele>457.72497558594</ele>
        <time>2009-12-10T20:11:41Z</time>
      </trkpt>
      <trkpt lat="43.6952" lon="5.62422">
        <ele>455.32153320312</ele>
        <time>2009-12-10T20:11:45Z</time>
      </trkpt>
      <trkpt lat="43.69527" lon="5.62482">
        <ele>451.47631835938</ele>
        <time>2009-12-10T20:11:53Z</time>
      </trkpt>
      <trkpt lat="43.69529" lon="5.62504">
        <ele>449.5537109375</ele>
        <time>2009-12-10T20:11:56Z</time>
      </trkpt>
      <trkpt lat="43.69538" lon="5.62535">
        <ele>447.63098144531</ele>
        <time>2009-12-10T20:12:01Z</time>
      </trkpt>
      <trkpt lat="43.69551" lon="5.62568">
        <ele>444.26647949219</ele>
        <time>2009-12-10T20:12:08Z</time>
      </trkpt>
      <trkpt lat="43.69553" lon="5.62586">
        <ele>442.34387207031</ele>
        <time>2009-12-10T20:12:12Z</time>
      </trkpt>
      <trkpt lat="43.69545" lon="5.62608">
        <ele>442.82446289062</ele>
        <time>2009-12-10T20:12:17Z</time>
      </trkpt>
      <trkpt lat="43.69545" lon="5.62628">
        <ele>443.78576660156</ele>
        <time>2009-12-10T20:12:22Z</time>
      </trkpt>
      <trkpt lat="43.6955" lon="5.62654">
        <ele>444.7470703125</ele>
        <time>2009-12-10T20:12:30Z</time>
      </trkpt>
      <trkpt lat="43.69555" lon="5.62673">
        <ele>445.70837402344</ele>
        <time>2009-12-10T20:12:37Z</time>
      </trkpt>
      <trkpt lat="43.69563" lon="5.62691">
        <ele>447.15026855469</ele>
        <time>2009-12-10T20:12:45Z</time>
      </trkpt>
      <trkpt lat="43.69567" lon="5.62706">
        <ele>448.11181640625</ele>
        <time>2009-12-10T20:12:52Z</time>
      </trkpt>
      <trkpt lat="43.69566" lon="5.62724">
        <ele>450.03442382812</ele>
        <time>2009-12-10T20:13:00Z</time>
      </trkpt>
      <trkpt lat="43.69558" lon="5.62743">
        <ele>454.36022949219</ele>
        <time>2009-12-10T20:13:09Z</time>
      </trkpt>
      <trkpt lat="43.6955" lon="5.62752">
        <ele>454.8408203125</ele>
        <time>2009-12-10T20:13:15Z</time>
      </trkpt>
      <trkpt lat="43.69534" lon="5.62755">
        <ele>455.32153320312</ele>
        <time>2009-12-10T20:13:24Z</time>
      </trkpt>
      <trkpt lat="43.69527" lon="5.62753">
        <ele>455.80224609375</ele>
        <time>2009-12-10T20:13:28Z</time>
      </trkpt>
      <trkpt lat="43.69513" lon="5.62746">
        <ele>458.20556640625</ele>
        <time>2009-12-10T20:13:36Z</time>
      </trkpt>
      <trkpt lat="43.69498" lon="5.62746">
        <ele>459.64758300781</ele>
        <time>2009-12-10T20:13:44Z</time>
      </trkpt>
      <trkpt lat="43.69485" lon="5.62749">
        <ele>460.60876464844</ele>
        <time>2009-12-10T20:13:51Z</time>
      </trkpt>
      <trkpt lat="43.69471" lon="5.62752">
        <ele>461.08947753906</ele>
        <time>2009-12-10T20:13:59Z</time>
      </trkpt>
      <trkpt lat="43.69458" lon="5.62754">
        <ele>461.57019042969</ele>
        <time>2009-12-10T20:14:06Z</time>
      </trkpt>
      <trkpt lat="43.69441" lon="5.62763">
        <ele>462.53137207031</ele>
        <time>2009-12-10T20:14:15Z</time>
      </trkpt>
      <trkpt lat="43.69426" lon="5.62775">
        <ele>464.4541015625</ele>
        <time>2009-12-10T20:14:23Z</time>
      </trkpt>
      <trkpt lat="43.69411" lon="5.62792">
        <ele>467.33813476562</ele>
        <time>2009-12-10T20:14:32Z</time>
      </trkpt>
      <trkpt lat="43.69402" lon="5.62809">
        <ele>470.22192382812</ele>
        <time>2009-12-10T20:14:40Z</time>
      </trkpt>
      <trkpt lat="43.69393" lon="5.62821">
        <ele>472.62536621094</ele>
        <time>2009-12-10T20:14:47Z</time>
      </trkpt>
      <trkpt lat="43.69385" lon="5.62836">
        <ele>475.50927734375</ele>
        <time>2009-12-10T20:14:55Z</time>
      </trkpt>
      <trkpt lat="43.69376" lon="5.62852">
        <ele>476.95129394531</ele>
        <time>2009-12-10T20:15:04Z</time>
      </trkpt>
      <trkpt lat="43.69367" lon="5.62868">
        <ele>479.83508300781</ele>
        <time>2009-12-10T20:15:13Z</time>
      </trkpt>
      <trkpt lat="43.69361" lon="5.62885">
        <ele>480.79663085938</ele>
        <time>2009-12-10T20:15:22Z</time>
      </trkpt>
      <trkpt lat="43.69361" lon="5.62901">
        <ele>478.87390136719</ele>
        <time>2009-12-10T20:15:30Z</time>
      </trkpt>
      <trkpt lat="43.69362" lon="5.62919">
        <ele>477.91247558594</ele>
        <time>2009-12-10T20:15:38Z</time>
      </trkpt>
      <trkpt lat="43.69361" lon="5.62941">
        <ele>479.83508300781</ele>
        <time>2009-12-10T20:15:47Z</time>
      </trkpt>
      <trkpt lat="43.69357" lon="5.62954">
        <ele>481.7578125</ele>
        <time>2009-12-10T20:15:53Z</time>
      </trkpt>
      <trkpt lat="43.69347" lon="5.62964">
        <ele>483.19982910156</ele>
        <time>2009-12-10T20:16:00Z</time>
      </trkpt>
      <trkpt lat="43.69333" lon="5.62974">
        <ele>486.08374023438</ele>
        <time>2009-12-10T20:16:08Z</time>
      </trkpt>
      <trkpt lat="43.6932" lon="5.62982">
        <ele>487.04504394531</ele>
        <time>2009-12-10T20:16:16Z</time>
      </trkpt>
      <trkpt lat="43.69307" lon="5.62992">
        <ele>488.00646972656</ele>
        <time>2009-12-10T20:16:24Z</time>
      </trkpt>
      <trkpt lat="43.69296" lon="5.63001">
        <ele>489.92907714844</ele>
        <time>2009-12-10T20:16:31Z</time>
      </trkpt>
      <trkpt lat="43.69287" lon="5.63012">
        <ele>492.33239746094</ele>
        <time>2009-12-10T20:16:38Z</time>
      </trkpt>
      <trkpt lat="43.69279" lon="5.63029">
        <ele>493.77429199219</ele>
        <time>2009-12-10T20:16:47Z</time>
      </trkpt>
      <trkpt lat="43.6928" lon="5.63044">
        <ele>493.77429199219</ele>
        <time>2009-12-10T20:16:54Z</time>
      </trkpt>
      <trkpt lat="43.69285" lon="5.63062">
        <ele>495.21618652344</ele>
        <time>2009-12-10T20:17:03Z</time>
      </trkpt>
      <trkpt lat="43.69292" lon="5.63081">
        <ele>497.13891601562</ele>
        <time>2009-12-10T20:17:13Z</time>
      </trkpt>
      <trkpt lat="43.69298" lon="5.631">
        <ele>498.58093261719</ele>
        <time>2009-12-10T20:17:23Z</time>
      </trkpt>
      <trkpt lat="43.69303" lon="5.63117">
        <ele>500.02294921875</ele>
        <time>2009-12-10T20:17:32Z</time>
      </trkpt>
      <trkpt lat="43.6931" lon="5.63139">
        <ele>501.94555664062</ele>
        <time>2009-12-10T20:17:43Z</time>
      </trkpt>
      <trkpt lat="43.69314" lon="5.63155">
        <ele>501.94555664062</ele>
        <time>2009-12-10T20:17:50Z</time>
      </trkpt>
      <trkpt lat="43.69315" lon="5.63157">
        <ele>501.94555664062</ele>
        <time>2009-12-10T20:17:51Z</time>
      </trkpt>
      <trkpt lat="43.69317" lon="5.63179">
        <ele>501.94555664062</ele>
        <time>2009-12-10T20:18:01Z</time>
      </trkpt>
      <trkpt lat="43.69317" lon="5.63197">
        <ele>501.94555664062</ele>
        <time>2009-12-10T20:18:09Z</time>
      </trkpt>
      <trkpt lat="43.69315" lon="5.63218">
        <ele>502.90673828125</ele>
        <time>2009-12-10T20:18:18Z</time>
      </trkpt>
      <trkpt lat="43.69307" lon="5.63239">
        <ele>505.31018066406</ele>
        <time>2009-12-10T20:18:27Z</time>
      </trkpt>
      <trkpt lat="43.69296" lon="5.63258">
        <ele>507.23278808594</ele>
        <time>2009-12-10T20:18:35Z</time>
      </trkpt>
      <trkpt lat="43.69282" lon="5.63275">
        <ele>509.63610839844</ele>
        <time>2009-12-10T20:18:43Z</time>
      </trkpt>
      <trkpt lat="43.69267" lon="5.63292">
        <ele>510.59729003906</ele>
        <time>2009-12-10T20:18:51Z</time>
      </trkpt>
      <trkpt lat="43.69255" lon="5.63313">
        <ele>510.59729003906</ele>
        <time>2009-12-10T20:18:58Z</time>
      </trkpt>
      <trkpt lat="43.69247" lon="5.63338">
        <ele>511.07800292969</ele>
        <time>2009-12-10T20:19:05Z</time>
      </trkpt>
      <trkpt lat="43.69247" lon="5.63372">
        <ele>510.11669921875</ele>
        <time>2009-12-10T20:19:14Z</time>
      </trkpt>
      <trkpt lat="43.69251" lon="5.63406">
        <ele>509.15539550781</ele>
        <time>2009-12-10T20:19:24Z</time>
      </trkpt>
      <trkpt lat="43.69262" lon="5.63437">
        <ele>508.67468261719</ele>
        <time>2009-12-10T20:19:34Z</time>
      </trkpt>
      <trkpt lat="43.69271" lon="5.63472">
        <ele>508.19409179688</ele>
        <time>2009-12-10T20:19:43Z</time>
      </trkpt>
      <trkpt lat="43.69273" lon="5.63492">
        <ele>505.31018066406</ele>
        <time>2009-12-10T20:19:49Z</time>
      </trkpt>
      <trkpt lat="43.6927" lon="5.63506">
        <ele>503.8681640625</ele>
        <time>2009-12-10T20:19:54Z</time>
      </trkpt>
      <trkpt lat="43.69252" lon="5.63524">
        <ele>501.94555664062</ele>
        <time>2009-12-10T20:20:00Z</time>
      </trkpt>
      <trkpt lat="43.69218" lon="5.63546">
        <ele>498.58093261719</ele>
        <time>2009-12-10T20:20:08Z</time>
      </trkpt>
      <trkpt lat="43.69178" lon="5.63577">
        <ele>495.69689941406</ele>
        <time>2009-12-10T20:20:17Z</time>
      </trkpt>
      <trkpt lat="43.69159" lon="5.63598">
        <ele>493.77429199219</ele>
        <time>2009-12-10T20:20:22Z</time>
      </trkpt>
      <trkpt lat="43.69147" lon="5.63625">
        <ele>492.81298828125</ele>
        <time>2009-12-10T20:20:27Z</time>
      </trkpt>
      <trkpt lat="43.69146" lon="5.63632">
        <ele>492.33239746094</ele>
        <time>2009-12-10T20:20:28Z</time>
      </trkpt>
      <trkpt lat="43.69141" lon="5.63676">
        <ele>489.44836425781</ele>
        <time>2009-12-10T20:20:35Z</time>
      </trkpt>
      <trkpt lat="43.6914" lon="5.63691">
        <ele>488.48718261719</ele>
        <time>2009-12-10T20:20:40Z</time>
      </trkpt>
      <trkpt lat="43.69143" lon="5.63687">
        <ele>493.77429199219</ele>
        <time>2009-12-10T20:21:09Z</time>
      </trkpt>
      <trkpt lat="43.69144" lon="5.63686">
        <ele>489.44836425781</ele>
        <time>2009-12-10T20:21:21Z</time>
      </trkpt>
      <trkpt lat="43.69144" lon="5.63683">
        <ele>488.00646972656</ele>
        <time>2009-12-10T20:21:32Z</time>
      </trkpt>
      <trkpt lat="43.69144" lon="5.63686">
        <ele>494.25500488281</ele>
        <time>2009-12-10T20:21:46Z</time>
      </trkpt>
      <trkpt lat="43.69144" lon="5.63686">
        <ele>495.21618652344</ele>
        <time>2009-12-10T20:21:50Z</time>
      </trkpt>
      <trkpt lat="43.69155" lon="5.63683">
        <ele>493.29357910156</ele>
        <time>2009-12-10T20:21:55Z</time>
      </trkpt>
      <trkpt lat="43.69171" lon="5.63668">
        <ele>488.00646972656</ele>
        <time>2009-12-10T20:22:01Z</time>
      </trkpt>
      <trkpt lat="43.69179" lon="5.63658">
        <ele>485.60302734375</ele>
        <time>2009-12-10T20:22:05Z</time>
      </trkpt>
      <trkpt lat="43.69188" lon="5.63639">
        <ele>483.19982910156</ele>
        <time>2009-12-10T20:22:11Z</time>
      </trkpt>
      <trkpt lat="43.69195" lon="5.63629">
        <ele>482.23852539062</ele>
        <time>2009-12-10T20:22:14Z</time>
      </trkpt>
      <trkpt lat="43.69212" lon="5.6362">
        <ele>479.3544921875</ele>
        <time>2009-12-10T20:22:20Z</time>
      </trkpt>
      <trkpt lat="43.69226" lon="5.63617">
        <ele>477.43188476562</ele>
        <time>2009-12-10T20:22:25Z</time>
      </trkpt>
      <trkpt lat="43.69237" lon="5.63618">
        <ele>475.98986816406</ele>
        <time>2009-12-10T20:22:29Z</time>
      </trkpt>
      <trkpt lat="43.6925" lon="5.63614">
        <ele>474.06726074219</ele>
        <time>2009-12-10T20:22:34Z</time>
      </trkpt>
      <trkpt lat="43.69266" lon="5.63617">
        <ele>475.02868652344</ele>
        <time>2009-12-10T20:22:40Z</time>
      </trkpt>
      <trkpt lat="43.69281" lon="5.63626">
        <ele>475.02868652344</ele>
        <time>2009-12-10T20:22:46Z</time>
      </trkpt>
      <trkpt lat="43.69295" lon="5.63644">
        <ele>474.54797363281</ele>
        <time>2009-12-10T20:22:52Z</time>
      </trkpt>
      <trkpt lat="43.69315" lon="5.63669">
        <ele>472.14465332031</ele>
        <time>2009-12-10T20:22:59Z</time>
      </trkpt>
      <trkpt lat="43.69316" lon="5.63671">
        <ele>472.14465332031</ele>
        <time>2009-12-10T20:23:00Z</time>
      </trkpt>
      <trkpt lat="43.69314" lon="5.63676">
        <ele>470.70263671875</ele>
        <time>2009-12-10T20:23:04Z</time>
      </trkpt>
      <trkpt lat="43.6931" lon="5.63675">
        <ele>470.22192382812</ele>
        <time>2009-12-10T20:23:06Z</time>
      </trkpt>
      <trkpt lat="43.69294" lon="5.63669">
        <ele>467.33813476562</ele>
        <time>2009-12-10T20:23:15Z</time>
      </trkpt>
      <trkpt lat="43.69279" lon="5.63666">
        <ele>465.89611816406</ele>
        <time>2009-12-10T20:23:20Z</time>
      </trkpt>
      <trkpt lat="43.69257" lon="5.63658">
        <ele>463.49279785156</ele>
        <time>2009-12-10T20:23:26Z</time>
      </trkpt>
      <trkpt lat="43.69246" lon="5.63667">
        <ele>463.49279785156</ele>
        <time>2009-12-10T20:23:30Z</time>
      </trkpt>
      <trkpt lat="43.69242" lon="5.63677">
        <ele>464.4541015625</ele>
        <time>2009-12-10T20:23:32Z</time>
      </trkpt>
      <trkpt lat="43.69232" lon="5.63721">
        <ele>464.4541015625</ele>
        <time>2009-12-10T20:23:40Z</time>
      </trkpt>
      <trkpt lat="43.69221" lon="5.63751">
        <ele>463.49279785156</ele>
        <time>2009-12-10T20:23:46Z</time>
      </trkpt>
      <trkpt lat="43.69219" lon="5.63776">
        <ele>460.12817382812</ele>
        <time>2009-12-10T20:23:51Z</time>
      </trkpt>
      <trkpt lat="43.69219" lon="5.63781">
        <ele>459.16687011719</ele>
        <time>2009-12-10T20:23:52Z</time>
      </trkpt>
      <trkpt lat="43.69226" lon="5.63784">
        <ele>456.28295898438</ele>
        <time>2009-12-10T20:23:56Z</time>
      </trkpt>
      <trkpt lat="43.6923" lon="5.63779">
        <ele>455.32153320312</ele>
        <time>2009-12-10T20:23:58Z</time>
      </trkpt>
      <trkpt lat="43.6924" lon="5.63756">
        <ele>450.51501464844</ele>
        <time>2009-12-10T20:24:04Z</time>
      </trkpt>
      <trkpt lat="43.69253" lon="5.63748">
        <ele>448.11181640625</ele>
        <time>2009-12-10T20:24:08Z</time>
      </trkpt>
      <trkpt lat="43.69273" lon="5.63741">
        <ele>441.86315917969</ele>
        <time>2009-12-10T20:24:14Z</time>
      </trkpt>
      <trkpt lat="43.69284" lon="5.63748">
        <ele>439.9404296875</ele>
        <time>2009-12-10T20:24:18Z</time>
      </trkpt>
      <trkpt lat="43.69292" lon="5.63769">
        <ele>435.61450195312</ele>
        <time>2009-12-10T20:24:23Z</time>
      </trkpt>
      <trkpt lat="43.69301" lon="5.63792">
        <ele>432.73071289062</ele>
        <time>2009-12-10T20:24:28Z</time>
      </trkpt>
      <trkpt lat="43.69314" lon="5.63803">
        <ele>431.76916503906</ele>
        <time>2009-12-10T20:24:33Z</time>
      </trkpt>
      <trkpt lat="43.69329" lon="5.63817">
        <ele>429.36596679688</ele>
        <time>2009-12-10T20:24:38Z</time>
      </trkpt>
      <trkpt lat="43.69344" lon="5.6382">
        <ele>428.40466308594</ele>
        <time>2009-12-10T20:24:43Z</time>
      </trkpt>
      <trkpt lat="43.69374" lon="5.6381">
        <ele>422.63671875</ele>
        <time>2009-12-10T20:24:51Z</time>
      </trkpt>
      <trkpt lat="43.69397" lon="5.638">
        <ele>418.31079101562</ele>
        <time>2009-12-10T20:24:57Z</time>
      </trkpt>
      <trkpt lat="43.6942" lon="5.63781">
        <ele>414.94616699219</ele>
        <time>2009-12-10T20:25:04Z</time>
      </trkpt>
      <trkpt lat="43.69431" lon="5.63775">
        <ele>413.02355957031</ele>
        <time>2009-12-10T20:25:08Z</time>
      </trkpt>
      <trkpt lat="43.69445" lon="5.63776">
        <ele>412.54284667969</ele>
        <time>2009-12-10T20:25:13Z</time>
      </trkpt>
      <trkpt lat="43.69456" lon="5.63788">
        <ele>411.58166503906</ele>
        <time>2009-12-10T20:25:17Z</time>
      </trkpt>
      <trkpt lat="43.69469" lon="5.63808">
        <ele>410.62023925781</ele>
        <time>2009-12-10T20:25:22Z</time>
      </trkpt>
      <trkpt lat="43.69483" lon="5.6382">
        <ele>410.62023925781</ele>
        <time>2009-12-10T20:25:26Z</time>
      </trkpt>
      <trkpt lat="43.69499" lon="5.63833">
        <ele>408.21704101562</ele>
        <time>2009-12-10T20:25:31Z</time>
      </trkpt>
      <trkpt lat="43.69515" lon="5.63839">
        <ele>407.25561523438</ele>
        <time>2009-12-10T20:25:36Z</time>
      </trkpt>
      <trkpt lat="43.69524" lon="5.6383">
        <ele>405.3330078125</ele>
        <time>2009-12-10T20:25:39Z</time>
      </trkpt>
      <trkpt lat="43.69545" lon="5.63816">
        <ele>402.9296875</ele>
        <time>2009-12-10T20:25:45Z</time>
      </trkpt>
      <trkpt lat="43.69553" lon="5.63817">
        <ele>402.44909667969</ele>
        <time>2009-12-10T20:25:47Z</time>
      </trkpt>
      <trkpt lat="43.6958" lon="5.63832">
        <ele>399.56506347656</ele>
        <time>2009-12-10T20:25:54Z</time>
      </trkpt>
      <trkpt lat="43.69584" lon="5.63835">
        <ele>400.0458984375</ele>
        <time>2009-12-10T20:25:55Z</time>
      </trkpt>
      <trkpt lat="43.69605" lon="5.6386">
        <ele>396.68115234375</ele>
        <time>2009-12-10T20:26:01Z</time>
      </trkpt>
      <trkpt lat="43.69622" lon="5.6389">
        <ele>393.79724121094</ele>
        <time>2009-12-10T20:26:07Z</time>
      </trkpt>
      <trkpt lat="43.69625" lon="5.63896">
        <ele>393.79724121094</ele>
        <time>2009-12-10T20:26:08Z</time>
      </trkpt>
      <trkpt lat="43.69632" lon="5.63924">
        <ele>392.35534667969</ele>
        <time>2009-12-10T20:26:14Z</time>
      </trkpt>
      <trkpt lat="43.69633" lon="5.63941">
        <ele>392.8359375</ele>
        <time>2009-12-10T20:26:20Z</time>
      </trkpt>
      <trkpt lat="43.69645" lon="5.63949">
        <ele>392.8359375</ele>
        <time>2009-12-10T20:26:25Z</time>
      </trkpt>
      <trkpt lat="43.69657" lon="5.63943">
        <ele>393.79724121094</ele>
        <time>2009-12-10T20:26:28Z</time>
      </trkpt>
      <trkpt lat="43.6966" lon="5.63945">
        <ele>393.79724121094</ele>
        <time>2009-12-10T20:26:29Z</time>
      </trkpt>
      <trkpt lat="43.69667" lon="5.63951">
        <ele>393.79724121094</ele>
        <time>2009-12-10T20:26:31Z</time>
      </trkpt>
      <trkpt lat="43.69695" lon="5.63961">
        <ele>392.35534667969</ele>
        <time>2009-12-10T20:26:37Z</time>
      </trkpt>
      <trkpt lat="43.69721" lon="5.63968">
        <ele>391.39379882812</ele>
        <time>2009-12-10T20:26:42Z</time>
      </trkpt>
      <trkpt lat="43.69741" lon="5.6397">
        <ele>391.39379882812</ele>
        <time>2009-12-10T20:26:46Z</time>
      </trkpt>
      <trkpt lat="43.69755" lon="5.63976">
        <ele>390.4326171875</ele>
        <time>2009-12-10T20:26:49Z</time>
      </trkpt>
      <trkpt lat="43.69764" lon="5.63981">
        <ele>389.95190429688</ele>
        <time>2009-12-10T20:26:51Z</time>
      </trkpt>
      <trkpt lat="43.6979" lon="5.64002">
        <ele>388.029296875</ele>
        <time>2009-12-10T20:26:57Z</time>
      </trkpt>
      <trkpt lat="43.69801" lon="5.64011">
        <ele>386.10668945312</ele>
        <time>2009-12-10T20:27:00Z</time>
      </trkpt>
      <trkpt lat="43.69822" lon="5.64038">
        <ele>381.78063964844</ele>
        <time>2009-12-10T20:27:06Z</time>
      </trkpt>
      <trkpt lat="43.69841" lon="5.6407">
        <ele>375.53210449219</ele>
        <time>2009-12-10T20:27:13Z</time>
      </trkpt>
      <trkpt lat="43.69857" lon="5.64094">
        <ele>372.64819335938</ele>
        <time>2009-12-10T20:27:20Z</time>
      </trkpt>
      <trkpt lat="43.69867" lon="5.6412">
        <ele>369.28369140625</ele>
        <time>2009-12-10T20:27:26Z</time>
      </trkpt>
      <trkpt lat="43.69869" lon="5.64125">
        <ele>368.80297851562</ele>
        <time>2009-12-10T20:27:27Z</time>
      </trkpt>
      <trkpt lat="43.69873" lon="5.64136">
        <ele>367.84155273438</ele>
        <time>2009-12-10T20:27:29Z</time>
      </trkpt>
      <trkpt lat="43.69883" lon="5.64155">
        <ele>366.88024902344</ele>
        <time>2009-12-10T20:27:33Z</time>
      </trkpt>
      <trkpt lat="43.69902" lon="5.64175">
        <ele>367.36096191406</ele>
        <time>2009-12-10T20:27:38Z</time>
      </trkpt>
      <trkpt lat="43.69926" lon="5.64195">
        <ele>367.36096191406</ele>
        <time>2009-12-10T20:27:44Z</time>
      </trkpt>
      <trkpt lat="43.6993" lon="5.64198">
        <ele>367.84155273438</ele>
        <time>2009-12-10T20:27:45Z</time>
      </trkpt>
      <trkpt lat="43.69966" lon="5.64225">
        <ele>366.39953613281</ele>
        <time>2009-12-10T20:27:54Z</time>
      </trkpt>
      <trkpt lat="43.69976" lon="5.64235">
        <ele>365.9189453125</ele>
        <time>2009-12-10T20:27:57Z</time>
      </trkpt>
      <trkpt lat="43.69993" lon="5.64268">
        <ele>363.51574707031</ele>
        <time>2009-12-10T20:28:04Z</time>
      </trkpt>
      <trkpt lat="43.69997" lon="5.64278">
        <ele>363.03503417969</ele>
        <time>2009-12-10T20:28:06Z</time>
      </trkpt>
      <trkpt lat="43.70013" lon="5.64306">
        <ele>361.59313964844</ele>
        <time>2009-12-10T20:28:12Z</time>
      </trkpt>
      <trkpt lat="43.7002" lon="5.64315">
        <ele>360.15112304688</ele>
        <time>2009-12-10T20:28:14Z</time>
      </trkpt>
      <trkpt lat="43.70035" lon="5.64332">
        <ele>359.67041015625</ele>
        <time>2009-12-10T20:28:18Z</time>
      </trkpt>
      <trkpt lat="43.70061" lon="5.6437">
        <ele>354.38317871094</ele>
        <time>2009-12-10T20:28:25Z</time>
      </trkpt>
      <trkpt lat="43.70076" lon="5.6439">
        <ele>353.421875</ele>
        <time>2009-12-10T20:28:29Z</time>
      </trkpt>
      <trkpt lat="43.70086" lon="5.64409">
        <ele>351.97985839844</ele>
        <time>2009-12-10T20:28:32Z</time>
      </trkpt>
      <trkpt lat="43.70092" lon="5.6443">
        <ele>348.13464355469</ele>
        <time>2009-12-10T20:28:35Z</time>
      </trkpt>
      <trkpt lat="43.70097" lon="5.64462">
        <ele>344.28942871094</ele>
        <time>2009-12-10T20:28:40Z</time>
      </trkpt>
      <trkpt lat="43.70098" lon="5.64484">
        <ele>344.28942871094</ele>
        <time>2009-12-10T20:28:46Z</time>
      </trkpt>
      <trkpt lat="43.70101" lon="5.64504">
        <ele>344.77001953125</ele>
        <time>2009-12-10T20:28:50Z</time>
      </trkpt>
      <trkpt lat="43.70115" lon="5.64536">
        <ele>346.21203613281</ele>
        <time>2009-12-10T20:28:56Z</time>
      </trkpt>
      <trkpt lat="43.70142" lon="5.64579">
        <ele>346.69262695312</ele>
        <time>2009-12-10T20:29:04Z</time>
      </trkpt>
      <trkpt lat="43.70155" lon="5.64615">
        <ele>345.73132324219</ele>
        <time>2009-12-10T20:29:09Z</time>
      </trkpt>
      <trkpt lat="43.70169" lon="5.64675">
        <ele>338.04077148438</ele>
        <time>2009-12-10T20:29:16Z</time>
      </trkpt>
      <trkpt lat="43.70174" lon="5.64746">
        <ele>330.35021972656</ele>
        <time>2009-12-10T20:29:22Z</time>
      </trkpt>
      <trkpt lat="43.70173" lon="5.64792">
        <ele>329.86950683594</ele>
        <time>2009-12-10T20:29:26Z</time>
      </trkpt>
      <trkpt lat="43.70179" lon="5.64842">
        <ele>328.90832519531</ele>
        <time>2009-12-10T20:29:31Z</time>
      </trkpt>
      <trkpt lat="43.70198" lon="5.64906">
        <ele>330.83093261719</ele>
        <time>2009-12-10T20:29:38Z</time>
      </trkpt>
      <trkpt lat="43.70213" lon="5.64962">
        <ele>331.3115234375</ele>
        <time>2009-12-10T20:29:45Z</time>
      </trkpt>
      <trkpt lat="43.70229" lon="5.65022">
        <ele>330.35021972656</ele>
        <time>2009-12-10T20:29:52Z</time>
      </trkpt>
      <trkpt lat="43.70232" lon="5.65031">
        <ele>330.35021972656</ele>
        <time>2009-12-10T20:29:53Z</time>
      </trkpt>
      <trkpt lat="43.70252" lon="5.65063">
        <ele>329.86950683594</ele>
        <time>2009-12-10T20:29:58Z</time>
      </trkpt>
      <trkpt lat="43.70282" lon="5.6509">
        <ele>329.86950683594</ele>
        <time>2009-12-10T20:30:05Z</time>
      </trkpt>
      <trkpt lat="43.70312" lon="5.6512">
        <ele>330.35021972656</ele>
        <time>2009-12-10T20:30:12Z</time>
      </trkpt>
      <trkpt lat="43.70328" lon="5.65138">
        <ele>328.42761230469</ele>
        <time>2009-12-10T20:30:15Z</time>
      </trkpt>
      <trkpt lat="43.70348" lon="5.65157">
        <ele>326.02416992188</ele>
        <time>2009-12-10T20:30:18Z</time>
      </trkpt>
      <trkpt lat="43.70364" lon="5.65184">
        <ele>324.1015625</ele>
        <time>2009-12-10T20:30:22Z</time>
      </trkpt>
      <trkpt lat="43.70378" lon="5.65245">
        <ele>317.85302734375</ele>
        <time>2009-12-10T20:30:27Z</time>
      </trkpt>
      <trkpt lat="43.70382" lon="5.6527">
        <ele>314.96911621094</ele>
        <time>2009-12-10T20:30:29Z</time>
      </trkpt>
      <trkpt lat="43.7038" lon="5.65317">
        <ele>311.6044921875</ele>
        <time>2009-12-10T20:30:33Z</time>
      </trkpt>
      <trkpt lat="43.70352" lon="5.654">
        <ele>308.23986816406</ele>
        <time>2009-12-10T20:30:40Z</time>
      </trkpt>
      <trkpt lat="43.70345" lon="5.6542">
        <ele>309.201171875</ele>
        <time>2009-12-10T20:30:42Z</time>
      </trkpt>
      <trkpt lat="43.70347" lon="5.6545">
        <ele>309.201171875</ele>
        <time>2009-12-10T20:30:46Z</time>
      </trkpt>
      <trkpt lat="43.70351" lon="5.65454">
        <ele>308.72045898438</ele>
        <time>2009-12-10T20:30:47Z</time>
      </trkpt>
      <trkpt lat="43.70385" lon="5.65469">
        <ele>312.08520507812</ele>
        <time>2009-12-10T20:30:54Z</time>
      </trkpt>
      <trkpt lat="43.70401" lon="5.65476">
        <ele>316.89172363281</ele>
        <time>2009-12-10T20:30:59Z</time>
      </trkpt>
      <trkpt lat="43.7042" lon="5.65485">
        <ele>319.29504394531</ele>
        <time>2009-12-10T20:31:06Z</time>
      </trkpt>
      <trkpt lat="43.70436" lon="5.65493">
        <ele>322.65966796875</ele>
        <time>2009-12-10T20:31:13Z</time>
      </trkpt>
      <trkpt lat="43.70442" lon="5.65498">
        <ele>323.14038085938</ele>
        <time>2009-12-10T20:31:16Z</time>
      </trkpt>
      <trkpt lat="43.70449" lon="5.65526">
        <ele>326.5048828125</ele>
        <time>2009-12-10T20:31:25Z</time>
      </trkpt>
      <trkpt lat="43.70455" lon="5.65542">
        <ele>325.06298828125</ele>
        <time>2009-12-10T20:31:31Z</time>
      </trkpt>
      <trkpt lat="43.70456" lon="5.65545">
        <ele>324.58227539062</ele>
        <time>2009-12-10T20:31:32Z</time>
      </trkpt>
      <trkpt lat="43.70465" lon="5.65545">
        <ele>325.06298828125</ele>
        <time>2009-12-10T20:31:36Z</time>
      </trkpt>
      <trkpt lat="43.70467" lon="5.65542">
        <ele>325.06298828125</ele>
        <time>2009-12-10T20:31:37Z</time>
      </trkpt>
      <trkpt lat="43.70478" lon="5.65526">
        <ele>322.65966796875</ele>
        <time>2009-12-10T20:31:44Z</time>
      </trkpt>
    </trkseg>
  </trk>
</gpx>